<?xml version="1.0" encoding="UTF-8" standalone="no" ?>
<gpx xmlns="http://www.topografix.com/GPX/1/1" xmlns:xsi="http://www.w3.org/2001/XMLSchema-instance" xsi:schemaLocation="http://www.topografix.com/GPX/1/1 http://www.topografix.com/GPX/1/1/gpx.xsd" version="1.1" creator="VisuGPX - https://www.visugpx.com">
  <metadata>
    <name>2016-06-23 Tour des hauts plateaux de Chartreuse par les sangles 2/3</name>
    <desc><![CDATA[Seconde étape sortie CAF Chy]]></desc>
  </metadata>
  <trk>
    <name><![CDATA[2016-06-23 Tour des hauts plateaux par les sangles J2]]></name>
    <trkseg>
      <trkpt lat="45.40089" lon="5.89057">
        <ele>907</ele>
        <time>2016-06-23T06:35:07Z</time>
      </trkpt>
      <trkpt lat="45.4008" lon="5.8905">
        <ele>845.586735155</ele>
        <time>2016-06-23T06:35:12Z</time>
      </trkpt>
      <trkpt lat="45.40076" lon="5.89054">
        <ele>852.909441509</ele>
        <time>2016-06-23T06:37:27Z</time>
      </trkpt>
      <trkpt lat="45.40075" lon="5.89068">
        <ele>857.4311067</ele>
        <time>2016-06-23T06:37:37Z</time>
      </trkpt>
      <trkpt lat="45.40054" lon="5.89063">
        <ele>863.445247447</ele>
        <time>2016-06-23T06:37:57Z</time>
      </trkpt>
      <trkpt lat="45.40043" lon="5.89067">
        <ele>869.133596724</ele>
        <time>2016-06-23T06:38:12Z</time>
      </trkpt>
      <trkpt lat="45.4002" lon="5.89079">
        <ele>873.707715347</ele>
        <time>2016-06-23T06:38:32Z</time>
      </trkpt>
      <trkpt lat="45.40002" lon="5.89091">
        <ele>878.380629865</ele>
        <time>2016-06-23T06:38:47Z</time>
      </trkpt>
      <trkpt lat="45.39985" lon="5.89102">
        <ele>882.264238101</ele>
        <time>2016-06-23T06:39:02Z</time>
      </trkpt>
      <trkpt lat="45.39977" lon="5.89081">
        <ele>885.683113591</ele>
        <time>2016-06-23T06:39:32Z</time>
      </trkpt>
      <trkpt lat="45.39966" lon="5.89063">
        <ele>888.609421166</ele>
        <time>2016-06-23T06:39:52Z</time>
      </trkpt>
      <trkpt lat="45.3995" lon="5.89057">
        <ele>890.227996475</ele>
        <time>2016-06-23T06:40:02Z</time>
      </trkpt>
      <trkpt lat="45.39929" lon="5.89058">
        <ele>890.661473431</ele>
        <time>2016-06-23T06:40:17Z</time>
      </trkpt>
      <trkpt lat="45.39921" lon="5.89051">
        <ele>890.38712083</ele>
        <time>2016-06-23T06:40:32Z</time>
      </trkpt>
      <trkpt lat="45.39905" lon="5.89047">
        <ele>889.696553218</ele>
        <time>2016-06-23T06:40:47Z</time>
      </trkpt>
      <trkpt lat="45.39895" lon="5.89045">
        <ele>889.360322297</ele>
        <time>2016-06-23T06:40:52Z</time>
      </trkpt>
      <trkpt lat="45.39881" lon="5.89038">
        <ele>888.248798647</ele>
        <time>2016-06-23T06:41:02Z</time>
      </trkpt>
      <trkpt lat="45.39848" lon="5.89028">
        <ele>885.516959374</ele>
        <time>2016-06-23T06:41:33Z</time>
      </trkpt>
      <trkpt lat="45.39841" lon="5.89012">
        <ele>884.785214382</ele>
        <time>2016-06-23T06:41:48Z</time>
      </trkpt>
      <trkpt lat="45.39838" lon="5.88996">
        <ele>885.068482387</ele>
        <time>2016-06-23T06:42:03Z</time>
      </trkpt>
      <trkpt lat="45.39832" lon="5.88975">
        <ele>884.858562479</ele>
        <time>2016-06-23T06:42:23Z</time>
      </trkpt>
      <trkpt lat="45.39827" lon="5.88961">
        <ele>883.764712618</ele>
        <time>2016-06-23T06:42:37Z</time>
      </trkpt>
      <trkpt lat="45.39829" lon="5.88949">
        <ele>882.663969248</ele>
        <time>2016-06-23T06:42:52Z</time>
      </trkpt>
      <trkpt lat="45.39832" lon="5.88935">
        <ele>881.867281685</ele>
        <time>2016-06-23T06:43:08Z</time>
      </trkpt>
      <trkpt lat="45.39836" lon="5.88919">
        <ele>881.199151165</ele>
        <time>2016-06-23T06:43:18Z</time>
      </trkpt>
      <trkpt lat="45.39841" lon="5.88902">
        <ele>882.106032909</ele>
        <time>2016-06-23T06:43:33Z</time>
      </trkpt>
      <trkpt lat="45.39845" lon="5.88883">
        <ele>883.99021154</ele>
        <time>2016-06-23T06:43:48Z</time>
      </trkpt>
      <trkpt lat="45.39855" lon="5.88878">
        <ele>885.7544646</ele>
        <time>2016-06-23T06:43:57Z</time>
      </trkpt>
      <trkpt lat="45.39852" lon="5.88859">
        <ele>887.550001205</ele>
        <time>2016-06-23T06:44:08Z</time>
      </trkpt>
      <trkpt lat="45.3986" lon="5.88838">
        <ele>889.372171082</ele>
        <time>2016-06-23T06:44:32Z</time>
      </trkpt>
      <trkpt lat="45.39852" lon="5.88814">
        <ele>892.332201668</ele>
        <time>2016-06-23T06:44:59Z</time>
      </trkpt>
      <trkpt lat="45.39838" lon="5.88812">
        <ele>895.917859768</ele>
        <time>2016-06-23T06:45:19Z</time>
      </trkpt>
      <trkpt lat="45.39821" lon="5.88811">
        <ele>900.078658555</ele>
        <time>2016-06-23T06:45:39Z</time>
      </trkpt>
      <trkpt lat="45.39799" lon="5.88814">
        <ele>903.243115039</ele>
        <time>2016-06-23T06:45:54Z</time>
      </trkpt>
      <trkpt lat="45.39743" lon="5.88791">
        <ele>905.05953721</ele>
        <time>2016-06-23T06:46:54Z</time>
      </trkpt>
      <trkpt lat="45.39728" lon="5.88779">
        <ele>907.566883056</ele>
        <time>2016-06-23T06:47:13Z</time>
      </trkpt>
      <trkpt lat="45.3972" lon="5.88777">
        <ele>910.299052321</ele>
        <time>2016-06-23T06:47:28Z</time>
      </trkpt>
      <trkpt lat="45.39704" lon="5.88776">
        <ele>912.957735076</ele>
        <time>2016-06-23T06:47:43Z</time>
      </trkpt>
      <trkpt lat="45.39695" lon="5.88773">
        <ele>916.395089738</ele>
        <time>2016-06-23T06:48:05Z</time>
      </trkpt>
      <trkpt lat="45.39663" lon="5.88779">
        <ele>920.847490895</ele>
        <time>2016-06-23T06:48:42Z</time>
      </trkpt>
      <trkpt lat="45.39653" lon="5.88784">
        <ele>924.955812721</ele>
        <time>2016-06-23T06:48:54Z</time>
      </trkpt>
      <trkpt lat="45.3964" lon="5.88781">
        <ele>929.021121493</ele>
        <time>2016-06-23T06:49:28Z</time>
      </trkpt>
      <trkpt lat="45.39623" lon="5.88766">
        <ele>933.03817051</ele>
        <time>2016-06-23T06:49:37Z</time>
      </trkpt>
      <trkpt lat="45.39611" lon="5.88748">
        <ele>937.295587522</ele>
        <time>2016-06-23T06:49:57Z</time>
      </trkpt>
      <trkpt lat="45.39574" lon="5.88709">
        <ele>943.245806078</ele>
        <time>2016-06-23T06:51:00Z</time>
      </trkpt>
      <trkpt lat="45.39568" lon="5.88711">
        <ele>948.396931184</ele>
        <time>2016-06-23T06:51:10Z</time>
      </trkpt>
      <trkpt lat="45.39552" lon="5.88701">
        <ele>953.085489318</ele>
        <time>2016-06-23T06:51:43Z</time>
      </trkpt>
      <trkpt lat="45.39532" lon="5.88696">
        <ele>957.482076333</ele>
        <time>2016-06-23T06:52:03Z</time>
      </trkpt>
      <trkpt lat="45.39523" lon="5.88687">
        <ele>961.899252846</ele>
        <time>2016-06-23T06:52:18Z</time>
      </trkpt>
      <trkpt lat="45.39507" lon="5.88665">
        <ele>966.479316389</ele>
        <time>2016-06-23T06:52:47Z</time>
      </trkpt>
      <trkpt lat="45.39494" lon="5.8865">
        <ele>972.108021082</ele>
        <time>2016-06-23T06:53:18Z</time>
      </trkpt>
      <trkpt lat="45.39482" lon="5.88637">
        <ele>977.339963075</ele>
        <time>2016-06-23T06:53:37Z</time>
      </trkpt>
      <trkpt lat="45.39457" lon="5.88621">
        <ele>982.196046838</ele>
        <time>2016-06-23T06:54:07Z</time>
      </trkpt>
      <trkpt lat="45.39448" lon="5.88612">
        <ele>987.00025573</ele>
        <time>2016-06-23T06:54:18Z</time>
      </trkpt>
      <trkpt lat="45.39436" lon="5.88606">
        <ele>992.052514114</ele>
        <time>2016-06-23T06:54:33Z</time>
      </trkpt>
      <trkpt lat="45.39425" lon="5.886">
        <ele>997.025488831</ele>
        <time>2016-06-23T06:55:08Z</time>
      </trkpt>
      <trkpt lat="45.39407" lon="5.88582">
        <ele>1002.521910224</ele>
        <time>2016-06-23T06:55:23Z</time>
      </trkpt>
      <trkpt lat="45.39399" lon="5.88574">
        <ele>1008.041797236</ele>
        <time>2016-06-23T06:55:51Z</time>
      </trkpt>
      <trkpt lat="45.39399" lon="5.88564">
        <ele>1013.426490523</ele>
        <time>2016-06-23T06:56:33Z</time>
      </trkpt>
      <trkpt lat="45.39386" lon="5.88545">
        <ele>1018.381730131</ele>
        <time>2016-06-23T06:56:48Z</time>
      </trkpt>
      <trkpt lat="45.39384" lon="5.88527">
        <ele>1022.63968088</ele>
        <time>2016-06-23T06:57:03Z</time>
      </trkpt>
      <trkpt lat="45.39361" lon="5.88494">
        <ele>1026.404345616</ele>
        <time>2016-06-23T06:57:53Z</time>
      </trkpt>
      <trkpt lat="45.39348" lon="5.88499">
        <ele>1029.715649788</ele>
        <time>2016-06-23T06:58:05Z</time>
      </trkpt>
      <trkpt lat="45.39343" lon="5.88496">
        <ele>1034.241689292</ele>
        <time>2016-06-23T06:58:43Z</time>
      </trkpt>
      <trkpt lat="45.39332" lon="5.88492">
        <ele>1038.698252367</ele>
        <time>2016-06-23T06:58:58Z</time>
      </trkpt>
      <trkpt lat="45.39308" lon="5.8848">
        <ele>1042.941419618</ele>
        <time>2016-06-23T07:00:14Z</time>
      </trkpt>
      <trkpt lat="45.39297" lon="5.88477">
        <ele>1046.692819275</ele>
        <time>2016-06-23T07:00:17Z</time>
      </trkpt>
      <trkpt lat="45.39298" lon="5.88469">
        <ele>1050.579200298</ele>
        <time>2016-06-23T07:00:29Z</time>
      </trkpt>
      <trkpt lat="45.3928" lon="5.88467">
        <ele>1054.003517899</ele>
        <time>2016-06-23T07:01:24Z</time>
      </trkpt>
      <trkpt lat="45.39266" lon="5.88459">
        <ele>1057.442099805</ele>
        <time>2016-06-23T07:01:53Z</time>
      </trkpt>
      <trkpt lat="45.39242" lon="5.88444">
        <ele>1061.624307524</ele>
        <time>2016-06-23T07:02:03Z</time>
      </trkpt>
      <trkpt lat="45.3923" lon="5.88425">
        <ele>1067.07335889</ele>
        <time>2016-06-23T07:02:51Z</time>
      </trkpt>
      <trkpt lat="45.39222" lon="5.88401">
        <ele>1073.249934349</ele>
        <time>2016-06-23T07:03:07Z</time>
      </trkpt>
      <trkpt lat="45.3921" lon="5.884">
        <ele>1078.20403207</ele>
        <time>2016-06-23T07:03:45Z</time>
      </trkpt>
      <trkpt lat="45.39197" lon="5.88374">
        <ele>1083.478189939</ele>
        <time>2016-06-23T07:04:18Z</time>
      </trkpt>
      <trkpt lat="45.39183" lon="5.88358">
        <ele>1088.175426399</ele>
        <time>2016-06-23T07:04:50Z</time>
      </trkpt>
      <trkpt lat="45.39173" lon="5.8834">
        <ele>1093.496161919</ele>
        <time>2016-06-23T07:05:33Z</time>
      </trkpt>
      <trkpt lat="45.39162" lon="5.88341">
        <ele>1098.811476233</ele>
        <time>2016-06-23T07:05:48Z</time>
      </trkpt>
      <trkpt lat="45.3915" lon="5.88323">
        <ele>1103.685306721</ele>
        <time>2016-06-23T07:06:50Z</time>
      </trkpt>
      <trkpt lat="45.39141" lon="5.88308">
        <ele>1108.871329764</ele>
        <time>2016-06-23T07:07:05Z</time>
      </trkpt>
      <trkpt lat="45.39134" lon="5.88296">
        <ele>1114.05501027</ele>
        <time>2016-06-23T07:07:25Z</time>
      </trkpt>
      <trkpt lat="45.39129" lon="5.88285">
        <ele>1119.522823922</ele>
        <time>2016-06-23T07:07:43Z</time>
      </trkpt>
      <trkpt lat="45.3912" lon="5.8827">
        <ele>1123.952342712</ele>
        <time>2016-06-23T07:07:53Z</time>
      </trkpt>
      <trkpt lat="45.39108" lon="5.88263">
        <ele>1129.439697005</ele>
        <time>2016-06-23T07:08:07Z</time>
      </trkpt>
      <trkpt lat="45.39102" lon="5.88243">
        <ele>1134.46174025</ele>
        <time>2016-06-23T07:08:23Z</time>
      </trkpt>
      <trkpt lat="45.39098" lon="5.88239">
        <ele>1139.19556745</ele>
        <time>2016-06-23T07:08:37Z</time>
      </trkpt>
      <trkpt lat="45.39082" lon="5.88231">
        <ele>1143.661852679</ele>
        <time>2016-06-23T07:09:43Z</time>
      </trkpt>
      <trkpt lat="45.39075" lon="5.88217">
        <ele>1147.736376716</ele>
        <time>2016-06-23T07:09:48Z</time>
      </trkpt>
      <trkpt lat="45.39068" lon="5.88202">
        <ele>1152.170269076</ele>
        <time>2016-06-23T07:10:02Z</time>
      </trkpt>
      <trkpt lat="45.39053" lon="5.88201">
        <ele>1156.07258337</ele>
        <time>2016-06-23T07:10:30Z</time>
      </trkpt>
      <trkpt lat="45.39051" lon="5.88185">
        <ele>1159.917001744</ele>
        <time>2016-06-23T07:11:33Z</time>
      </trkpt>
      <trkpt lat="45.39042" lon="5.88156">
        <ele>1161.97976696</ele>
        <time>2016-06-23T07:11:48Z</time>
      </trkpt>
      <trkpt lat="45.39036" lon="5.88146">
        <ele>1164.129404897</ele>
        <time>2016-06-23T07:12:33Z</time>
      </trkpt>
      <trkpt lat="45.39025" lon="5.88131">
        <ele>1167.231977676</ele>
        <time>2016-06-23T07:12:48Z</time>
      </trkpt>
      <trkpt lat="45.39006" lon="5.88119">
        <ele>1171.510504643</ele>
        <time>2016-06-23T07:13:23Z</time>
      </trkpt>
      <trkpt lat="45.38976" lon="5.88073">
        <ele>1177.889448066</ele>
        <time>2016-06-23T07:15:08Z</time>
      </trkpt>
      <trkpt lat="45.38968" lon="5.88061">
        <ele>1183.036753024</ele>
        <time>2016-06-23T07:15:38Z</time>
      </trkpt>
      <trkpt lat="45.38955" lon="5.88042">
        <ele>1187.762733709</ele>
        <time>2016-06-23T07:15:53Z</time>
      </trkpt>
      <trkpt lat="45.38948" lon="5.88024">
        <ele>1192.675186697</ele>
        <time>2016-06-23T07:16:10Z</time>
      </trkpt>
      <trkpt lat="45.38937" lon="5.88016">
        <ele>1198.480990749</ele>
        <time>2016-06-23T07:16:28Z</time>
      </trkpt>
      <trkpt lat="45.38934" lon="5.88004">
        <ele>1203.813135702</ele>
        <time>2016-06-23T07:16:43Z</time>
      </trkpt>
      <trkpt lat="45.38928" lon="5.88018">
        <ele>1209.137369644</ele>
        <time>2016-06-23T07:16:52Z</time>
      </trkpt>
      <trkpt lat="45.38923" lon="5.88">
        <ele>1213.442816345</ele>
        <time>2016-06-23T07:17:24Z</time>
      </trkpt>
      <trkpt lat="45.38907" lon="5.87968">
        <ele>1218.103693726</ele>
        <time>2016-06-23T07:17:57Z</time>
      </trkpt>
      <trkpt lat="45.38891" lon="5.87951">
        <ele>1223.382456859</ele>
        <time>2016-06-23T07:19:08Z</time>
      </trkpt>
      <trkpt lat="45.38888" lon="5.87941">
        <ele>1229.376276524</ele>
        <time>2016-06-23T07:19:39Z</time>
      </trkpt>
      <trkpt lat="45.38877" lon="5.87927">
        <ele>1234.442483376</ele>
        <time>2016-06-23T07:19:52Z</time>
      </trkpt>
      <trkpt lat="45.38869" lon="5.87909">
        <ele>1239.369511539</ele>
        <time>2016-06-23T07:20:33Z</time>
      </trkpt>
      <trkpt lat="45.38859" lon="5.8789">
        <ele>1243.734453838</ele>
        <time>2016-06-23T07:21:03Z</time>
      </trkpt>
      <trkpt lat="45.38847" lon="5.87881">
        <ele>1248.012383746</ele>
        <time>2016-06-23T07:21:28Z</time>
      </trkpt>
      <trkpt lat="45.38835" lon="5.87864">
        <ele>1253.364616917</ele>
        <time>2016-06-23T07:21:43Z</time>
      </trkpt>
      <trkpt lat="45.38814" lon="5.8785">
        <ele>1259.422030839</ele>
        <time>2016-06-23T07:22:24Z</time>
      </trkpt>
      <trkpt lat="45.38812" lon="5.87835">
        <ele>1265.408204248</ele>
        <time>2016-06-23T07:23:08Z</time>
      </trkpt>
      <trkpt lat="45.38806" lon="5.87824">
        <ele>1270.748318277</ele>
        <time>2016-06-23T07:23:37Z</time>
      </trkpt>
      <trkpt lat="45.38802" lon="5.87812">
        <ele>1275.200070726</ele>
        <time>2016-06-23T07:24:00Z</time>
      </trkpt>
      <trkpt lat="45.38798" lon="5.87793">
        <ele>1279.118161386</ele>
        <time>2016-06-23T07:24:10Z</time>
      </trkpt>
      <trkpt lat="45.3879" lon="5.87785">
        <ele>1282.6885337</ele>
        <time>2016-06-23T07:24:25Z</time>
      </trkpt>
      <trkpt lat="45.38754" lon="5.87751">
        <ele>1288.967392042</ele>
        <time>2016-06-23T07:25:27Z</time>
      </trkpt>
      <trkpt lat="45.38744" lon="5.87742">
        <ele>1294.580282951</ele>
        <time>2016-06-23T07:25:43Z</time>
      </trkpt>
      <trkpt lat="45.38737" lon="5.87733">
        <ele>1300.006451863</ele>
        <time>2016-06-23T07:26:38Z</time>
      </trkpt>
      <trkpt lat="45.38718" lon="5.87723">
        <ele>1306.266955172</ele>
        <time>2016-06-23T07:27:03Z</time>
      </trkpt>
      <trkpt lat="45.38698" lon="5.87712">
        <ele>1311.855226878</ele>
        <time>2016-06-23T07:28:27Z</time>
      </trkpt>
      <trkpt lat="45.38664" lon="5.87679">
        <ele>1318.980593756</ele>
        <time>2016-06-23T07:29:33Z</time>
      </trkpt>
      <trkpt lat="45.38656" lon="5.8766">
        <ele>1325.217827011</ele>
        <time>2016-06-23T07:29:59Z</time>
      </trkpt>
      <trkpt lat="45.38646" lon="5.87669">
        <ele>1333.510921167</ele>
        <time>2016-06-23T07:30:07Z</time>
      </trkpt>
      <trkpt lat="45.38639" lon="5.87674">
        <ele>1342.114068494</ele>
        <time>2016-06-23T07:30:58Z</time>
      </trkpt>
      <trkpt lat="45.38623" lon="5.87672">
        <ele>1350.850195908</ele>
        <time>2016-06-23T07:31:13Z</time>
      </trkpt>
      <trkpt lat="45.38633" lon="5.87658">
        <ele>1357.39324897</ele>
        <time>2016-06-23T07:31:28Z</time>
      </trkpt>
      <trkpt lat="45.38611" lon="5.87635">
        <ele>1362.332551689</ele>
        <time>2016-06-23T07:32:12Z</time>
      </trkpt>
      <trkpt lat="45.38605" lon="5.87616">
        <ele>1366.939298333</ele>
        <time>2016-06-23T07:32:47Z</time>
      </trkpt>
      <trkpt lat="45.38601" lon="5.87604">
        <ele>1371.671763114</ele>
        <time>2016-06-23T07:33:03Z</time>
      </trkpt>
      <trkpt lat="45.38599" lon="5.87592">
        <ele>1374.936729597</ele>
        <time>2016-06-23T07:33:23Z</time>
      </trkpt>
      <trkpt lat="45.38587" lon="5.87588">
        <ele>1377.423924301</ele>
        <time>2016-06-23T07:33:38Z</time>
      </trkpt>
      <trkpt lat="45.38583" lon="5.87563">
        <ele>1379.342314956</ele>
        <time>2016-06-23T07:33:48Z</time>
      </trkpt>
      <trkpt lat="45.38576" lon="5.87547">
        <ele>1382.184172299</ele>
        <time>2016-06-23T07:34:03Z</time>
      </trkpt>
      <trkpt lat="45.38558" lon="5.87539">
        <ele>1386.032565835</ele>
        <time>2016-06-23T07:35:13Z</time>
      </trkpt>
      <trkpt lat="45.38547" lon="5.87513">
        <ele>1389.808738034</ele>
        <time>2016-06-23T07:35:32Z</time>
      </trkpt>
      <trkpt lat="45.38528" lon="5.87488">
        <ele>1395.395625247</ele>
        <time>2016-06-23T07:36:13Z</time>
      </trkpt>
      <trkpt lat="45.38521" lon="5.87484">
        <ele>1395.395625247</ele>
        <time>2016-06-23T07:37:18Z</time>
      </trkpt>
      <trkpt lat="45.38511" lon="5.87482">
        <ele>1401.074030351</ele>
        <time>2016-06-23T07:37:23Z</time>
      </trkpt>
      <trkpt lat="45.38504" lon="5.87467">
        <ele>1406.547783191</ele>
        <time>2016-06-23T07:37:40Z</time>
      </trkpt>
      <trkpt lat="45.38491" lon="5.87448">
        <ele>1411.687135683</ele>
        <time>2016-06-23T07:38:23Z</time>
      </trkpt>
      <trkpt lat="45.38471" lon="5.87427">
        <ele>1416.228675542</ele>
        <time>2016-06-23T07:38:41Z</time>
      </trkpt>
      <trkpt lat="45.38463" lon="5.8742">
        <ele>1420.506455667</ele>
        <time>2016-06-23T07:39:02Z</time>
      </trkpt>
      <trkpt lat="45.38457" lon="5.87402">
        <ele>1424.542479563</ele>
        <time>2016-06-23T07:39:17Z</time>
      </trkpt>
      <trkpt lat="45.38458" lon="5.87379">
        <ele>1429.510704571</ele>
        <time>2016-06-23T07:39:48Z</time>
      </trkpt>
      <trkpt lat="45.38449" lon="5.87359">
        <ele>1435.487403456</ele>
        <time>2016-06-23T07:41:08Z</time>
      </trkpt>
      <trkpt lat="45.38455" lon="5.87351">
        <ele>1441.531584282</ele>
        <time>2016-06-23T07:41:28Z</time>
      </trkpt>
      <trkpt lat="45.38462" lon="5.87328">
        <ele>1447.635857046</ele>
        <time>2016-06-23T07:42:13Z</time>
      </trkpt>
      <trkpt lat="45.38451" lon="5.87325">
        <ele>1453.072615585</ele>
        <time>2016-06-23T07:42:18Z</time>
      </trkpt>
      <trkpt lat="45.3845" lon="5.87292">
        <ele>1459.043061386</ele>
        <time>2016-06-23T07:42:58Z</time>
      </trkpt>
      <trkpt lat="45.38455" lon="5.87273">
        <ele>1465.217506853</ele>
        <time>2016-06-23T07:43:42Z</time>
      </trkpt>
      <trkpt lat="45.38448" lon="5.87263">
        <ele>1470.857572568</ele>
        <time>2016-06-23T07:44:32Z</time>
      </trkpt>
      <trkpt lat="45.38441" lon="5.87225">
        <ele>1478.30703714</ele>
        <time>2016-06-23T07:45:18Z</time>
      </trkpt>
      <trkpt lat="45.38429" lon="5.87224">
        <ele>1484.400212653</ele>
        <time>2016-06-23T07:45:33Z</time>
      </trkpt>
      <trkpt lat="45.38424" lon="5.87215">
        <ele>1484.400212653</ele>
        <time>2016-06-23T07:47:23Z</time>
      </trkpt>
      <trkpt lat="45.38426" lon="5.87209">
        <ele>1489.666546936</ele>
        <time>2016-06-23T07:50:03Z</time>
      </trkpt>
      <trkpt lat="45.38422" lon="5.87216">
        <ele>1493.590144817</ele>
        <time>2016-06-23T07:54:32Z</time>
      </trkpt>
      <trkpt lat="45.38413" lon="5.87226">
        <ele>1496.84971493</ele>
        <time>2016-06-23T07:54:48Z</time>
      </trkpt>
      <trkpt lat="45.384" lon="5.87237">
        <ele>1501.724711247</ele>
        <time>2016-06-23T07:55:03Z</time>
      </trkpt>
      <trkpt lat="45.384" lon="5.87253">
        <ele>1503.874629158</ele>
        <time>2016-06-23T07:55:18Z</time>
      </trkpt>
      <trkpt lat="45.38387" lon="5.87261">
        <ele>1506.240995952</ele>
        <time>2016-06-23T07:55:33Z</time>
      </trkpt>
      <trkpt lat="45.38376" lon="5.8727">
        <ele>1508.815784692</ele>
        <time>2016-06-23T07:55:58Z</time>
      </trkpt>
      <trkpt lat="45.3836" lon="5.87286">
        <ele>1510.437990979</ele>
        <time>2016-06-23T07:56:23Z</time>
      </trkpt>
      <trkpt lat="45.38345" lon="5.87298">
        <ele>1512.340269287</ele>
        <time>2016-06-23T07:57:08Z</time>
      </trkpt>
      <trkpt lat="45.38333" lon="5.87306">
        <ele>1514.655028698</ele>
        <time>2016-06-23T07:57:23Z</time>
      </trkpt>
      <trkpt lat="45.38326" lon="5.87315">
        <ele>1516.783098526</ele>
        <time>2016-06-23T07:57:38Z</time>
      </trkpt>
      <trkpt lat="45.3832" lon="5.87331">
        <ele>1518.89025741</ele>
        <time>2016-06-23T07:58:00Z</time>
      </trkpt>
      <trkpt lat="45.38312" lon="5.87339">
        <ele>1520.985889121</ele>
        <time>2016-06-23T07:58:34Z</time>
      </trkpt>
      <trkpt lat="45.38303" lon="5.87348">
        <ele>1523.222658075</ele>
        <time>2016-06-23T07:58:52Z</time>
      </trkpt>
      <trkpt lat="45.38294" lon="5.87353">
        <ele>1525.164987546</ele>
        <time>2016-06-23T07:59:07Z</time>
      </trkpt>
      <trkpt lat="45.38275" lon="5.87397">
        <ele>1529.292165201</ele>
        <time>2016-06-23T08:00:25Z</time>
      </trkpt>
      <trkpt lat="45.3827" lon="5.87409">
        <ele>1532.70701579</ele>
        <time>2016-06-23T08:00:53Z</time>
      </trkpt>
      <trkpt lat="45.38263" lon="5.87413">
        <ele>1536.32978528</ele>
        <time>2016-06-23T08:01:13Z</time>
      </trkpt>
      <trkpt lat="45.38259" lon="5.87424">
        <ele>1539.859458063</ele>
        <time>2016-06-23T08:01:38Z</time>
      </trkpt>
      <trkpt lat="45.38256" lon="5.8744">
        <ele>1543.59365871</ele>
        <time>2016-06-23T08:02:17Z</time>
      </trkpt>
      <trkpt lat="45.38246" lon="5.87468">
        <ele>1547.519180007</ele>
        <time>2016-06-23T08:02:58Z</time>
      </trkpt>
      <trkpt lat="45.38244" lon="5.87478">
        <ele>1551.478972777</ele>
        <time>2016-06-23T08:03:17Z</time>
      </trkpt>
      <trkpt lat="45.38241" lon="5.87505">
        <ele>1556.047829727</ele>
        <time>2016-06-23T08:04:19Z</time>
      </trkpt>
      <trkpt lat="45.38237" lon="5.87516">
        <ele>1560.747688483</ele>
        <time>2016-06-23T08:05:18Z</time>
      </trkpt>
      <trkpt lat="45.38235" lon="5.87532">
        <ele>1565.423328162</ele>
        <time>2016-06-23T08:05:23Z</time>
      </trkpt>
      <trkpt lat="45.38234" lon="5.87544">
        <ele>1570.363213811</ele>
        <time>2016-06-23T08:05:38Z</time>
      </trkpt>
      <trkpt lat="45.38229" lon="5.87558">
        <ele>1577.419001976</ele>
        <time>2016-06-23T08:06:54Z</time>
      </trkpt>
      <trkpt lat="45.38218" lon="5.87567">
        <ele>1584.553421131</ele>
        <time>2016-06-23T08:07:13Z</time>
      </trkpt>
      <trkpt lat="45.38209" lon="5.87575">
        <ele>1591.752026562</ele>
        <time>2016-06-23T08:07:28Z</time>
      </trkpt>
      <trkpt lat="45.38198" lon="5.87581">
        <ele>1598.280669743</ele>
        <time>2016-06-23T08:07:38Z</time>
      </trkpt>
      <trkpt lat="45.38188" lon="5.87579">
        <ele>1604.325676104</ele>
        <time>2016-06-23T08:07:52Z</time>
      </trkpt>
      <trkpt lat="45.38181" lon="5.87592">
        <ele>1609.916947642</ele>
        <time>2016-06-23T08:08:07Z</time>
      </trkpt>
      <trkpt lat="45.38154" lon="5.87611">
        <ele>1615.371720051</ele>
        <time>2016-06-23T08:08:43Z</time>
      </trkpt>
      <trkpt lat="45.3814" lon="5.87617">
        <ele>1621.704912891</ele>
        <time>2016-06-23T08:09:20Z</time>
      </trkpt>
      <trkpt lat="45.38127" lon="5.87634">
        <ele>1627.260482687</ele>
        <time>2016-06-23T08:09:38Z</time>
      </trkpt>
      <trkpt lat="45.38147" lon="5.87655">
        <ele>1633.244402431</ele>
        <time>2016-06-23T08:10:51Z</time>
      </trkpt>
      <trkpt lat="45.38158" lon="5.87662">
        <ele>1638.323039333</ele>
        <time>2016-06-23T08:10:58Z</time>
      </trkpt>
      <trkpt lat="45.38161" lon="5.87674">
        <ele>1643.425020946</ele>
        <time>2016-06-23T08:11:37Z</time>
      </trkpt>
      <trkpt lat="45.38153" lon="5.87675">
        <ele>1648.690224615</ele>
        <time>2016-06-23T08:12:42Z</time>
      </trkpt>
      <trkpt lat="45.38143" lon="5.87676">
        <ele>1653.383216502</ele>
        <time>2016-06-23T08:12:58Z</time>
      </trkpt>
      <trkpt lat="45.38134" lon="5.87679">
        <ele>1657.68894865</ele>
        <time>2016-06-23T08:13:17Z</time>
      </trkpt>
      <trkpt lat="45.38124" lon="5.87685">
        <ele>1661.779958499</ele>
        <time>2016-06-23T08:13:33Z</time>
      </trkpt>
      <trkpt lat="45.38114" lon="5.87694">
        <ele>1665.096234146</ele>
        <time>2016-06-23T08:13:48Z</time>
      </trkpt>
      <trkpt lat="45.38103" lon="5.87698">
        <ele>1668.129923488</ele>
        <time>2016-06-23T08:14:03Z</time>
      </trkpt>
      <trkpt lat="45.38088" lon="5.87708">
        <ele>1670.905537386</ele>
        <time>2016-06-23T08:14:29Z</time>
      </trkpt>
      <trkpt lat="45.38071" lon="5.87718">
        <ele>1673.590663647</ele>
        <time>2016-06-23T08:15:02Z</time>
      </trkpt>
      <trkpt lat="45.38064" lon="5.87729">
        <ele>1676.773193933</ele>
        <time>2016-06-23T08:15:22Z</time>
      </trkpt>
      <trkpt lat="45.38056" lon="5.8773">
        <ele>1678.978892084</ele>
        <time>2016-06-23T08:15:37Z</time>
      </trkpt>
      <trkpt lat="45.38068" lon="5.87745">
        <ele>1682.303225822</ele>
        <time>2016-06-23T08:16:21Z</time>
      </trkpt>
      <trkpt lat="45.38087" lon="5.87754">
        <ele>1685.514130421</ele>
        <time>2016-06-23T08:16:36Z</time>
      </trkpt>
      <trkpt lat="45.38082" lon="5.87749">
        <ele>1685.514130421</ele>
        <time>2016-06-23T08:19:03Z</time>
      </trkpt>
      <trkpt lat="45.38091" lon="5.87758">
        <ele>1692.051899882</ele>
        <time>2016-06-23T08:19:58Z</time>
      </trkpt>
      <trkpt lat="45.38103" lon="5.87759">
        <ele>1694.957754576</ele>
        <time>2016-06-23T08:20:13Z</time>
      </trkpt>
      <trkpt lat="45.3812" lon="5.87765">
        <ele>1696.785602997</ele>
        <time>2016-06-23T08:20:28Z</time>
      </trkpt>
      <trkpt lat="45.38135" lon="5.87766">
        <ele>1698.486284756</ele>
        <time>2016-06-23T08:20:46Z</time>
      </trkpt>
      <trkpt lat="45.38154" lon="5.87766">
        <ele>1700.076405984</ele>
        <time>2016-06-23T08:20:59Z</time>
      </trkpt>
      <trkpt lat="45.38168" lon="5.87765">
        <ele>1701.427461939</ele>
        <time>2016-06-23T08:21:08Z</time>
      </trkpt>
      <trkpt lat="45.38181" lon="5.87761">
        <ele>1703.285620481</ele>
        <time>2016-06-23T08:21:24Z</time>
      </trkpt>
      <trkpt lat="45.38208" lon="5.87757">
        <ele>1705.476028361</ele>
        <time>2016-06-23T08:21:50Z</time>
      </trkpt>
      <trkpt lat="45.38224" lon="5.87749">
        <ele>1706.97094727</ele>
        <time>2016-06-23T08:22:08Z</time>
      </trkpt>
      <trkpt lat="45.38235" lon="5.87749">
        <ele>1708.261057472</ele>
        <time>2016-06-23T08:22:21Z</time>
      </trkpt>
      <trkpt lat="45.38271" lon="5.87756">
        <ele>1709.801417779</ele>
        <time>2016-06-23T08:23:17Z</time>
      </trkpt>
      <trkpt lat="45.38279" lon="5.8775">
        <ele>1711.148129012</ele>
        <time>2016-06-23T08:23:22Z</time>
      </trkpt>
      <trkpt lat="45.38297" lon="5.87764">
        <ele>1711.169715566</ele>
        <time>2016-06-23T08:23:54Z</time>
      </trkpt>
      <trkpt lat="45.38301" lon="5.87771">
        <ele>1711.169715566</ele>
        <time>2016-06-23T08:24:40Z</time>
      </trkpt>
      <trkpt lat="45.38321" lon="5.87785">
        <ele>1709.727798019</ele>
        <time>2016-06-23T08:26:31Z</time>
      </trkpt>
      <trkpt lat="45.38327" lon="5.87793">
        <ele>1707.683689729</ele>
        <time>2016-06-23T08:27:13Z</time>
      </trkpt>
      <trkpt lat="45.38342" lon="5.87796">
        <ele>1704.038652614</ele>
        <time>2016-06-23T08:27:23Z</time>
      </trkpt>
      <trkpt lat="45.38354" lon="5.87795">
        <ele>1698.930347042</ele>
        <time>2016-06-23T08:27:43Z</time>
      </trkpt>
      <trkpt lat="45.38363" lon="5.87815">
        <ele>1694.507665287</ele>
        <time>2016-06-23T08:28:43Z</time>
      </trkpt>
      <trkpt lat="45.38367" lon="5.87825">
        <ele>1690.597697551</ele>
        <time>2016-06-23T08:28:58Z</time>
      </trkpt>
      <trkpt lat="45.38378" lon="5.87838">
        <ele>1686.173737934</ele>
        <time>2016-06-23T08:29:28Z</time>
      </trkpt>
      <trkpt lat="45.38387" lon="5.87843">
        <ele>1681.726628634</ele>
        <time>2016-06-23T08:29:43Z</time>
      </trkpt>
      <trkpt lat="45.38397" lon="5.87847">
        <ele>1677.998987393</ele>
        <time>2016-06-23T08:29:48Z</time>
      </trkpt>
      <trkpt lat="45.38407" lon="5.87858">
        <ele>1672.21771108</ele>
        <time>2016-06-23T08:30:45Z</time>
      </trkpt>
      <trkpt lat="45.38414" lon="5.87877">
        <ele>1667.15077434</ele>
        <time>2016-06-23T08:32:03Z</time>
      </trkpt>
      <trkpt lat="45.38418" lon="5.87893">
        <ele>1662.04572698</ele>
        <time>2016-06-23T08:32:07Z</time>
      </trkpt>
      <trkpt lat="45.38416" lon="5.87902">
        <ele>1657.50194993</ele>
        <time>2016-06-23T08:32:58Z</time>
      </trkpt>
      <trkpt lat="45.38417" lon="5.87903">
        <ele>1657.50194993</ele>
        <time>2016-06-23T08:42:45Z</time>
      </trkpt>
      <trkpt lat="45.38428" lon="5.87991">
        <ele>1649.318540092</ele>
        <time>2016-06-23T08:45:33Z</time>
      </trkpt>
      <trkpt lat="45.38418" lon="5.88028">
        <ele>1647.086597678</ele>
        <time>2016-06-23T08:45:37Z</time>
      </trkpt>
      <trkpt lat="45.38426" lon="5.88014">
        <ele>1648.434812737</ele>
        <time>2016-06-23T08:45:53Z</time>
      </trkpt>
      <trkpt lat="45.38435" lon="5.88019">
        <ele>1653.819934781</ele>
        <time>2016-06-23T08:51:49Z</time>
      </trkpt>
      <trkpt lat="45.38441" lon="5.88029">
        <ele>1663.221002219</ele>
        <time>2016-06-23T08:52:18Z</time>
      </trkpt>
      <trkpt lat="45.38435" lon="5.88047">
        <ele>1672.283561747</ele>
        <time>2016-06-23T08:52:58Z</time>
      </trkpt>
      <trkpt lat="45.38428" lon="5.88051">
        <ele>1683.02631321</ele>
        <time>2016-06-23T08:53:23Z</time>
      </trkpt>
      <trkpt lat="45.38426" lon="5.88042">
        <ele>1695.441265727</ele>
        <time>2016-06-23T08:54:32Z</time>
      </trkpt>
      <trkpt lat="45.38414" lon="5.88049">
        <ele>1707.354521438</ele>
        <time>2016-06-23T08:54:58Z</time>
      </trkpt>
      <trkpt lat="45.38407" lon="5.88034">
        <ele>1719.635474024</ele>
        <time>2016-06-23T08:55:58Z</time>
      </trkpt>
      <trkpt lat="45.38397" lon="5.88038">
        <ele>1730.927019</ele>
        <time>2016-06-23T08:56:13Z</time>
      </trkpt>
      <trkpt lat="45.38381" lon="5.88043">
        <ele>1740.407007447</ele>
        <time>2016-06-23T08:56:33Z</time>
      </trkpt>
      <trkpt lat="45.38367" lon="5.88039">
        <ele>1748.904219246</ele>
        <time>2016-06-23T08:56:52Z</time>
      </trkpt>
      <trkpt lat="45.38358" lon="5.88039">
        <ele>1756.613155043</ele>
        <time>2016-06-23T08:57:13Z</time>
      </trkpt>
      <trkpt lat="45.38349" lon="5.88036">
        <ele>1762.851906692</ele>
        <time>2016-06-23T08:57:29Z</time>
      </trkpt>
      <trkpt lat="45.38336" lon="5.88024">
        <ele>1768.146037602</ele>
        <time>2016-06-23T08:57:43Z</time>
      </trkpt>
      <trkpt lat="45.38325" lon="5.88007">
        <ele>1772.985538007</ele>
        <time>2016-06-23T08:58:17Z</time>
      </trkpt>
      <trkpt lat="45.38318" lon="5.88005">
        <ele>1778.978964895</ele>
        <time>2016-06-23T08:59:02Z</time>
      </trkpt>
      <trkpt lat="45.38314" lon="5.88">
        <ele>1785.596322239</ele>
        <time>2016-06-23T08:59:33Z</time>
      </trkpt>
      <trkpt lat="45.38308" lon="5.87993">
        <ele>1792.489319531</ele>
        <time>2016-06-23T09:00:03Z</time>
      </trkpt>
      <trkpt lat="45.38312" lon="5.87972">
        <ele>1801.06423552</ele>
        <time>2016-06-23T09:00:33Z</time>
      </trkpt>
      <trkpt lat="45.38313" lon="5.87959">
        <ele>1809.161095954</ele>
        <time>2016-06-23T09:00:53Z</time>
      </trkpt>
      <trkpt lat="45.38314" lon="5.87949">
        <ele>1816.942059019</ele>
        <time>2016-06-23T09:01:23Z</time>
      </trkpt>
      <trkpt lat="45.38307" lon="5.87946">
        <ele>1823.982279906</ele>
        <time>2016-06-23T09:01:42Z</time>
      </trkpt>
      <trkpt lat="45.38315" lon="5.87933">
        <ele>1830.467123234</ele>
        <time>2016-06-23T09:01:58Z</time>
      </trkpt>
      <trkpt lat="45.38298" lon="5.87941">
        <ele>1836.570376675</ele>
        <time>2016-06-23T09:02:42Z</time>
      </trkpt>
      <trkpt lat="45.3829" lon="5.87945">
        <ele>1842.886946339</ele>
        <time>2016-06-23T09:03:07Z</time>
      </trkpt>
      <trkpt lat="45.38284" lon="5.87938">
        <ele>1848.526801418</ele>
        <time>2016-06-23T09:03:35Z</time>
      </trkpt>
      <trkpt lat="45.38276" lon="5.8793">
        <ele>1855.405770431</ele>
        <time>2016-06-23T09:04:33Z</time>
      </trkpt>
      <trkpt lat="45.38268" lon="5.8792">
        <ele>1861.549038512</ele>
        <time>2016-06-23T09:04:48Z</time>
      </trkpt>
      <trkpt lat="45.3826" lon="5.87916">
        <ele>1867.146928278</ele>
        <time>2016-06-23T09:05:18Z</time>
      </trkpt>
      <trkpt lat="45.38247" lon="5.87913">
        <ele>1872.233636403</ele>
        <time>2016-06-23T09:05:33Z</time>
      </trkpt>
      <trkpt lat="45.38241" lon="5.87919">
        <ele>1876.842702681</ele>
        <time>2016-06-23T09:05:53Z</time>
      </trkpt>
      <trkpt lat="45.38231" lon="5.8791">
        <ele>1881.151055839</ele>
        <time>2016-06-23T09:06:23Z</time>
      </trkpt>
      <trkpt lat="45.38225" lon="5.87899">
        <ele>1885.035627309</ele>
        <time>2016-06-23T09:06:44Z</time>
      </trkpt>
      <trkpt lat="45.3822" lon="5.87887">
        <ele>1888.239818738</ele>
        <time>2016-06-23T09:06:53Z</time>
      </trkpt>
      <trkpt lat="45.38211" lon="5.87881">
        <ele>1891.248668899</ele>
        <time>2016-06-23T09:07:08Z</time>
      </trkpt>
      <trkpt lat="45.38198" lon="5.87896">
        <ele>1893.215424016</ele>
        <time>2016-06-23T09:07:23Z</time>
      </trkpt>
      <trkpt lat="45.38185" lon="5.87903">
        <ele>1894.367488528</ele>
        <time>2016-06-23T09:07:38Z</time>
      </trkpt>
      <trkpt lat="45.38172" lon="5.87911">
        <ele>1894.485728093</ele>
        <time>2016-06-23T09:07:53Z</time>
      </trkpt>
      <trkpt lat="45.38154" lon="5.8791">
        <ele>1894.955400396</ele>
        <time>2016-06-23T09:08:13Z</time>
      </trkpt>
      <trkpt lat="45.38142" lon="5.87906">
        <ele>1895.1856983</ele>
        <time>2016-06-23T09:08:28Z</time>
      </trkpt>
      <trkpt lat="45.3813" lon="5.87903">
        <ele>1896.215192368</ele>
        <time>2016-06-23T09:08:43Z</time>
      </trkpt>
      <trkpt lat="45.38116" lon="5.87906">
        <ele>1896.698181303</ele>
        <time>2016-06-23T09:08:58Z</time>
      </trkpt>
      <trkpt lat="45.38102" lon="5.8791">
        <ele>1896.686355061</ele>
        <time>2016-06-23T09:09:13Z</time>
      </trkpt>
      <trkpt lat="45.38089" lon="5.87904">
        <ele>1896.373072489</ele>
        <time>2016-06-23T09:09:28Z</time>
      </trkpt>
      <trkpt lat="45.38079" lon="5.87901">
        <ele>1896.37059983</ele>
        <time>2016-06-23T09:09:43Z</time>
      </trkpt>
      <trkpt lat="45.3807" lon="5.87885">
        <ele>1896.812920638</ele>
        <time>2016-06-23T09:09:57Z</time>
      </trkpt>
      <trkpt lat="45.38062" lon="5.87884">
        <ele>1897.390464476</ele>
        <time>2016-06-23T09:10:18Z</time>
      </trkpt>
      <trkpt lat="45.38052" lon="5.87881">
        <ele>1897.959977386</ele>
        <time>2016-06-23T09:10:38Z</time>
      </trkpt>
      <trkpt lat="45.38037" lon="5.87885">
        <ele>1897.956238761</ele>
        <time>2016-06-23T09:11:03Z</time>
      </trkpt>
      <trkpt lat="45.38024" lon="5.87884">
        <ele>1897.721624025</ele>
        <time>2016-06-23T09:11:18Z</time>
      </trkpt>
      <trkpt lat="45.38012" lon="5.87881">
        <ele>1898.006120121</ele>
        <time>2016-06-23T09:11:33Z</time>
      </trkpt>
      <trkpt lat="45.38" lon="5.87887">
        <ele>1897.485369548</ele>
        <time>2016-06-23T09:11:58Z</time>
      </trkpt>
      <trkpt lat="45.37987" lon="5.87897">
        <ele>1896.519525739</ele>
        <time>2016-06-23T09:12:13Z</time>
      </trkpt>
      <trkpt lat="45.37975" lon="5.87902">
        <ele>1895.155035265</ele>
        <time>2016-06-23T09:12:28Z</time>
      </trkpt>
      <trkpt lat="45.3797" lon="5.87897">
        <ele>1893.435754799</ele>
        <time>2016-06-23T09:13:18Z</time>
      </trkpt>
      <trkpt lat="45.37961" lon="5.87898">
        <ele>1890.826551476</ele>
        <time>2016-06-23T09:14:03Z</time>
      </trkpt>
      <trkpt lat="45.37948" lon="5.87895">
        <ele>1887.554312797</ele>
        <time>2016-06-23T09:14:48Z</time>
      </trkpt>
      <trkpt lat="45.37935" lon="5.87895">
        <ele>1884.263085082</ele>
        <time>2016-06-23T09:15:08Z</time>
      </trkpt>
      <trkpt lat="45.37923" lon="5.87899">
        <ele>1880.828707142</ele>
        <time>2016-06-23T09:15:48Z</time>
      </trkpt>
      <trkpt lat="45.37909" lon="5.87896">
        <ele>1878.000788931</ele>
        <time>2016-06-23T09:16:08Z</time>
      </trkpt>
      <trkpt lat="45.37898" lon="5.87892">
        <ele>1875.462955463</ele>
        <time>2016-06-23T09:16:22Z</time>
      </trkpt>
      <trkpt lat="45.37889" lon="5.87885">
        <ele>1872.63257924</ele>
        <time>2016-06-23T09:16:43Z</time>
      </trkpt>
      <trkpt lat="45.37883" lon="5.87883">
        <ele>1869.690737803</ele>
        <time>2016-06-23T09:17:38Z</time>
      </trkpt>
      <trkpt lat="45.37873" lon="5.87891">
        <ele>1866.516815182</ele>
        <time>2016-06-23T09:17:58Z</time>
      </trkpt>
      <trkpt lat="45.37867" lon="5.87904">
        <ele>1863.575660383</ele>
        <time>2016-06-23T09:18:18Z</time>
      </trkpt>
      <trkpt lat="45.37851" lon="5.87912">
        <ele>1861.152712795</ele>
        <time>2016-06-23T09:18:43Z</time>
      </trkpt>
      <trkpt lat="45.37835" lon="5.87911">
        <ele>1858.501709155</ele>
        <time>2016-06-23T09:18:58Z</time>
      </trkpt>
      <trkpt lat="45.37823" lon="5.87907">
        <ele>1856.228342791</ele>
        <time>2016-06-23T09:19:13Z</time>
      </trkpt>
      <trkpt lat="45.37807" lon="5.87903">
        <ele>1854.315807818</ele>
        <time>2016-06-23T09:19:28Z</time>
      </trkpt>
      <trkpt lat="45.37798" lon="5.87902">
        <ele>1853.179359517</ele>
        <time>2016-06-23T09:19:48Z</time>
      </trkpt>
      <trkpt lat="45.37785" lon="5.87901">
        <ele>1852.480531746</ele>
        <time>2016-06-23T09:20:18Z</time>
      </trkpt>
      <trkpt lat="45.37773" lon="5.87903">
        <ele>1852.192247932</ele>
        <time>2016-06-23T09:20:33Z</time>
      </trkpt>
      <trkpt lat="45.37764" lon="5.87915">
        <ele>1851.423151504</ele>
        <time>2016-06-23T09:20:53Z</time>
      </trkpt>
      <trkpt lat="45.37753" lon="5.87921">
        <ele>1851.077618037</ele>
        <time>2016-06-23T09:21:18Z</time>
      </trkpt>
      <trkpt lat="45.37743" lon="5.87932">
        <ele>1851.41554911</ele>
        <time>2016-06-23T09:21:33Z</time>
      </trkpt>
      <trkpt lat="45.37732" lon="5.87937">
        <ele>1852.387233185</ele>
        <time>2016-06-23T09:21:53Z</time>
      </trkpt>
      <trkpt lat="45.37722" lon="5.87932">
        <ele>1854.232701899</ele>
        <time>2016-06-23T09:22:08Z</time>
      </trkpt>
      <trkpt lat="45.37714" lon="5.87938">
        <ele>1856.162803508</ele>
        <time>2016-06-23T09:22:23Z</time>
      </trkpt>
      <trkpt lat="45.37703" lon="5.87947">
        <ele>1857.301719833</ele>
        <time>2016-06-23T09:22:43Z</time>
      </trkpt>
      <trkpt lat="45.37692" lon="5.87956">
        <ele>1858.136933816</ele>
        <time>2016-06-23T09:22:53Z</time>
      </trkpt>
      <trkpt lat="45.37676" lon="5.87958">
        <ele>1859.408967388</ele>
        <time>2016-06-23T09:23:08Z</time>
      </trkpt>
      <trkpt lat="45.37663" lon="5.87954">
        <ele>1860.937854807</ele>
        <time>2016-06-23T09:23:23Z</time>
      </trkpt>
      <trkpt lat="45.3765" lon="5.87957">
        <ele>1861.979513633</ele>
        <time>2016-06-23T09:23:38Z</time>
      </trkpt>
      <trkpt lat="45.37633" lon="5.87961">
        <ele>1863.575075643</ele>
        <time>2016-06-23T09:23:53Z</time>
      </trkpt>
      <trkpt lat="45.37626" lon="5.87954">
        <ele>1865.246404392</ele>
        <time>2016-06-23T09:24:03Z</time>
      </trkpt>
      <trkpt lat="45.37617" lon="5.8796">
        <ele>1866.117841648</ele>
        <time>2016-06-23T09:24:13Z</time>
      </trkpt>
      <trkpt lat="45.376" lon="5.87962">
        <ele>1867.541888074</ele>
        <time>2016-06-23T09:24:28Z</time>
      </trkpt>
      <trkpt lat="45.37587" lon="5.87962">
        <ele>1869.04074854</ele>
        <time>2016-06-23T09:24:43Z</time>
      </trkpt>
      <trkpt lat="45.3757" lon="5.87964">
        <ele>1870.027365458</ele>
        <time>2016-06-23T09:24:58Z</time>
      </trkpt>
      <trkpt lat="45.3756" lon="5.87966">
        <ele>1871.112108636</ele>
        <time>2016-06-23T09:25:18Z</time>
      </trkpt>
      <trkpt lat="45.37548" lon="5.87964">
        <ele>1872.572004628</ele>
        <time>2016-06-23T09:25:33Z</time>
      </trkpt>
      <trkpt lat="45.37537" lon="5.87944">
        <ele>1874.518573021</ele>
        <time>2016-06-23T09:25:58Z</time>
      </trkpt>
      <trkpt lat="45.37527" lon="5.87941">
        <ele>1876.189130143</ele>
        <time>2016-06-23T09:26:12Z</time>
      </trkpt>
      <trkpt lat="45.37521" lon="5.8796">
        <ele>1877.454272724</ele>
        <time>2016-06-23T09:26:27Z</time>
      </trkpt>
      <trkpt lat="45.37506" lon="5.87963">
        <ele>1879.059956618</ele>
        <time>2016-06-23T09:26:43Z</time>
      </trkpt>
      <trkpt lat="45.37491" lon="5.8796">
        <ele>1880.975890826</ele>
        <time>2016-06-23T09:26:58Z</time>
      </trkpt>
      <trkpt lat="45.37483" lon="5.87954">
        <ele>1882.740878795</ele>
        <time>2016-06-23T09:27:13Z</time>
      </trkpt>
      <trkpt lat="45.37471" lon="5.87965">
        <ele>1883.639886776</ele>
        <time>2016-06-23T09:28:03Z</time>
      </trkpt>
      <trkpt lat="45.3746" lon="5.8797">
        <ele>1884.30992684</ele>
        <time>2016-06-23T09:28:18Z</time>
      </trkpt>
      <trkpt lat="45.37447" lon="5.8798">
        <ele>1884.477285768</ele>
        <time>2016-06-23T09:28:33Z</time>
      </trkpt>
      <trkpt lat="45.37435" lon="5.87986">
        <ele>1884.178082987</ele>
        <time>2016-06-23T09:28:49Z</time>
      </trkpt>
      <trkpt lat="45.37424" lon="5.87987">
        <ele>1883.879516176</ele>
        <time>2016-06-23T09:29:03Z</time>
      </trkpt>
      <trkpt lat="45.37415" lon="5.87993">
        <ele>1883.00576487</ele>
        <time>2016-06-23T09:29:22Z</time>
      </trkpt>
      <trkpt lat="45.37407" lon="5.88002">
        <ele>1881.889660643</ele>
        <time>2016-06-23T09:29:38Z</time>
      </trkpt>
      <trkpt lat="45.37388" lon="5.88014">
        <ele>1879.975657537</ele>
        <time>2016-06-23T09:30:23Z</time>
      </trkpt>
      <trkpt lat="45.37373" lon="5.88014">
        <ele>1878.192414371</ele>
        <time>2016-06-23T09:30:39Z</time>
      </trkpt>
      <trkpt lat="45.37364" lon="5.88012">
        <ele>1876.823588878</ele>
        <time>2016-06-23T09:30:53Z</time>
      </trkpt>
      <trkpt lat="45.3735" lon="5.88014">
        <ele>1875.554407984</ele>
        <time>2016-06-23T09:31:08Z</time>
      </trkpt>
      <trkpt lat="45.3734" lon="5.8802">
        <ele>1874.525275709</ele>
        <time>2016-06-23T09:31:23Z</time>
      </trkpt>
      <trkpt lat="45.37328" lon="5.88017">
        <ele>1873.865598295</ele>
        <time>2016-06-23T09:31:38Z</time>
      </trkpt>
      <trkpt lat="45.37317" lon="5.88022">
        <ele>1874.126556304</ele>
        <time>2016-06-23T09:31:58Z</time>
      </trkpt>
      <trkpt lat="45.37305" lon="5.88018">
        <ele>1874.663349609</ele>
        <time>2016-06-23T09:32:12Z</time>
      </trkpt>
      <trkpt lat="45.37293" lon="5.88018">
        <ele>1875.310086242</ele>
        <time>2016-06-23T09:32:28Z</time>
      </trkpt>
      <trkpt lat="45.3729" lon="5.88022">
        <ele>1876.056849442</ele>
        <time>2016-06-23T09:34:28Z</time>
      </trkpt>
      <trkpt lat="45.37288" lon="5.88029">
        <ele>1878.623499817</ele>
        <time>2016-06-23T09:39:50Z</time>
      </trkpt>
      <trkpt lat="45.37294" lon="5.88037">
        <ele>1880.995680593</ele>
        <time>2016-06-23T09:40:38Z</time>
      </trkpt>
      <trkpt lat="45.37293" lon="5.88043">
        <ele>1880.995680593</ele>
        <time>2016-06-23T09:51:47Z</time>
      </trkpt>
      <trkpt lat="45.37292" lon="5.88058">
        <ele>1882.316351884</ele>
        <time>2016-06-23T09:52:18Z</time>
      </trkpt>
      <trkpt lat="45.37297" lon="5.88072">
        <ele>1882.082634176</ele>
        <time>2016-06-23T09:52:33Z</time>
      </trkpt>
      <trkpt lat="45.37298" lon="5.88092">
        <ele>1879.369883857</ele>
        <time>2016-06-23T09:52:48Z</time>
      </trkpt>
      <trkpt lat="45.37303" lon="5.88107">
        <ele>1876.002031985</ele>
        <time>2016-06-23T09:53:08Z</time>
      </trkpt>
      <trkpt lat="45.37301" lon="5.8812">
        <ele>1872.595222744</ele>
        <time>2016-06-23T09:53:22Z</time>
      </trkpt>
      <trkpt lat="45.37292" lon="5.88126">
        <ele>1868.873761338</ele>
        <time>2016-06-23T09:53:38Z</time>
      </trkpt>
      <trkpt lat="45.37295" lon="5.88139">
        <ele>1864.438930514</ele>
        <time>2016-06-23T09:53:53Z</time>
      </trkpt>
      <trkpt lat="45.37295" lon="5.88152">
        <ele>1860.076117532</ele>
        <time>2016-06-23T09:54:13Z</time>
      </trkpt>
      <trkpt lat="45.37289" lon="5.88164">
        <ele>1855.936264879</ele>
        <time>2016-06-23T09:54:28Z</time>
      </trkpt>
      <trkpt lat="45.37278" lon="5.88188">
        <ele>1850.140910891</ele>
        <time>2016-06-23T09:54:53Z</time>
      </trkpt>
      <trkpt lat="45.37273" lon="5.88206">
        <ele>1843.692175495</ele>
        <time>2016-06-23T09:55:08Z</time>
      </trkpt>
      <trkpt lat="45.37265" lon="5.88206">
        <ele>1836.223196605</ele>
        <time>2016-06-23T09:56:02Z</time>
      </trkpt>
      <trkpt lat="45.37266" lon="5.8822">
        <ele>1829.270134073</ele>
        <time>2016-06-23T09:56:18Z</time>
      </trkpt>
      <trkpt lat="45.37262" lon="5.88231">
        <ele>1821.804692509</ele>
        <time>2016-06-23T09:56:33Z</time>
      </trkpt>
      <trkpt lat="45.37253" lon="5.88238">
        <ele>1814.172242621</ele>
        <time>2016-06-23T09:56:48Z</time>
      </trkpt>
      <trkpt lat="45.37247" lon="5.88248">
        <ele>1806.837019906</ele>
        <time>2016-06-23T09:56:58Z</time>
      </trkpt>
      <trkpt lat="45.37257" lon="5.88258">
        <ele>1799.93972686</ele>
        <time>2016-06-23T09:57:13Z</time>
      </trkpt>
      <trkpt lat="45.37261" lon="5.88268">
        <ele>1792.744432992</ele>
        <time>2016-06-23T09:57:33Z</time>
      </trkpt>
      <trkpt lat="45.37256" lon="5.88275">
        <ele>1786.010792744</ele>
        <time>2016-06-23T09:57:53Z</time>
      </trkpt>
      <trkpt lat="45.37255" lon="5.88289">
        <ele>1778.855696478</ele>
        <time>2016-06-23T09:58:18Z</time>
      </trkpt>
      <trkpt lat="45.37258" lon="5.88301">
        <ele>1772.046855089</ele>
        <time>2016-06-23T09:58:33Z</time>
      </trkpt>
      <trkpt lat="45.37245" lon="5.8831">
        <ele>1765.141253423</ele>
        <time>2016-06-23T09:58:48Z</time>
      </trkpt>
      <trkpt lat="45.37229" lon="5.88314">
        <ele>1758.448768116</ele>
        <time>2016-06-23T09:59:03Z</time>
      </trkpt>
      <trkpt lat="45.37222" lon="5.88326">
        <ele>1751.534872281</ele>
        <time>2016-06-23T09:59:23Z</time>
      </trkpt>
      <trkpt lat="45.37218" lon="5.88338">
        <ele>1745.14997911</ele>
        <time>2016-06-23T09:59:43Z</time>
      </trkpt>
      <trkpt lat="45.37208" lon="5.88337">
        <ele>1738.978622963</ele>
        <time>2016-06-23T10:00:13Z</time>
      </trkpt>
      <trkpt lat="45.37198" lon="5.88341">
        <ele>1733.880314064</ele>
        <time>2016-06-23T10:00:33Z</time>
      </trkpt>
      <trkpt lat="45.37188" lon="5.88341">
        <ele>1729.206821271</ele>
        <time>2016-06-23T10:00:43Z</time>
      </trkpt>
      <trkpt lat="45.37175" lon="5.88338">
        <ele>1725.076429547</ele>
        <time>2016-06-23T10:00:58Z</time>
      </trkpt>
      <trkpt lat="45.37161" lon="5.88326">
        <ele>1721.164429452</ele>
        <time>2016-06-23T10:01:13Z</time>
      </trkpt>
      <trkpt lat="45.37149" lon="5.88324">
        <ele>1717.313037066</ele>
        <time>2016-06-23T10:01:28Z</time>
      </trkpt>
      <trkpt lat="45.37141" lon="5.88335">
        <ele>1714.240155581</ele>
        <time>2016-06-23T10:01:43Z</time>
      </trkpt>
      <trkpt lat="45.37128" lon="5.88335">
        <ele>1710.879059408</ele>
        <time>2016-06-23T10:02:13Z</time>
      </trkpt>
      <trkpt lat="45.37118" lon="5.88333">
        <ele>1708.115291884</ele>
        <time>2016-06-23T10:02:22Z</time>
      </trkpt>
      <trkpt lat="45.37102" lon="5.88333">
        <ele>1705.182129252</ele>
        <time>2016-06-23T10:02:43Z</time>
      </trkpt>
      <trkpt lat="45.37084" lon="5.8833">
        <ele>1702.089913477</ele>
        <time>2016-06-23T10:03:03Z</time>
      </trkpt>
      <trkpt lat="45.37071" lon="5.88332">
        <ele>1699.136634803</ele>
        <time>2016-06-23T10:03:18Z</time>
      </trkpt>
      <trkpt lat="45.37061" lon="5.8833">
        <ele>1697.318327658</ele>
        <time>2016-06-23T10:03:48Z</time>
      </trkpt>
      <trkpt lat="45.37055" lon="5.88321">
        <ele>1695.969249312</ele>
        <time>2016-06-23T10:04:03Z</time>
      </trkpt>
      <trkpt lat="45.37046" lon="5.88326">
        <ele>1695.191631118</ele>
        <time>2016-06-23T10:04:18Z</time>
      </trkpt>
      <trkpt lat="45.37035" lon="5.88319">
        <ele>1695.078456193</ele>
        <time>2016-06-23T10:04:33Z</time>
      </trkpt>
      <trkpt lat="45.37019" lon="5.88326">
        <ele>1695.425693904</ele>
        <time>2016-06-23T10:04:48Z</time>
      </trkpt>
      <trkpt lat="45.37006" lon="5.88329">
        <ele>1695.034173004</ele>
        <time>2016-06-23T10:05:03Z</time>
      </trkpt>
      <trkpt lat="45.36995" lon="5.88334">
        <ele>1694.091863284</ele>
        <time>2016-06-23T10:05:23Z</time>
      </trkpt>
      <trkpt lat="45.36986" lon="5.88344">
        <ele>1692.198036233</ele>
        <time>2016-06-23T10:05:53Z</time>
      </trkpt>
      <trkpt lat="45.36975" lon="5.88349">
        <ele>1689.704660093</ele>
        <time>2016-06-23T10:06:13Z</time>
      </trkpt>
      <trkpt lat="45.36967" lon="5.88355">
        <ele>1688.09247294</ele>
        <time>2016-06-23T10:06:28Z</time>
      </trkpt>
      <trkpt lat="45.36952" lon="5.8836">
        <ele>1685.992922932</ele>
        <time>2016-06-23T10:06:53Z</time>
      </trkpt>
      <trkpt lat="45.36941" lon="5.88369">
        <ele>1684.01288398</ele>
        <time>2016-06-23T10:07:08Z</time>
      </trkpt>
      <trkpt lat="45.3693" lon="5.88366">
        <ele>1681.70562671</ele>
        <time>2016-06-23T10:07:24Z</time>
      </trkpt>
      <trkpt lat="45.36918" lon="5.88371">
        <ele>1679.23470062</ele>
        <time>2016-06-23T10:07:38Z</time>
      </trkpt>
      <trkpt lat="45.3691" lon="5.88368">
        <ele>1677.184540861</ele>
        <time>2016-06-23T10:07:48Z</time>
      </trkpt>
      <trkpt lat="45.36899" lon="5.88375">
        <ele>1676.239696604</ele>
        <time>2016-06-23T10:07:58Z</time>
      </trkpt>
      <trkpt lat="45.36901" lon="5.88395">
        <ele>1674.869785799</ele>
        <time>2016-06-23T10:08:13Z</time>
      </trkpt>
      <trkpt lat="45.36901" lon="5.88411">
        <ele>1673.675729453</ele>
        <time>2016-06-23T10:08:28Z</time>
      </trkpt>
      <trkpt lat="45.36904" lon="5.8843">
        <ele>1673.21395726</ele>
        <time>2016-06-23T10:08:43Z</time>
      </trkpt>
      <trkpt lat="45.36907" lon="5.88448">
        <ele>1672.845238428</ele>
        <time>2016-06-23T10:08:58Z</time>
      </trkpt>
      <trkpt lat="45.36904" lon="5.88459">
        <ele>1671.400762975</ele>
        <time>2016-06-23T10:09:13Z</time>
      </trkpt>
      <trkpt lat="45.36888" lon="5.88461">
        <ele>1669.241888232</ele>
        <time>2016-06-23T10:09:43Z</time>
      </trkpt>
      <trkpt lat="45.36878" lon="5.88461">
        <ele>1667.714393087</ele>
        <time>2016-06-23T10:09:48Z</time>
      </trkpt>
      <trkpt lat="45.36865" lon="5.88464">
        <ele>1664.893164511</ele>
        <time>2016-06-23T10:09:58Z</time>
      </trkpt>
      <trkpt lat="45.36858" lon="5.88473">
        <ele>1662.745209784</ele>
        <time>2016-06-23T10:10:08Z</time>
      </trkpt>
      <trkpt lat="45.36845" lon="5.88481">
        <ele>1661.217887236</ele>
        <time>2016-06-23T10:10:18Z</time>
      </trkpt>
      <trkpt lat="45.36834" lon="5.88487">
        <ele>1659.972636777</ele>
        <time>2016-06-23T10:10:33Z</time>
      </trkpt>
      <trkpt lat="45.36825" lon="5.88486">
        <ele>1658.118708335</ele>
        <time>2016-06-23T10:11:53Z</time>
      </trkpt>
      <trkpt lat="45.36813" lon="5.88487">
        <ele>1656.417891165</ele>
        <time>2016-06-23T10:12:08Z</time>
      </trkpt>
      <trkpt lat="45.36801" lon="5.88487">
        <ele>1655.287537383</ele>
        <time>2016-06-23T10:12:23Z</time>
      </trkpt>
      <trkpt lat="45.36784" lon="5.88495">
        <ele>1653.960025975</ele>
        <time>2016-06-23T10:12:44Z</time>
      </trkpt>
      <trkpt lat="45.36775" lon="5.88492">
        <ele>1652.877742268</ele>
        <time>2016-06-23T10:13:03Z</time>
      </trkpt>
      <trkpt lat="45.36758" lon="5.88491">
        <ele>1651.441283153</ele>
        <time>2016-06-23T10:13:33Z</time>
      </trkpt>
      <trkpt lat="45.36753" lon="5.88502">
        <ele>1649.528778558</ele>
        <time>2016-06-23T10:14:03Z</time>
      </trkpt>
      <trkpt lat="45.36755" lon="5.88521">
        <ele>1647.605262718</ele>
        <time>2016-06-23T10:14:18Z</time>
      </trkpt>
      <trkpt lat="45.36755" lon="5.88539">
        <ele>1645.23713935</ele>
        <time>2016-06-23T10:14:33Z</time>
      </trkpt>
      <trkpt lat="45.36758" lon="5.88556">
        <ele>1642.456403542</ele>
        <time>2016-06-23T10:14:48Z</time>
      </trkpt>
      <trkpt lat="45.36762" lon="5.88574">
        <ele>1639.149894473</ele>
        <time>2016-06-23T10:15:06Z</time>
      </trkpt>
      <trkpt lat="45.36748" lon="5.88589">
        <ele>1635.790818818</ele>
        <time>2016-06-23T10:15:18Z</time>
      </trkpt>
      <trkpt lat="45.36742" lon="5.88608">
        <ele>1632.529667264</ele>
        <time>2016-06-23T10:15:33Z</time>
      </trkpt>
      <trkpt lat="45.36724" lon="5.88636">
        <ele>1629.361594588</ele>
        <time>2016-06-23T10:15:53Z</time>
      </trkpt>
      <trkpt lat="45.36713" lon="5.8864">
        <ele>1626.426051795</ele>
        <time>2016-06-23T10:16:07Z</time>
      </trkpt>
      <trkpt lat="45.36695" lon="5.88639">
        <ele>1623.275225596</ele>
        <time>2016-06-23T10:16:28Z</time>
      </trkpt>
      <trkpt lat="45.36681" lon="5.88638">
        <ele>1620.07131172</ele>
        <time>2016-06-23T10:16:44Z</time>
      </trkpt>
      <trkpt lat="45.36671" lon="5.88627">
        <ele>1616.964792979</ele>
        <time>2016-06-23T10:16:58Z</time>
      </trkpt>
      <trkpt lat="45.36659" lon="5.88622">
        <ele>1614.094867203</ele>
        <time>2016-06-23T10:17:13Z</time>
      </trkpt>
      <trkpt lat="45.36645" lon="5.88611">
        <ele>1611.157542562</ele>
        <time>2016-06-23T10:17:28Z</time>
      </trkpt>
      <trkpt lat="45.36631" lon="5.88601">
        <ele>1609.168373936</ele>
        <time>2016-06-23T10:17:43Z</time>
      </trkpt>
      <trkpt lat="45.36608" lon="5.88586">
        <ele>1607.19223053</ele>
        <time>2016-06-23T10:18:03Z</time>
      </trkpt>
      <trkpt lat="45.36599" lon="5.88584">
        <ele>1605.515548207</ele>
        <time>2016-06-23T10:18:24Z</time>
      </trkpt>
      <trkpt lat="45.36586" lon="5.88579">
        <ele>1604.835236887</ele>
        <time>2016-06-23T10:18:48Z</time>
      </trkpt>
      <trkpt lat="45.36573" lon="5.88574">
        <ele>1603.920798607</ele>
        <time>2016-06-23T10:19:03Z</time>
      </trkpt>
      <trkpt lat="45.36562" lon="5.88568">
        <ele>1603.073929461</ele>
        <time>2016-06-23T10:19:18Z</time>
      </trkpt>
      <trkpt lat="45.36544" lon="5.88565">
        <ele>1602.574016448</ele>
        <time>2016-06-23T10:19:32Z</time>
      </trkpt>
      <trkpt lat="45.36524" lon="5.88557">
        <ele>1601.958446088</ele>
        <time>2016-06-23T10:19:48Z</time>
      </trkpt>
      <trkpt lat="45.36511" lon="5.88555">
        <ele>1600.943084326</ele>
        <time>2016-06-23T10:19:58Z</time>
      </trkpt>
      <trkpt lat="45.36502" lon="5.8855">
        <ele>1599.986414795</ele>
        <time>2016-06-23T10:20:08Z</time>
      </trkpt>
      <trkpt lat="45.36492" lon="5.88545">
        <ele>1599.945485864</ele>
        <time>2016-06-23T10:20:18Z</time>
      </trkpt>
      <trkpt lat="45.36472" lon="5.88548">
        <ele>1600.170790729</ele>
        <time>2016-06-23T10:20:33Z</time>
      </trkpt>
      <trkpt lat="45.3646" lon="5.88545">
        <ele>1600.924548526</ele>
        <time>2016-06-23T10:20:53Z</time>
      </trkpt>
      <trkpt lat="45.36448" lon="5.88538">
        <ele>1601.583671592</ele>
        <time>2016-06-23T10:21:03Z</time>
      </trkpt>
      <trkpt lat="45.36435" lon="5.88533">
        <ele>1602.147672259</ele>
        <time>2016-06-23T10:21:18Z</time>
      </trkpt>
      <trkpt lat="45.3642" lon="5.88529">
        <ele>1603.048830617</ele>
        <time>2016-06-23T10:21:33Z</time>
      </trkpt>
      <trkpt lat="45.36403" lon="5.88524">
        <ele>1604.110425853</ele>
        <time>2016-06-23T10:21:48Z</time>
      </trkpt>
      <trkpt lat="45.36383" lon="5.88513">
        <ele>1605.168425703</ele>
        <time>2016-06-23T10:22:03Z</time>
      </trkpt>
      <trkpt lat="45.36365" lon="5.88503">
        <ele>1606.359248742</ele>
        <time>2016-06-23T10:22:18Z</time>
      </trkpt>
      <trkpt lat="45.36347" lon="5.88498">
        <ele>1607.376766031</ele>
        <time>2016-06-23T10:22:33Z</time>
      </trkpt>
      <trkpt lat="45.36338" lon="5.88495">
        <ele>1608.658568942</ele>
        <time>2016-06-23T10:22:43Z</time>
      </trkpt>
      <trkpt lat="45.36327" lon="5.88498">
        <ele>1610.321340151</ele>
        <time>2016-06-23T10:22:53Z</time>
      </trkpt>
      <trkpt lat="45.36314" lon="5.88494">
        <ele>1612.328221343</ele>
        <time>2016-06-23T10:23:08Z</time>
      </trkpt>
      <trkpt lat="45.36305" lon="5.88497">
        <ele>1613.63553766</ele>
        <time>2016-06-23T10:23:23Z</time>
      </trkpt>
      <trkpt lat="45.36291" lon="5.88505">
        <ele>1615.151917919</ele>
        <time>2016-06-23T10:23:38Z</time>
      </trkpt>
      <trkpt lat="45.36285" lon="5.88517">
        <ele>1616.854226306</ele>
        <time>2016-06-23T10:23:53Z</time>
      </trkpt>
      <trkpt lat="45.3627" lon="5.88515">
        <ele>1619.008970635</ele>
        <time>2016-06-23T10:24:08Z</time>
      </trkpt>
      <trkpt lat="45.36254" lon="5.88509">
        <ele>1620.709171517</ele>
        <time>2016-06-23T10:24:23Z</time>
      </trkpt>
      <trkpt lat="45.36239" lon="5.88505">
        <ele>1622.557116963</ele>
        <time>2016-06-23T10:24:38Z</time>
      </trkpt>
      <trkpt lat="45.36223" lon="5.88505">
        <ele>1624.101917334</ele>
        <time>2016-06-23T10:24:53Z</time>
      </trkpt>
      <trkpt lat="45.36204" lon="5.88505">
        <ele>1626.079807057</ele>
        <time>2016-06-23T10:25:13Z</time>
      </trkpt>
      <trkpt lat="45.36192" lon="5.88509">
        <ele>1628.019097195</ele>
        <time>2016-06-23T10:25:28Z</time>
      </trkpt>
      <trkpt lat="45.36184" lon="5.88504">
        <ele>1630.0595677</ele>
        <time>2016-06-23T10:25:38Z</time>
      </trkpt>
      <trkpt lat="45.36174" lon="5.88498">
        <ele>1631.898379891</ele>
        <time>2016-06-23T10:25:48Z</time>
      </trkpt>
      <trkpt lat="45.36165" lon="5.88496">
        <ele>1633.543996486</ele>
        <time>2016-06-23T10:25:58Z</time>
      </trkpt>
      <trkpt lat="45.36151" lon="5.88488">
        <ele>1635.581511664</ele>
        <time>2016-06-23T10:26:13Z</time>
      </trkpt>
      <trkpt lat="45.36133" lon="5.88481">
        <ele>1637.111092058</ele>
        <time>2016-06-23T10:26:28Z</time>
      </trkpt>
      <trkpt lat="45.36123" lon="5.88472">
        <ele>1638.453580172</ele>
        <time>2016-06-23T10:26:43Z</time>
      </trkpt>
      <trkpt lat="45.36106" lon="5.8846">
        <ele>1639.618807153</ele>
        <time>2016-06-23T10:27:03Z</time>
      </trkpt>
      <trkpt lat="45.36089" lon="5.88449">
        <ele>1640.760738547</ele>
        <time>2016-06-23T10:27:19Z</time>
      </trkpt>
      <trkpt lat="45.36077" lon="5.88442">
        <ele>1642.16644625</ele>
        <time>2016-06-23T10:27:32Z</time>
      </trkpt>
      <trkpt lat="45.36065" lon="5.8844">
        <ele>1643.380849426</ele>
        <time>2016-06-23T10:27:43Z</time>
      </trkpt>
      <trkpt lat="45.36055" lon="5.88436">
        <ele>1644.415389395</ele>
        <time>2016-06-23T10:27:53Z</time>
      </trkpt>
      <trkpt lat="45.36042" lon="5.88438">
        <ele>1645.425495419</ele>
        <time>2016-06-23T10:28:09Z</time>
      </trkpt>
      <trkpt lat="45.36023" lon="5.88444">
        <ele>1646.123116503</ele>
        <time>2016-06-23T10:28:23Z</time>
      </trkpt>
      <trkpt lat="45.36006" lon="5.88441">
        <ele>1646.674762846</ele>
        <time>2016-06-23T10:28:38Z</time>
      </trkpt>
      <trkpt lat="45.35996" lon="5.88449">
        <ele>1647.379412613</ele>
        <time>2016-06-23T10:28:53Z</time>
      </trkpt>
      <trkpt lat="45.35982" lon="5.88458">
        <ele>1648.657930826</ele>
        <time>2016-06-23T10:29:08Z</time>
      </trkpt>
      <trkpt lat="45.35966" lon="5.88463">
        <ele>1649.745923509</ele>
        <time>2016-06-23T10:29:23Z</time>
      </trkpt>
      <trkpt lat="45.3595" lon="5.88466">
        <ele>1651.088719993</ele>
        <time>2016-06-23T10:29:38Z</time>
      </trkpt>
      <trkpt lat="45.35933" lon="5.88467">
        <ele>1652.37780524</ele>
        <time>2016-06-23T10:29:53Z</time>
      </trkpt>
      <trkpt lat="45.35917" lon="5.88466">
        <ele>1653.039388021</ele>
        <time>2016-06-23T10:30:08Z</time>
      </trkpt>
      <trkpt lat="45.35907" lon="5.88466">
        <ele>1653.408378172</ele>
        <time>2016-06-23T10:30:18Z</time>
      </trkpt>
      <trkpt lat="45.35898" lon="5.88471">
        <ele>1653.21957186</ele>
        <time>2016-06-23T10:30:28Z</time>
      </trkpt>
      <trkpt lat="45.35888" lon="5.88479">
        <ele>1653.093578259</ele>
        <time>2016-06-23T10:30:44Z</time>
      </trkpt>
      <trkpt lat="45.3587" lon="5.88485">
        <ele>1653.605326587</ele>
        <time>2016-06-23T10:30:58Z</time>
      </trkpt>
      <trkpt lat="45.35856" lon="5.88491">
        <ele>1654.277017583</ele>
        <time>2016-06-23T10:31:13Z</time>
      </trkpt>
      <trkpt lat="45.35839" lon="5.88501">
        <ele>1655.674342825</ele>
        <time>2016-06-23T10:31:32Z</time>
      </trkpt>
      <trkpt lat="45.35825" lon="5.88508">
        <ele>1657.166569295</ele>
        <time>2016-06-23T10:31:48Z</time>
      </trkpt>
      <trkpt lat="45.35813" lon="5.88514">
        <ele>1658.889639354</ele>
        <time>2016-06-23T10:32:02Z</time>
      </trkpt>
      <trkpt lat="45.35801" lon="5.88525">
        <ele>1660.392468008</ele>
        <time>2016-06-23T10:32:18Z</time>
      </trkpt>
      <trkpt lat="45.35788" lon="5.88528">
        <ele>1661.834220194</ele>
        <time>2016-06-23T10:32:33Z</time>
      </trkpt>
      <trkpt lat="45.35776" lon="5.88535">
        <ele>1663.506702324</ele>
        <time>2016-06-23T10:32:48Z</time>
      </trkpt>
      <trkpt lat="45.35764" lon="5.8854">
        <ele>1664.95913259</ele>
        <time>2016-06-23T10:33:03Z</time>
      </trkpt>
      <trkpt lat="45.35749" lon="5.88546">
        <ele>1666.49506673</ele>
        <time>2016-06-23T10:33:18Z</time>
      </trkpt>
      <trkpt lat="45.35735" lon="5.88549">
        <ele>1667.530908944</ele>
        <time>2016-06-23T10:33:33Z</time>
      </trkpt>
      <trkpt lat="45.35719" lon="5.88548">
        <ele>1668.536161633</ele>
        <time>2016-06-23T10:33:48Z</time>
      </trkpt>
      <trkpt lat="45.35699" lon="5.88552">
        <ele>1669.513633226</ele>
        <time>2016-06-23T10:34:08Z</time>
      </trkpt>
      <trkpt lat="45.35686" lon="5.88559">
        <ele>1670.466042538</ele>
        <time>2016-06-23T10:34:23Z</time>
      </trkpt>
      <trkpt lat="45.35675" lon="5.88559">
        <ele>1671.251901321</ele>
        <time>2016-06-23T10:34:38Z</time>
      </trkpt>
      <trkpt lat="45.35667" lon="5.88557">
        <ele>1671.251901321</ele>
        <time>2016-06-23T10:35:07Z</time>
      </trkpt>
      <trkpt lat="45.35658" lon="5.8856">
        <ele>1673.181724052</ele>
        <time>2016-06-23T10:35:48Z</time>
      </trkpt>
      <trkpt lat="45.35652" lon="5.88571">
        <ele>1675.881353068</ele>
        <time>2016-06-23T10:35:58Z</time>
      </trkpt>
      <trkpt lat="45.35656" lon="5.8859">
        <ele>1678.281431964</ele>
        <time>2016-06-23T10:36:13Z</time>
      </trkpt>
      <trkpt lat="45.35654" lon="5.88603">
        <ele>1680.689035441</ele>
        <time>2016-06-23T10:37:28Z</time>
      </trkpt>
      <trkpt lat="45.35647" lon="5.88601">
        <ele>1683.244591417</ele>
        <time>2016-06-23T10:38:43Z</time>
      </trkpt>
      <trkpt lat="45.35648" lon="5.88593">
        <ele>1684.924956205</ele>
        <time>2016-06-23T10:39:48Z</time>
      </trkpt>
      <trkpt lat="45.35646" lon="5.88591">
        <ele>1684.924956205</ele>
        <time>2016-06-23T10:45:23Z</time>
      </trkpt>
      <trkpt lat="45.35634" lon="5.886">
        <ele>1686.631545696</ele>
        <time>2016-06-23T10:45:53Z</time>
      </trkpt>
      <trkpt lat="45.35628" lon="5.88608">
        <ele>1687.298890389</ele>
        <time>2016-06-23T10:46:08Z</time>
      </trkpt>
      <trkpt lat="45.35622" lon="5.8862">
        <ele>1688.674661986</ele>
        <time>2016-06-23T10:46:28Z</time>
      </trkpt>
      <trkpt lat="45.35621" lon="5.88638">
        <ele>1689.986296434</ele>
        <time>2016-06-23T10:46:43Z</time>
      </trkpt>
      <trkpt lat="45.35614" lon="5.88656">
        <ele>1691.526968664</ele>
        <time>2016-06-23T10:46:58Z</time>
      </trkpt>
      <trkpt lat="45.35613" lon="5.88673">
        <ele>1692.703032823</ele>
        <time>2016-06-23T10:47:13Z</time>
      </trkpt>
      <trkpt lat="45.35613" lon="5.88687">
        <ele>1694.262498544</ele>
        <time>2016-06-23T10:47:27Z</time>
      </trkpt>
      <trkpt lat="45.3561" lon="5.88699">
        <ele>1695.888595068</ele>
        <time>2016-06-23T10:47:43Z</time>
      </trkpt>
      <trkpt lat="45.35606" lon="5.88723">
        <ele>1698.296434641</ele>
        <time>2016-06-23T10:47:58Z</time>
      </trkpt>
      <trkpt lat="45.35603" lon="5.88734">
        <ele>1700.272982462</ele>
        <time>2016-06-23T10:48:23Z</time>
      </trkpt>
      <trkpt lat="45.35604" lon="5.88754">
        <ele>1701.992547817</ele>
        <time>2016-06-23T10:48:48Z</time>
      </trkpt>
      <trkpt lat="45.35599" lon="5.88769">
        <ele>1703.905605964</ele>
        <time>2016-06-23T10:49:03Z</time>
      </trkpt>
      <trkpt lat="45.35594" lon="5.88785">
        <ele>1705.852582673</ele>
        <time>2016-06-23T10:49:18Z</time>
      </trkpt>
      <trkpt lat="45.3559" lon="5.88809">
        <ele>1707.829672963</ele>
        <time>2016-06-23T10:49:33Z</time>
      </trkpt>
      <trkpt lat="45.35587" lon="5.88836">
        <ele>1708.968630766</ele>
        <time>2016-06-23T10:49:53Z</time>
      </trkpt>
      <trkpt lat="45.35584" lon="5.88854">
        <ele>1709.764371898</ele>
        <time>2016-06-23T10:50:08Z</time>
      </trkpt>
      <trkpt lat="45.35581" lon="5.88874">
        <ele>1710.676444716</ele>
        <time>2016-06-23T10:50:23Z</time>
      </trkpt>
      <trkpt lat="45.35576" lon="5.88889">
        <ele>1711.842111741</ele>
        <time>2016-06-23T10:50:38Z</time>
      </trkpt>
      <trkpt lat="45.35574" lon="5.88906">
        <ele>1712.811410967</ele>
        <time>2016-06-23T10:50:58Z</time>
      </trkpt>
      <trkpt lat="45.3557" lon="5.88921">
        <ele>1714.176773063</ele>
        <time>2016-06-23T10:51:08Z</time>
      </trkpt>
      <trkpt lat="45.35566" lon="5.88937">
        <ele>1714.900779836</ele>
        <time>2016-06-23T10:51:23Z</time>
      </trkpt>
      <trkpt lat="45.35564" lon="5.88954">
        <ele>1716.329800184</ele>
        <time>2016-06-23T10:51:38Z</time>
      </trkpt>
      <trkpt lat="45.35562" lon="5.88965">
        <ele>1717.835874724</ele>
        <time>2016-06-23T10:51:53Z</time>
      </trkpt>
      <trkpt lat="45.35556" lon="5.88982">
        <ele>1719.845732654</ele>
        <time>2016-06-23T10:52:09Z</time>
      </trkpt>
      <trkpt lat="45.35551" lon="5.88995">
        <ele>1722.753341639</ele>
        <time>2016-06-23T10:52:28Z</time>
      </trkpt>
      <trkpt lat="45.35547" lon="5.8901">
        <ele>1725.335991017</ele>
        <time>2016-06-23T10:52:43Z</time>
      </trkpt>
      <trkpt lat="45.35544" lon="5.89021">
        <ele>1728.046934746</ele>
        <time>2016-06-23T10:52:58Z</time>
      </trkpt>
      <trkpt lat="45.35546" lon="5.89035">
        <ele>1730.441122518</ele>
        <time>2016-06-23T10:53:28Z</time>
      </trkpt>
      <trkpt lat="45.35549" lon="5.89052">
        <ele>1732.971778995</ele>
        <time>2016-06-23T10:53:47Z</time>
      </trkpt>
      <trkpt lat="45.35552" lon="5.89065">
        <ele>1735.482040428</ele>
        <time>2016-06-23T10:54:03Z</time>
      </trkpt>
      <trkpt lat="45.35553" lon="5.89078">
        <ele>1738.547218579</ele>
        <time>2016-06-23T10:54:18Z</time>
      </trkpt>
      <trkpt lat="45.35557" lon="5.8909">
        <ele>1741.690074303</ele>
        <time>2016-06-23T10:54:33Z</time>
      </trkpt>
      <trkpt lat="45.35551" lon="5.89102">
        <ele>1744.900595339</ele>
        <time>2016-06-23T10:54:53Z</time>
      </trkpt>
      <trkpt lat="45.35546" lon="5.89126">
        <ele>1748.313488337</ele>
        <time>2016-06-23T10:55:18Z</time>
      </trkpt>
      <trkpt lat="45.35547" lon="5.89141">
        <ele>1751.476622709</ele>
        <time>2016-06-23T10:55:33Z</time>
      </trkpt>
      <trkpt lat="45.35543" lon="5.89159">
        <ele>1754.836527714</ele>
        <time>2016-06-23T10:55:53Z</time>
      </trkpt>
      <trkpt lat="45.35538" lon="5.89173">
        <ele>1758.374132309</ele>
        <time>2016-06-23T10:56:12Z</time>
      </trkpt>
      <trkpt lat="45.35538" lon="5.89188">
        <ele>1761.927251298</ele>
        <time>2016-06-23T10:56:28Z</time>
      </trkpt>
      <trkpt lat="45.3554" lon="5.89203">
        <ele>1765.489782904</ele>
        <time>2016-06-23T10:56:49Z</time>
      </trkpt>
      <trkpt lat="45.35537" lon="5.89218">
        <ele>1769.344378763</ele>
        <time>2016-06-23T10:57:13Z</time>
      </trkpt>
      <trkpt lat="45.35533" lon="5.89229">
        <ele>1773.031668167</ele>
        <time>2016-06-23T10:57:33Z</time>
      </trkpt>
      <trkpt lat="45.35529" lon="5.8924">
        <ele>1777.279507923</ele>
        <time>2016-06-23T10:57:53Z</time>
      </trkpt>
      <trkpt lat="45.35527" lon="5.89254">
        <ele>1782.040290748</ele>
        <time>2016-06-23T10:58:18Z</time>
      </trkpt>
      <trkpt lat="45.35518" lon="5.89265">
        <ele>1787.268609904</ele>
        <time>2016-06-23T10:58:38Z</time>
      </trkpt>
      <trkpt lat="45.35518" lon="5.89283">
        <ele>1791.624234407</ele>
        <time>2016-06-23T10:59:03Z</time>
      </trkpt>
      <trkpt lat="45.3552" lon="5.89296">
        <ele>1795.597329947</ele>
        <time>2016-06-23T10:59:18Z</time>
      </trkpt>
      <trkpt lat="45.35523" lon="5.89308">
        <ele>1800.075632108</ele>
        <time>2016-06-23T10:59:38Z</time>
      </trkpt>
      <trkpt lat="45.35525" lon="5.8932">
        <ele>1804.151088798</ele>
        <time>2016-06-23T10:59:53Z</time>
      </trkpt>
      <trkpt lat="45.3553" lon="5.89335">
        <ele>1808.424774257</ele>
        <time>2016-06-23T11:00:18Z</time>
      </trkpt>
      <trkpt lat="45.35527" lon="5.89349">
        <ele>1813.309124165</ele>
        <time>2016-06-23T11:00:43Z</time>
      </trkpt>
      <trkpt lat="45.35533" lon="5.8936">
        <ele>1817.311304324</ele>
        <time>2016-06-23T11:01:18Z</time>
      </trkpt>
      <trkpt lat="45.35538" lon="5.89369">
        <ele>1821.500695396</ele>
        <time>2016-06-23T11:02:03Z</time>
      </trkpt>
      <trkpt lat="45.35538" lon="5.8938">
        <ele>1825.138450512</ele>
        <time>2016-06-23T11:02:23Z</time>
      </trkpt>
      <trkpt lat="45.35544" lon="5.8939">
        <ele>1828.694620765</ele>
        <time>2016-06-23T11:02:38Z</time>
      </trkpt>
      <trkpt lat="45.35541" lon="5.89403">
        <ele>1832.749250003</ele>
        <time>2016-06-23T11:05:48Z</time>
      </trkpt>
      <trkpt lat="45.35537" lon="5.89413">
        <ele>1836.253328571</ele>
        <time>2016-06-23T11:08:13Z</time>
      </trkpt>
      <trkpt lat="45.35537" lon="5.89429">
        <ele>1838.524842591</ele>
        <time>2016-06-23T11:08:54Z</time>
      </trkpt>
      <trkpt lat="45.35535" lon="5.89435">
        <ele>1840.664829564</ele>
        <time>2016-06-23T11:10:43Z</time>
      </trkpt>
      <trkpt lat="45.35542" lon="5.89444">
        <ele>1839.802954146</ele>
        <time>2016-06-23T11:11:33Z</time>
      </trkpt>
      <trkpt lat="45.35543" lon="5.89456">
        <ele>1838.764495879</ele>
        <time>2016-06-23T11:11:53Z</time>
      </trkpt>
      <trkpt lat="45.35548" lon="5.89468">
        <ele>1836.997323924</ele>
        <time>2016-06-23T11:12:23Z</time>
      </trkpt>
      <trkpt lat="45.35552" lon="5.89478">
        <ele>1836.997323924</ele>
        <time>2016-06-23T11:32:23Z</time>
      </trkpt>
      <trkpt lat="45.35557" lon="5.89488">
        <ele>1836.009513634</ele>
        <time>2016-06-23T11:35:35Z</time>
      </trkpt>
      <trkpt lat="45.3557" lon="5.89503">
        <ele>1834.746288673</ele>
        <time>2016-06-23T11:35:53Z</time>
      </trkpt>
      <trkpt lat="45.35581" lon="5.89504">
        <ele>1832.519319</ele>
        <time>2016-06-23T11:36:08Z</time>
      </trkpt>
      <trkpt lat="45.35591" lon="5.89508">
        <ele>1829.990473579</ele>
        <time>2016-06-23T11:36:43Z</time>
      </trkpt>
      <trkpt lat="45.35609" lon="5.89509">
        <ele>1827.053185475</ele>
        <time>2016-06-23T11:37:08Z</time>
      </trkpt>
      <trkpt lat="45.35617" lon="5.89525">
        <ele>1824.762608615</ele>
        <time>2016-06-23T11:37:28Z</time>
      </trkpt>
      <trkpt lat="45.35626" lon="5.89529">
        <ele>1822.076837188</ele>
        <time>2016-06-23T11:37:53Z</time>
      </trkpt>
      <trkpt lat="45.35639" lon="5.89528">
        <ele>1819.184289821</ele>
        <time>2016-06-23T11:38:08Z</time>
      </trkpt>
      <trkpt lat="45.35667" lon="5.89533">
        <ele>1816.54810524</ele>
        <time>2016-06-23T11:38:28Z</time>
      </trkpt>
      <trkpt lat="45.35671" lon="5.89517">
        <ele>1812.722965841</ele>
        <time>2016-06-23T11:38:33Z</time>
      </trkpt>
      <trkpt lat="45.35683" lon="5.89518">
        <ele>1808.966764691</ele>
        <time>2016-06-23T11:38:48Z</time>
      </trkpt>
      <trkpt lat="45.35694" lon="5.89523">
        <ele>1805.003360579</ele>
        <time>2016-06-23T11:39:03Z</time>
      </trkpt>
      <trkpt lat="45.35706" lon="5.8953">
        <ele>1801.153572121</ele>
        <time>2016-06-23T11:39:18Z</time>
      </trkpt>
      <trkpt lat="45.35702" lon="5.89536">
        <ele>1797.137510981</ele>
        <time>2016-06-23T11:40:13Z</time>
      </trkpt>
      <trkpt lat="45.35706" lon="5.89548">
        <ele>1792.984138995</ele>
        <time>2016-06-23T11:40:33Z</time>
      </trkpt>
      <trkpt lat="45.35706" lon="5.89558">
        <ele>1789.152590426</ele>
        <time>2016-06-23T11:41:08Z</time>
      </trkpt>
      <trkpt lat="45.35699" lon="5.89557">
        <ele>1785.778711736</ele>
        <time>2016-06-23T11:41:53Z</time>
      </trkpt>
      <trkpt lat="45.35699" lon="5.89551">
        <ele>1781.833748188</ele>
        <time>2016-06-23T11:42:12Z</time>
      </trkpt>
      <trkpt lat="45.35703" lon="5.8956">
        <ele>1778.094993613</ele>
        <time>2016-06-23T11:42:33Z</time>
      </trkpt>
      <trkpt lat="45.35711" lon="5.89555">
        <ele>1775.281598419</ele>
        <time>2016-06-23T11:43:28Z</time>
      </trkpt>
      <trkpt lat="45.35719" lon="5.89566">
        <ele>1773.768600102</ele>
        <time>2016-06-23T11:44:03Z</time>
      </trkpt>
      <trkpt lat="45.35733" lon="5.89574">
        <ele>1772.746487207</ele>
        <time>2016-06-23T11:44:18Z</time>
      </trkpt>
      <trkpt lat="45.35738" lon="5.89592">
        <ele>1772.03983227</ele>
        <time>2016-06-23T11:44:33Z</time>
      </trkpt>
      <trkpt lat="45.35748" lon="5.89601">
        <ele>1771.484777611</ele>
        <time>2016-06-23T11:44:48Z</time>
      </trkpt>
      <trkpt lat="45.35749" lon="5.89616">
        <ele>1771.505112077</ele>
        <time>2016-06-23T11:45:03Z</time>
      </trkpt>
      <trkpt lat="45.35748" lon="5.8964">
        <ele>1772.347383857</ele>
        <time>2016-06-23T11:45:18Z</time>
      </trkpt>
      <trkpt lat="45.35743" lon="5.89656">
        <ele>1774.237369709</ele>
        <time>2016-06-23T11:45:28Z</time>
      </trkpt>
      <trkpt lat="45.35746" lon="5.89673">
        <ele>1776.083999844</ele>
        <time>2016-06-23T11:45:43Z</time>
      </trkpt>
      <trkpt lat="45.35745" lon="5.89682">
        <ele>1778.605525009</ele>
        <time>2016-06-23T11:46:27Z</time>
      </trkpt>
      <trkpt lat="45.3575" lon="5.89693">
        <ele>1780.735960391</ele>
        <time>2016-06-23T11:46:43Z</time>
      </trkpt>
      <trkpt lat="45.35743" lon="5.89707">
        <ele>1783.506074791</ele>
        <time>2016-06-23T11:46:53Z</time>
      </trkpt>
      <trkpt lat="45.3574" lon="5.89728">
        <ele>1786.28373208</ele>
        <time>2016-06-23T11:47:13Z</time>
      </trkpt>
      <trkpt lat="45.35735" lon="5.89747">
        <ele>1789.635971249</ele>
        <time>2016-06-23T11:47:28Z</time>
      </trkpt>
      <trkpt lat="45.35742" lon="5.89762">
        <ele>1792.068915272</ele>
        <time>2016-06-23T11:47:43Z</time>
      </trkpt>
      <trkpt lat="45.35749" lon="5.89775">
        <ele>1794.362613442</ele>
        <time>2016-06-23T11:47:58Z</time>
      </trkpt>
      <trkpt lat="45.3576" lon="5.89788">
        <ele>1796.951953217</ele>
        <time>2016-06-23T11:48:13Z</time>
      </trkpt>
      <trkpt lat="45.35773" lon="5.89802">
        <ele>1799.23026725</ele>
        <time>2016-06-23T11:48:28Z</time>
      </trkpt>
      <trkpt lat="45.35788" lon="5.8979">
        <ele>1801.356905032</ele>
        <time>2016-06-23T11:48:43Z</time>
      </trkpt>
      <trkpt lat="45.35795" lon="5.89777">
        <ele>1802.615311829</ele>
        <time>2016-06-23T11:48:58Z</time>
      </trkpt>
      <trkpt lat="45.35803" lon="5.89765">
        <ele>1803.785177338</ele>
        <time>2016-06-23T11:49:18Z</time>
      </trkpt>
      <trkpt lat="45.35809" lon="5.89771">
        <ele>1804.292234243</ele>
        <time>2016-06-23T11:49:53Z</time>
      </trkpt>
      <trkpt lat="45.35818" lon="5.89768">
        <ele>1803.894558489</ele>
        <time>2016-06-23T11:50:18Z</time>
      </trkpt>
      <trkpt lat="45.3583" lon="5.8978">
        <ele>1804.099947908</ele>
        <time>2016-06-23T11:50:48Z</time>
      </trkpt>
      <trkpt lat="45.35841" lon="5.89788">
        <ele>1804.142156219</ele>
        <time>2016-06-23T11:50:57Z</time>
      </trkpt>
      <trkpt lat="45.35849" lon="5.89806">
        <ele>1804.464646867</ele>
        <time>2016-06-23T11:51:48Z</time>
      </trkpt>
      <trkpt lat="45.35858" lon="5.89815">
        <ele>1804.036479608</ele>
        <time>2016-06-23T11:52:03Z</time>
      </trkpt>
      <trkpt lat="45.3587" lon="5.89832">
        <ele>1803.63395346</ele>
        <time>2016-06-23T11:52:18Z</time>
      </trkpt>
      <trkpt lat="45.35885" lon="5.89835">
        <ele>1803.111664299</ele>
        <time>2016-06-23T11:52:33Z</time>
      </trkpt>
      <trkpt lat="45.35898" lon="5.89841">
        <ele>1802.623503945</ele>
        <time>2016-06-23T11:52:48Z</time>
      </trkpt>
      <trkpt lat="45.3591" lon="5.89849">
        <ele>1801.735567856</ele>
        <time>2016-06-23T11:53:03Z</time>
      </trkpt>
      <trkpt lat="45.35922" lon="5.89856">
        <ele>1800.767544156</ele>
        <time>2016-06-23T11:53:18Z</time>
      </trkpt>
      <trkpt lat="45.35932" lon="5.89864">
        <ele>1800.4482287</ele>
        <time>2016-06-23T11:53:33Z</time>
      </trkpt>
      <trkpt lat="45.35936" lon="5.89884">
        <ele>1799.721752687</ele>
        <time>2016-06-23T11:53:48Z</time>
      </trkpt>
      <trkpt lat="45.35942" lon="5.89897">
        <ele>1798.907972426</ele>
        <time>2016-06-23T11:54:03Z</time>
      </trkpt>
      <trkpt lat="45.35951" lon="5.89918">
        <ele>1798.015282679</ele>
        <time>2016-06-23T11:54:18Z</time>
      </trkpt>
      <trkpt lat="45.35965" lon="5.89932">
        <ele>1797.339911597</ele>
        <time>2016-06-23T11:54:38Z</time>
      </trkpt>
      <trkpt lat="45.35974" lon="5.89947">
        <ele>1796.7233838</ele>
        <time>2016-06-23T11:54:53Z</time>
      </trkpt>
      <trkpt lat="45.35984" lon="5.89945">
        <ele>1795.730472398</ele>
        <time>2016-06-23T11:55:08Z</time>
      </trkpt>
      <trkpt lat="45.35991" lon="5.89939">
        <ele>1794.823633871</ele>
        <time>2016-06-23T11:55:28Z</time>
      </trkpt>
      <trkpt lat="45.36001" lon="5.89931">
        <ele>1794.142873309</ele>
        <time>2016-06-23T11:56:08Z</time>
      </trkpt>
      <trkpt lat="45.36022" lon="5.89927">
        <ele>1794.249591364</ele>
        <time>2016-06-23T11:56:43Z</time>
      </trkpt>
      <trkpt lat="45.3603" lon="5.89928">
        <ele>1794.076495335</ele>
        <time>2016-06-23T11:56:58Z</time>
      </trkpt>
      <trkpt lat="45.36039" lon="5.89949">
        <ele>1793.932459314</ele>
        <time>2016-06-23T11:57:13Z</time>
      </trkpt>
      <trkpt lat="45.36051" lon="5.89956">
        <ele>1793.8153438</ele>
        <time>2016-06-23T11:57:28Z</time>
      </trkpt>
      <trkpt lat="45.36061" lon="5.89955">
        <ele>1793.723072862</ele>
        <time>2016-06-23T11:57:48Z</time>
      </trkpt>
      <trkpt lat="45.3607" lon="5.89944">
        <ele>1793.365414127</ele>
        <time>2016-06-23T11:58:33Z</time>
      </trkpt>
      <trkpt lat="45.36071" lon="5.89941">
        <ele>1794.059408667</ele>
        <time>2016-06-23T11:59:08Z</time>
      </trkpt>
      <trkpt lat="45.36078" lon="5.89946">
        <ele>1794.860720336</ele>
        <time>2016-06-23T11:59:53Z</time>
      </trkpt>
      <trkpt lat="45.36091" lon="5.89957">
        <ele>1796.623412792</ele>
        <time>2016-06-23T12:00:23Z</time>
      </trkpt>
      <trkpt lat="45.36099" lon="5.89952">
        <ele>1798.69500875</ele>
        <time>2016-06-23T12:00:43Z</time>
      </trkpt>
      <trkpt lat="45.36108" lon="5.89947">
        <ele>1801.046560248</ele>
        <time>2016-06-23T12:00:58Z</time>
      </trkpt>
      <trkpt lat="45.36119" lon="5.89949">
        <ele>1804.08283166</ele>
        <time>2016-06-23T12:01:13Z</time>
      </trkpt>
      <trkpt lat="45.36134" lon="5.8996">
        <ele>1807.744657124</ele>
        <time>2016-06-23T12:01:38Z</time>
      </trkpt>
      <trkpt lat="45.36144" lon="5.89964">
        <ele>1810.534428547</ele>
        <time>2016-06-23T12:01:53Z</time>
      </trkpt>
      <trkpt lat="45.36154" lon="5.89977">
        <ele>1812.940540368</ele>
        <time>2016-06-23T12:02:08Z</time>
      </trkpt>
      <trkpt lat="45.36163" lon="5.89987">
        <ele>1815.416701509</ele>
        <time>2016-06-23T12:02:28Z</time>
      </trkpt>
      <trkpt lat="45.36172" lon="5.89998">
        <ele>1817.662668815</ele>
        <time>2016-06-23T12:02:43Z</time>
      </trkpt>
      <trkpt lat="45.36178" lon="5.90009">
        <ele>1820.265708172</ele>
        <time>2016-06-23T12:02:58Z</time>
      </trkpt>
      <trkpt lat="45.36184" lon="5.90019">
        <ele>1822.904426701</ele>
        <time>2016-06-23T12:03:13Z</time>
      </trkpt>
      <trkpt lat="45.36188" lon="5.90032">
        <ele>1825.425210641</ele>
        <time>2016-06-23T12:03:28Z</time>
      </trkpt>
      <trkpt lat="45.36201" lon="5.90038">
        <ele>1827.830338878</ele>
        <time>2016-06-23T12:03:43Z</time>
      </trkpt>
      <trkpt lat="45.36209" lon="5.90047">
        <ele>1830.26653146</ele>
        <time>2016-06-23T12:03:58Z</time>
      </trkpt>
      <trkpt lat="45.36197" lon="5.90059">
        <ele>1832.86982183</ele>
        <time>2016-06-23T12:04:03Z</time>
      </trkpt>
      <trkpt lat="45.36197" lon="5.9007">
        <ele>1836.198299508</ele>
        <time>2016-06-23T12:04:29Z</time>
      </trkpt>
      <trkpt lat="45.36216" lon="5.90077">
        <ele>1838.893766698</ele>
        <time>2016-06-23T12:04:48Z</time>
      </trkpt>
      <trkpt lat="45.36228" lon="5.90082">
        <ele>1841.284990205</ele>
        <time>2016-06-23T12:05:03Z</time>
      </trkpt>
      <trkpt lat="45.36241" lon="5.90092">
        <ele>1843.677636345</ele>
        <time>2016-06-23T12:05:18Z</time>
      </trkpt>
      <trkpt lat="45.36256" lon="5.90098">
        <ele>1845.634555529</ele>
        <time>2016-06-23T12:05:33Z</time>
      </trkpt>
      <trkpt lat="45.36269" lon="5.90109">
        <ele>1847.040350846</ele>
        <time>2016-06-23T12:05:48Z</time>
      </trkpt>
      <trkpt lat="45.36272" lon="5.90122">
        <ele>1848.366283061</ele>
        <time>2016-06-23T12:06:03Z</time>
      </trkpt>
      <trkpt lat="45.36279" lon="5.90132">
        <ele>1849.617067189</ele>
        <time>2016-06-23T12:06:18Z</time>
      </trkpt>
      <trkpt lat="45.36288" lon="5.90137">
        <ele>1850.797455191</ele>
        <time>2016-06-23T12:06:33Z</time>
      </trkpt>
      <trkpt lat="45.36304" lon="5.90149">
        <ele>1852.056320551</ele>
        <time>2016-06-23T12:06:53Z</time>
      </trkpt>
      <trkpt lat="45.36301" lon="5.90168">
        <ele>1853.819755067</ele>
        <time>2016-06-23T12:07:08Z</time>
      </trkpt>
      <trkpt lat="45.36301" lon="5.90183">
        <ele>1855.616611193</ele>
        <time>2016-06-23T12:07:23Z</time>
      </trkpt>
      <trkpt lat="45.363" lon="5.90201">
        <ele>1857.730950448</ele>
        <time>2016-06-23T12:07:38Z</time>
      </trkpt>
      <trkpt lat="45.36308" lon="5.90211">
        <ele>1860.425209419</ele>
        <time>2016-06-23T12:07:53Z</time>
      </trkpt>
      <trkpt lat="45.36317" lon="5.90215">
        <ele>1862.644048787</ele>
        <time>2016-06-23T12:08:08Z</time>
      </trkpt>
      <trkpt lat="45.36305" lon="5.90239">
        <ele>1866.149230058</ele>
        <time>2016-06-23T12:08:28Z</time>
      </trkpt>
      <trkpt lat="45.36311" lon="5.90244">
        <ele>1869.543286251</ele>
        <time>2016-06-23T12:10:18Z</time>
      </trkpt>
      <trkpt lat="45.3632" lon="5.90241">
        <ele>1872.540633212</ele>
        <time>2016-06-23T12:10:48Z</time>
      </trkpt>
      <trkpt lat="45.36323" lon="5.90241">
        <ele>1874.877916952</ele>
        <time>2016-06-23T12:11:48Z</time>
      </trkpt>
      <trkpt lat="45.36329" lon="5.90228">
        <ele>1875.448451172</ele>
        <time>2016-06-23T12:12:18Z</time>
      </trkpt>
      <trkpt lat="45.36338" lon="5.90219">
        <ele>1875.249488294</ele>
        <time>2016-06-23T12:12:33Z</time>
      </trkpt>
      <trkpt lat="45.36351" lon="5.90212">
        <ele>1874.342629302</ele>
        <time>2016-06-23T12:12:48Z</time>
      </trkpt>
      <trkpt lat="45.36359" lon="5.90204">
        <ele>1873.21936217</ele>
        <time>2016-06-23T12:13:03Z</time>
      </trkpt>
      <trkpt lat="45.36374" lon="5.90199">
        <ele>1872.623967632</ele>
        <time>2016-06-23T12:13:38Z</time>
      </trkpt>
      <trkpt lat="45.36391" lon="5.90198">
        <ele>1872.09172415</ele>
        <time>2016-06-23T12:13:53Z</time>
      </trkpt>
      <trkpt lat="45.36402" lon="5.90212">
        <ele>1872.200668957</ele>
        <time>2016-06-23T12:14:09Z</time>
      </trkpt>
      <trkpt lat="45.36414" lon="5.90215">
        <ele>1872.475800702</ele>
        <time>2016-06-23T12:14:23Z</time>
      </trkpt>
      <trkpt lat="45.36424" lon="5.9022">
        <ele>1873.629421404</ele>
        <time>2016-06-23T12:14:38Z</time>
      </trkpt>
      <trkpt lat="45.36437" lon="5.90231">
        <ele>1875.886689023</ele>
        <time>2016-06-23T12:14:53Z</time>
      </trkpt>
      <trkpt lat="45.36444" lon="5.90209">
        <ele>1875.706207449</ele>
        <time>2016-06-23T12:15:08Z</time>
      </trkpt>
      <trkpt lat="45.36445" lon="5.90195">
        <ele>1874.280979057</ele>
        <time>2016-06-23T12:15:13Z</time>
      </trkpt>
      <trkpt lat="45.36459" lon="5.90197">
        <ele>1872.575703973</ele>
        <time>2016-06-23T12:15:28Z</time>
      </trkpt>
      <trkpt lat="45.36461" lon="5.9021">
        <ele>1870.908495425</ele>
        <time>2016-06-23T12:15:43Z</time>
      </trkpt>
      <trkpt lat="45.36465" lon="5.90217">
        <ele>1869.862132548</ele>
        <time>2016-06-23T12:15:58Z</time>
      </trkpt>
      <trkpt lat="45.36472" lon="5.90229">
        <ele>1869.398298054</ele>
        <time>2016-06-23T12:16:08Z</time>
      </trkpt>
      <trkpt lat="45.36485" lon="5.90229">
        <ele>1868.326850574</ele>
        <time>2016-06-23T12:16:28Z</time>
      </trkpt>
      <trkpt lat="45.36494" lon="5.90225">
        <ele>1867.275986398</ele>
        <time>2016-06-23T12:16:32Z</time>
      </trkpt>
      <trkpt lat="45.36493" lon="5.90237">
        <ele>1866.251114097</ele>
        <time>2016-06-23T12:16:43Z</time>
      </trkpt>
      <trkpt lat="45.36503" lon="5.90244">
        <ele>1865.689358387</ele>
        <time>2016-06-23T12:16:58Z</time>
      </trkpt>
      <trkpt lat="45.36498" lon="5.90259">
        <ele>1864.841389172</ele>
        <time>2016-06-23T12:17:07Z</time>
      </trkpt>
      <trkpt lat="45.36502" lon="5.90269">
        <ele>1864.022340963</ele>
        <time>2016-06-23T12:17:22Z</time>
      </trkpt>
      <trkpt lat="45.3651" lon="5.90276">
        <ele>1864.100396891</ele>
        <time>2016-06-23T12:17:38Z</time>
      </trkpt>
      <trkpt lat="45.365" lon="5.90292">
        <ele>1864.436169282</ele>
        <time>2016-06-23T12:17:52Z</time>
      </trkpt>
      <trkpt lat="45.36497" lon="5.90303">
        <ele>1865.301019648</ele>
        <time>2016-06-23T12:18:08Z</time>
      </trkpt>
      <trkpt lat="45.3649" lon="5.9031">
        <ele>1866.512400223</ele>
        <time>2016-06-23T12:19:02Z</time>
      </trkpt>
      <trkpt lat="45.36499" lon="5.9031">
        <ele>1867.755942017</ele>
        <time>2016-06-23T12:19:08Z</time>
      </trkpt>
      <trkpt lat="45.36495" lon="5.90324">
        <ele>1869.604811017</ele>
        <time>2016-06-23T12:19:22Z</time>
      </trkpt>
      <trkpt lat="45.36491" lon="5.90342">
        <ele>1871.723583329</ele>
        <time>2016-06-23T12:19:38Z</time>
      </trkpt>
      <trkpt lat="45.36496" lon="5.90354">
        <ele>1873.368279501</ele>
        <time>2016-06-23T12:19:53Z</time>
      </trkpt>
      <trkpt lat="45.36504" lon="5.9037">
        <ele>1875.436036625</ele>
        <time>2016-06-23T12:20:23Z</time>
      </trkpt>
      <trkpt lat="45.36518" lon="5.9036">
        <ele>1876.739272054</ele>
        <time>2016-06-23T12:20:38Z</time>
      </trkpt>
      <trkpt lat="45.36516" lon="5.9035">
        <ele>1877.33261505</ele>
        <time>2016-06-23T12:21:58Z</time>
      </trkpt>
      <trkpt lat="45.36521" lon="5.90342">
        <ele>1877.989177092</ele>
        <time>2016-06-23T12:22:28Z</time>
      </trkpt>
      <trkpt lat="45.36529" lon="5.90323">
        <ele>1877.69571866</ele>
        <time>2016-06-23T12:22:58Z</time>
      </trkpt>
      <trkpt lat="45.36539" lon="5.90323">
        <ele>1876.813050315</ele>
        <time>2016-06-23T12:23:13Z</time>
      </trkpt>
      <trkpt lat="45.36544" lon="5.90311">
        <ele>1875.821190519</ele>
        <time>2016-06-23T12:23:28Z</time>
      </trkpt>
      <trkpt lat="45.36555" lon="5.90305">
        <ele>1874.156365112</ele>
        <time>2016-06-23T12:23:48Z</time>
      </trkpt>
      <trkpt lat="45.36565" lon="5.90297">
        <ele>1872.883256447</ele>
        <time>2016-06-23T12:24:08Z</time>
      </trkpt>
      <trkpt lat="45.36574" lon="5.90285">
        <ele>1871.257823023</ele>
        <time>2016-06-23T12:24:23Z</time>
      </trkpt>
      <trkpt lat="45.36586" lon="5.9028">
        <ele>1869.74446666</ele>
        <time>2016-06-23T12:24:38Z</time>
      </trkpt>
      <trkpt lat="45.366" lon="5.90274">
        <ele>1868.05250194</ele>
        <time>2016-06-23T12:24:53Z</time>
      </trkpt>
      <trkpt lat="45.36612" lon="5.90266">
        <ele>1865.768873456</ele>
        <time>2016-06-23T12:25:08Z</time>
      </trkpt>
      <trkpt lat="45.36624" lon="5.90255">
        <ele>1863.088847568</ele>
        <time>2016-06-23T12:25:28Z</time>
      </trkpt>
      <trkpt lat="45.36634" lon="5.90255">
        <ele>1860.626654172</ele>
        <time>2016-06-23T12:25:38Z</time>
      </trkpt>
      <trkpt lat="45.36647" lon="5.90251">
        <ele>1857.797750409</ele>
        <time>2016-06-23T12:25:53Z</time>
      </trkpt>
      <trkpt lat="45.36656" lon="5.90242">
        <ele>1854.781952764</ele>
        <time>2016-06-23T12:26:08Z</time>
      </trkpt>
      <trkpt lat="45.36661" lon="5.90235">
        <ele>1851.602102394</ele>
        <time>2016-06-23T12:26:38Z</time>
      </trkpt>
      <trkpt lat="45.36671" lon="5.90224">
        <ele>1848.279629998</ele>
        <time>2016-06-23T12:26:53Z</time>
      </trkpt>
      <trkpt lat="45.36685" lon="5.90221">
        <ele>1844.834585779</ele>
        <time>2016-06-23T12:27:08Z</time>
      </trkpt>
      <trkpt lat="45.36695" lon="5.90223">
        <ele>1841.718005757</ele>
        <time>2016-06-23T12:27:23Z</time>
      </trkpt>
      <trkpt lat="45.36707" lon="5.90212">
        <ele>1838.19375192</ele>
        <time>2016-06-23T12:27:43Z</time>
      </trkpt>
      <trkpt lat="45.36721" lon="5.9021">
        <ele>1834.445331872</ele>
        <time>2016-06-23T12:27:58Z</time>
      </trkpt>
      <trkpt lat="45.3673" lon="5.9021">
        <ele>1830.643150354</ele>
        <time>2016-06-23T12:28:13Z</time>
      </trkpt>
      <trkpt lat="45.36742" lon="5.90219">
        <ele>1827.809652993</ele>
        <time>2016-06-23T12:28:28Z</time>
      </trkpt>
      <trkpt lat="45.36753" lon="5.90228">
        <ele>1826.024529254</ele>
        <time>2016-06-23T12:28:43Z</time>
      </trkpt>
      <trkpt lat="45.36766" lon="5.90234">
        <ele>1824.493743407</ele>
        <time>2016-06-23T12:28:58Z</time>
      </trkpt>
      <trkpt lat="45.36778" lon="5.90239">
        <ele>1822.336505448</ele>
        <time>2016-06-23T12:29:28Z</time>
      </trkpt>
      <trkpt lat="45.36786" lon="5.90252">
        <ele>1820.755791185</ele>
        <time>2016-06-23T12:29:43Z</time>
      </trkpt>
      <trkpt lat="45.36794" lon="5.90258">
        <ele>1819.999683734</ele>
        <time>2016-06-23T12:30:08Z</time>
      </trkpt>
      <trkpt lat="45.36805" lon="5.90249">
        <ele>1818.422056783</ele>
        <time>2016-06-23T12:30:23Z</time>
      </trkpt>
      <trkpt lat="45.36814" lon="5.90241">
        <ele>1817.670244455</ele>
        <time>2016-06-23T12:30:33Z</time>
      </trkpt>
      <trkpt lat="45.36825" lon="5.90238">
        <ele>1816.804380388</ele>
        <time>2016-06-23T12:31:53Z</time>
      </trkpt>
      <trkpt lat="45.36825" lon="5.9025">
        <ele>1815.265291274</ele>
        <time>2016-06-23T12:34:38Z</time>
      </trkpt>
      <trkpt lat="45.36828" lon="5.90263">
        <ele>1813.536805407</ele>
        <time>2016-06-23T12:34:53Z</time>
      </trkpt>
      <trkpt lat="45.36828" lon="5.90269">
        <ele>1811.490079335</ele>
        <time>2016-06-23T12:35:34Z</time>
      </trkpt>
      <trkpt lat="45.36828" lon="5.90277">
        <ele>1809.72705079</ele>
        <time>2016-06-23T12:37:08Z</time>
      </trkpt>
      <trkpt lat="45.36828" lon="5.90275">
        <ele>1806.354624733</ele>
        <time>2016-06-23T12:37:58Z</time>
      </trkpt>
      <trkpt lat="45.36827" lon="5.90283">
        <ele>1803.081826445</ele>
        <time>2016-06-23T12:38:23Z</time>
      </trkpt>
      <trkpt lat="45.3683" lon="5.90293">
        <ele>1800.482950795</ele>
        <time>2016-06-23T12:38:53Z</time>
      </trkpt>
      <trkpt lat="45.36848" lon="5.90284">
        <ele>1797.358749156</ele>
        <time>2016-06-23T12:45:08Z</time>
      </trkpt>
      <trkpt lat="45.36858" lon="5.90282">
        <ele>1793.60818469</ele>
        <time>2016-06-23T12:45:18Z</time>
      </trkpt>
      <trkpt lat="45.36868" lon="5.90284">
        <ele>1790.00392661</ele>
        <time>2016-06-23T12:45:28Z</time>
      </trkpt>
      <trkpt lat="45.36882" lon="5.90292">
        <ele>1786.684885004</ele>
        <time>2016-06-23T12:45:53Z</time>
      </trkpt>
      <trkpt lat="45.36887" lon="5.903">
        <ele>1783.202371889</ele>
        <time>2016-06-23T12:46:33Z</time>
      </trkpt>
      <trkpt lat="45.36891" lon="5.90312">
        <ele>1777.45500805</ele>
        <time>2016-06-23T12:48:23Z</time>
      </trkpt>
      <trkpt lat="45.36899" lon="5.90329">
        <ele>1774.171789347</ele>
        <time>2016-06-23T12:48:38Z</time>
      </trkpt>
      <trkpt lat="45.36915" lon="5.90349">
        <ele>1770.88130553</ele>
        <time>2016-06-23T12:48:58Z</time>
      </trkpt>
      <trkpt lat="45.36918" lon="5.90371">
        <ele>1768.020181736</ele>
        <time>2016-06-23T12:49:13Z</time>
      </trkpt>
      <trkpt lat="45.36925" lon="5.9039">
        <ele>1765.703394186</ele>
        <time>2016-06-23T12:49:28Z</time>
      </trkpt>
      <trkpt lat="45.3692" lon="5.90404">
        <ele>1764.035803497</ele>
        <time>2016-06-23T12:49:44Z</time>
      </trkpt>
      <trkpt lat="45.36914" lon="5.90419">
        <ele>1762.392056036</ele>
        <time>2016-06-23T12:50:03Z</time>
      </trkpt>
      <trkpt lat="45.3691" lon="5.90402">
        <ele>1759.90432245</ele>
        <time>2016-06-23T12:50:33Z</time>
      </trkpt>
      <trkpt lat="45.36901" lon="5.90373">
        <ele>1756.203108237</ele>
        <time>2016-06-23T12:50:48Z</time>
      </trkpt>
      <trkpt lat="45.36895" lon="5.90384">
        <ele>1752.534577696</ele>
        <time>2016-06-23T12:51:18Z</time>
      </trkpt>
      <trkpt lat="45.3689" lon="5.90384">
        <ele>1748.467927635</ele>
        <time>2016-06-23T12:51:38Z</time>
      </trkpt>
      <trkpt lat="45.36892" lon="5.90405">
        <ele>1746.775454415</ele>
        <time>2016-06-23T12:51:48Z</time>
      </trkpt>
      <trkpt lat="45.36898" lon="5.90423">
        <ele>1746.560369946</ele>
        <time>2016-06-23T12:52:08Z</time>
      </trkpt>
      <trkpt lat="45.36906" lon="5.90443">
        <ele>1746.122857502</ele>
        <time>2016-06-23T12:52:38Z</time>
      </trkpt>
      <trkpt lat="45.36905" lon="5.90436">
        <ele>1743.744399389</ele>
        <time>2016-06-23T12:53:13Z</time>
      </trkpt>
      <trkpt lat="45.3691" lon="5.90425">
        <ele>1738.629574622</ele>
        <time>2016-06-23T12:54:43Z</time>
      </trkpt>
      <trkpt lat="45.36915" lon="5.90354">
        <ele>1695.293657899</ele>
        <time>2016-06-23T13:32:07Z</time>
      </trkpt>
      <trkpt lat="45.36918" lon="5.90365">
        <ele>1694.569963215</ele>
        <time>2016-06-23T13:32:22Z</time>
      </trkpt>
      <trkpt lat="45.36912" lon="5.90383">
        <ele>1694.208115873</ele>
        <time>2016-06-23T13:32:27Z</time>
      </trkpt>
      <trkpt lat="45.36932" lon="5.90367">
        <ele>1671.160750008</ele>
        <time>2016-06-23T13:33:32Z</time>
      </trkpt>
      <trkpt lat="45.36925" lon="5.90344">
        <ele>1669.9989488</ele>
        <time>2016-06-23T13:35:07Z</time>
      </trkpt>
      <trkpt lat="45.36913" lon="5.90381">
        <ele>1670.190531457</ele>
        <time>2016-06-23T13:35:17Z</time>
      </trkpt>
      <trkpt lat="45.36905" lon="5.90389">
        <ele>1670.57369677</ele>
        <time>2016-06-23T13:35:37Z</time>
      </trkpt>
      <trkpt lat="45.36905" lon="5.90395">
        <ele>1671.14844474</ele>
        <time>2016-06-23T13:35:57Z</time>
      </trkpt>
      <trkpt lat="45.36908" lon="5.90388">
        <ele>1675.728811235</ele>
        <time>2016-06-23T13:37:12Z</time>
      </trkpt>
      <trkpt lat="45.36915" lon="5.90401">
        <ele>1680.849064226</ele>
        <time>2016-06-23T13:37:27Z</time>
      </trkpt>
      <trkpt lat="45.36926" lon="5.90388">
        <ele>1684.860532227</ele>
        <time>2016-06-23T13:37:42Z</time>
      </trkpt>
      <trkpt lat="45.36932" lon="5.90379">
        <ele>1689.409090297</ele>
        <time>2016-06-23T13:38:12Z</time>
      </trkpt>
      <trkpt lat="45.36923" lon="5.90354">
        <ele>1696.018162076</ele>
        <time>2016-06-23T13:38:42Z</time>
      </trkpt>
      <trkpt lat="45.3692" lon="5.90341">
        <ele>1701.626070136</ele>
        <time>2016-06-23T13:38:47Z</time>
      </trkpt>
      <trkpt lat="45.36911" lon="5.90325">
        <ele>1707.866408741</ele>
        <time>2016-06-23T13:38:57Z</time>
      </trkpt>
      <trkpt lat="45.36897" lon="5.90319">
        <ele>1714.665951667</ele>
        <time>2016-06-23T13:39:12Z</time>
      </trkpt>
      <trkpt lat="45.36885" lon="5.90307">
        <ele>1721.955531628</ele>
        <time>2016-06-23T13:39:32Z</time>
      </trkpt>
      <trkpt lat="45.36864" lon="5.90266">
        <ele>1730.534670209</ele>
        <time>2016-06-23T13:41:52Z</time>
      </trkpt>
      <trkpt lat="45.36853" lon="5.90265">
        <ele>1738.258695495</ele>
        <time>2016-06-23T13:41:57Z</time>
      </trkpt>
      <trkpt lat="45.36841" lon="5.90243">
        <ele>1744.4403198</ele>
        <time>2016-06-23T13:43:52Z</time>
      </trkpt>
      <trkpt lat="45.36832" lon="5.90237">
        <ele>1750.321005606</ele>
        <time>2016-06-23T13:44:12Z</time>
      </trkpt>
      <trkpt lat="45.3683" lon="5.90222">
        <ele>1756.475951538</ele>
        <time>2016-06-23T13:46:42Z</time>
      </trkpt>
      <trkpt lat="45.36846" lon="5.90221">
        <ele>1777.695760029</ele>
        <time>2016-06-23T13:47:28Z</time>
      </trkpt>
      <trkpt lat="45.36872" lon="5.90242">
        <ele>1785.14371989</ele>
        <time>2016-06-23T13:47:48Z</time>
      </trkpt>
      <trkpt lat="45.36893" lon="5.90233">
        <ele>1791.907376849</ele>
        <time>2016-06-23T13:48:02Z</time>
      </trkpt>
      <trkpt lat="45.36905" lon="5.90234">
        <ele>1798.447320376</ele>
        <time>2016-06-23T13:48:18Z</time>
      </trkpt>
      <trkpt lat="45.36918" lon="5.90268">
        <ele>1804.326976911</ele>
        <time>2016-06-23T13:49:03Z</time>
      </trkpt>
      <trkpt lat="45.36924" lon="5.90279">
        <ele>1810.009081301</ele>
        <time>2016-06-23T13:49:08Z</time>
      </trkpt>
      <trkpt lat="45.36932" lon="5.90293">
        <ele>1816.500096984</ele>
        <time>2016-06-23T13:49:18Z</time>
      </trkpt>
      <trkpt lat="45.36942" lon="5.90307">
        <ele>1822.713449021</ele>
        <time>2016-06-23T13:49:38Z</time>
      </trkpt>
      <trkpt lat="45.36947" lon="5.90312">
        <ele>1827.932099861</ele>
        <time>2016-06-23T13:50:07Z</time>
      </trkpt>
      <trkpt lat="45.36965" lon="5.90307">
        <ele>1832.071628474</ele>
        <time>2016-06-23T13:50:22Z</time>
      </trkpt>
      <trkpt lat="45.3697" lon="5.90325">
        <ele>1836.210427072</ele>
        <time>2016-06-23T13:51:32Z</time>
      </trkpt>
      <trkpt lat="45.36993" lon="5.90348">
        <ele>1838.898455825</ele>
        <time>2016-06-23T13:51:42Z</time>
      </trkpt>
      <trkpt lat="45.36999" lon="5.90362">
        <ele>1842.111468156</ele>
        <time>2016-06-23T13:51:57Z</time>
      </trkpt>
      <trkpt lat="45.3701" lon="5.90374">
        <ele>1845.085223176</ele>
        <time>2016-06-23T13:52:12Z</time>
      </trkpt>
      <trkpt lat="45.37018" lon="5.90384">
        <ele>1848.265766583</ele>
        <time>2016-06-23T13:52:27Z</time>
      </trkpt>
      <trkpt lat="45.3703" lon="5.90404">
        <ele>1852.066351952</ele>
        <time>2016-06-23T13:53:02Z</time>
      </trkpt>
      <trkpt lat="45.37045" lon="5.90425">
        <ele>1855.283437529</ele>
        <time>2016-06-23T13:53:17Z</time>
      </trkpt>
      <trkpt lat="45.37052" lon="5.90433">
        <ele>1858.677470979</ele>
        <time>2016-06-23T13:53:32Z</time>
      </trkpt>
      <trkpt lat="45.37068" lon="5.90439">
        <ele>1860.791340541</ele>
        <time>2016-06-23T13:53:47Z</time>
      </trkpt>
      <trkpt lat="45.37076" lon="5.90422">
        <ele>1860.999553055</ele>
        <time>2016-06-23T13:55:32Z</time>
      </trkpt>
      <trkpt lat="45.37087" lon="5.90417">
        <ele>1860.457637373</ele>
        <time>2016-06-23T13:55:47Z</time>
      </trkpt>
      <trkpt lat="45.37093" lon="5.90414">
        <ele>1859.085800487</ele>
        <time>2016-06-23T13:56:02Z</time>
      </trkpt>
      <trkpt lat="45.37107" lon="5.90405">
        <ele>1856.812733309</ele>
        <time>2016-06-23T13:56:22Z</time>
      </trkpt>
      <trkpt lat="45.37116" lon="5.90393">
        <ele>1856.025022675</ele>
        <time>2016-06-23T13:56:32Z</time>
      </trkpt>
      <trkpt lat="45.37119" lon="5.90398">
        <ele>1854.318398181</ele>
        <time>2016-06-23T13:56:52Z</time>
      </trkpt>
      <trkpt lat="45.37128" lon="5.90405">
        <ele>1854.359942182</ele>
        <time>2016-06-23T13:59:07Z</time>
      </trkpt>
      <trkpt lat="45.37111" lon="5.90428">
        <ele>1855.842385216</ele>
        <time>2016-06-23T14:04:17Z</time>
      </trkpt>
      <trkpt lat="45.37102" lon="5.90441">
        <ele>1855.168993122</ele>
        <time>2016-06-23T14:04:37Z</time>
      </trkpt>
      <trkpt lat="45.37088" lon="5.90426">
        <ele>1853.749414811</ele>
        <time>2016-06-23T14:04:47Z</time>
      </trkpt>
      <trkpt lat="45.37083" lon="5.90438">
        <ele>1852.94816504</ele>
        <time>2016-06-23T14:05:07Z</time>
      </trkpt>
      <trkpt lat="45.37067" lon="5.90441">
        <ele>1851.721970117</ele>
        <time>2016-06-23T14:05:22Z</time>
      </trkpt>
      <trkpt lat="45.37056" lon="5.90424">
        <ele>1850.40231584</ele>
        <time>2016-06-23T14:05:37Z</time>
      </trkpt>
      <trkpt lat="45.37042" lon="5.90413">
        <ele>1849.296497711</ele>
        <time>2016-06-23T14:06:07Z</time>
      </trkpt>
      <trkpt lat="45.37042" lon="5.90391">
        <ele>1847.535617779</ele>
        <time>2016-06-23T14:06:22Z</time>
      </trkpt>
      <trkpt lat="45.37033" lon="5.90389">
        <ele>1846.333843878</ele>
        <time>2016-06-23T14:06:37Z</time>
      </trkpt>
      <trkpt lat="45.37025" lon="5.904">
        <ele>1845.373290946</ele>
        <time>2016-06-23T14:06:42Z</time>
      </trkpt>
      <trkpt lat="45.37018" lon="5.90395">
        <ele>1843.782101397</ele>
        <time>2016-06-23T14:06:57Z</time>
      </trkpt>
      <trkpt lat="45.37005" lon="5.90391">
        <ele>1842.627456124</ele>
        <time>2016-06-23T14:07:12Z</time>
      </trkpt>
      <trkpt lat="45.37003" lon="5.90364">
        <ele>1840.735009675</ele>
        <time>2016-06-23T14:07:27Z</time>
      </trkpt>
      <trkpt lat="45.36996" lon="5.90363">
        <ele>1840.264765162</ele>
        <time>2016-06-23T14:08:32Z</time>
      </trkpt>
      <trkpt lat="45.36977" lon="5.90301">
        <ele>1834.047332048</ele>
        <time>2016-06-23T14:09:12Z</time>
      </trkpt>
      <trkpt lat="45.3696" lon="5.90289">
        <ele>1827.371194635</ele>
        <time>2016-06-23T14:09:22Z</time>
      </trkpt>
      <trkpt lat="45.36945" lon="5.90288">
        <ele>1822.017579415</ele>
        <time>2016-06-23T14:09:37Z</time>
      </trkpt>
      <trkpt lat="45.36938" lon="5.90273">
        <ele>1817.045518266</ele>
        <time>2016-06-23T14:09:52Z</time>
      </trkpt>
      <trkpt lat="45.36926" lon="5.90259">
        <ele>1813.022802772</ele>
        <time>2016-06-23T14:10:07Z</time>
      </trkpt>
      <trkpt lat="45.36905" lon="5.90253">
        <ele>1810.184198924</ele>
        <time>2016-06-23T14:10:22Z</time>
      </trkpt>
      <trkpt lat="45.36878" lon="5.90235">
        <ele>1803.938287643</ele>
        <time>2016-06-23T14:10:57Z</time>
      </trkpt>
      <trkpt lat="45.36867" lon="5.90231">
        <ele>1799.607220731</ele>
        <time>2016-06-23T14:11:27Z</time>
      </trkpt>
      <trkpt lat="45.36854" lon="5.90224">
        <ele>1795.094876993</ele>
        <time>2016-06-23T14:11:32Z</time>
      </trkpt>
      <trkpt lat="45.36844" lon="5.90224">
        <ele>1792.159253522</ele>
        <time>2016-06-23T14:11:42Z</time>
      </trkpt>
      <trkpt lat="45.36829" lon="5.90218">
        <ele>1789.253859592</ele>
        <time>2016-06-23T14:11:57Z</time>
      </trkpt>
      <trkpt lat="45.36816" lon="5.9022">
        <ele>1786.962803678</ele>
        <time>2016-06-23T14:13:52Z</time>
      </trkpt>
      <trkpt lat="45.36798" lon="5.9022">
        <ele>1785.248648375</ele>
        <time>2016-06-23T14:14:02Z</time>
      </trkpt>
      <trkpt lat="45.36787" lon="5.90223">
        <ele>1784.36285447</ele>
        <time>2016-06-23T14:14:07Z</time>
      </trkpt>
      <trkpt lat="45.36764" lon="5.90219">
        <ele>1784.823873112</ele>
        <time>2016-06-23T01:14:17Z</time>
      </trkpt>
      <trkpt lat="45.36758" lon="5.90207">
        <ele>1785.666770305</ele>
        <time>2016-06-23T01:14:22Z</time>
      </trkpt>
      <trkpt lat="45.36751" lon="5.90192">
        <ele>1784.843152711</ele>
        <time>2016-06-23T01:14:37Z</time>
      </trkpt>
      <trkpt lat="45.36736" lon="5.90195">
        <ele>1784.638647848</ele>
        <time>2016-06-23T01:14:47Z</time>
      </trkpt>
      <trkpt lat="45.36727" lon="5.90194">
        <ele>1785.151367839</ele>
        <time>2016-06-23T01:14:57Z</time>
      </trkpt>
      <trkpt lat="45.36714" lon="5.90196">
        <ele>1786.469913981</ele>
        <time>2016-06-23T01:15:12Z</time>
      </trkpt>
      <trkpt lat="45.36708" lon="5.90206">
        <ele>1788.673858407</ele>
        <time>2016-06-23T01:15:22Z</time>
      </trkpt>
      <trkpt lat="45.36694" lon="5.90217">
        <ele>1791.978332263</ele>
        <time>2016-06-23T01:15:44Z</time>
      </trkpt>
      <trkpt lat="45.36687" lon="5.90213">
        <ele>1795.282393152</ele>
        <time>2016-06-23T01:15:53Z</time>
      </trkpt>
      <trkpt lat="45.36679" lon="5.9021">
        <ele>1798.862836328</ele>
        <time>2016-06-23T01:17:17Z</time>
      </trkpt>
      <trkpt lat="45.36664" lon="5.90208">
        <ele>1802.975255436</ele>
        <time>2016-06-23T01:19:17Z</time>
      </trkpt>
      <trkpt lat="45.36665" lon="5.90201">
        <ele>1805.981480973</ele>
        <time>2016-06-23T01:19:32Z</time>
      </trkpt>
      <trkpt lat="45.36674" lon="5.90206">
        <ele>1809.537222553</ele>
        <time>2016-06-23T01:19:47Z</time>
      </trkpt>
      <trkpt lat="45.36666" lon="5.90205">
        <ele>1813.15749379</ele>
        <time>2016-06-23T01:21:52Z</time>
      </trkpt>
      <trkpt lat="45.3668" lon="5.90192">
        <ele>1816.53692898</ele>
        <time>2016-06-23T01:22:22Z</time>
      </trkpt>
      <trkpt lat="45.3669" lon="5.90178">
        <ele>1830.006737239</ele>
        <time>2016-06-23T01:23:37Z</time>
      </trkpt>
      <trkpt lat="45.36688" lon="5.90172">
        <ele>1835.435001922</ele>
        <time>2016-06-23T01:24:52Z</time>
      </trkpt>
      <trkpt lat="45.36682" lon="5.90169">
        <ele>1835.435001922</ele>
        <time>2016-06-23T01:26:17Z</time>
      </trkpt>
      <trkpt lat="45.36685" lon="5.9016">
        <ele>1846.459369454</ele>
        <time>2016-06-23T01:27:22Z</time>
      </trkpt>
      <trkpt lat="45.36685" lon="5.90157">
        <ele>1850.6315411</ele>
        <time>2016-06-23T01:28:27Z</time>
      </trkpt>
      <trkpt lat="45.36687" lon="5.90165">
        <ele>1854.693501352</ele>
        <time>2016-06-23T01:29:07Z</time>
      </trkpt>
      <trkpt lat="45.36692" lon="5.90168">
        <ele>1858.785771832</ele>
        <time>2016-06-23T01:32:52Z</time>
      </trkpt>
      <trkpt lat="45.36702" lon="5.90168">
        <ele>1862.462357322</ele>
        <time>2016-06-23T01:33:07Z</time>
      </trkpt>
      <trkpt lat="45.36723" lon="5.90169">
        <ele>1865.455644532</ele>
        <time>2016-06-23T01:33:18Z</time>
      </trkpt>
      <trkpt lat="45.36745" lon="5.90174">
        <ele>1867.664050834</ele>
        <time>2016-06-23T01:33:47Z</time>
      </trkpt>
      <trkpt lat="45.36753" lon="5.90178">
        <ele>1870.004777364</ele>
        <time>2016-06-23T01:34:08Z</time>
      </trkpt>
      <trkpt lat="45.3677" lon="5.90187">
        <ele>1872.607056618</ele>
        <time>2016-06-23T01:34:18Z</time>
      </trkpt>
      <trkpt lat="45.36783" lon="5.9019">
        <ele>1874.581441671</ele>
        <time>2016-06-23T01:34:32Z</time>
      </trkpt>
      <trkpt lat="45.36797" lon="5.90193">
        <ele>1876.402900331</ele>
        <time>2016-06-23T01:34:52Z</time>
      </trkpt>
      <trkpt lat="45.36814" lon="5.90197">
        <ele>1878.368130056</ele>
        <time>2016-06-23T01:35:07Z</time>
      </trkpt>
      <trkpt lat="45.36829" lon="5.90195">
        <ele>1879.454917478</ele>
        <time>2016-06-23T01:35:22Z</time>
      </trkpt>
      <trkpt lat="45.3685" lon="5.90197">
        <ele>1879.439430583</ele>
        <time>2016-06-23T01:35:37Z</time>
      </trkpt>
      <trkpt lat="45.3686" lon="5.90192">
        <ele>1879.846956087</ele>
        <time>2016-06-23T01:36:07Z</time>
      </trkpt>
      <trkpt lat="45.36864" lon="5.90184">
        <ele>1880.7927752</ele>
        <time>2016-06-23T01:36:52Z</time>
      </trkpt>
      <trkpt lat="45.36889" lon="5.90185">
        <ele>1881.229506222</ele>
        <time>2016-06-23T01:37:22Z</time>
      </trkpt>
      <trkpt lat="45.36898" lon="5.90179">
        <ele>1881.341206966</ele>
        <time>2016-06-23T01:37:52Z</time>
      </trkpt>
      <trkpt lat="45.36909" lon="5.90176">
        <ele>1881.011263554</ele>
        <time>2016-06-23T01:38:27Z</time>
      </trkpt>
      <trkpt lat="45.36923" lon="5.90173">
        <ele>1879.844780551</ele>
        <time>2016-06-23T01:38:37Z</time>
      </trkpt>
      <trkpt lat="45.36939" lon="5.90175">
        <ele>1877.62243673</ele>
        <time>2016-06-23T01:38:57Z</time>
      </trkpt>
      <trkpt lat="45.36952" lon="5.90175">
        <ele>1875.296950148</ele>
        <time>2016-06-23T01:39:17Z</time>
      </trkpt>
      <trkpt lat="45.36962" lon="5.90177">
        <ele>1872.454384215</ele>
        <time>2016-06-23T01:39:27Z</time>
      </trkpt>
      <trkpt lat="45.36978" lon="5.90184">
        <ele>1870.153779852</ele>
        <time>2016-06-23T01:39:43Z</time>
      </trkpt>
      <trkpt lat="45.36991" lon="5.90192">
        <ele>1867.789611695</ele>
        <time>2016-06-23T01:39:58Z</time>
      </trkpt>
      <trkpt lat="45.37002" lon="5.90209">
        <ele>1865.37740049</ele>
        <time>2016-06-23T01:40:13Z</time>
      </trkpt>
      <trkpt lat="45.37009" lon="5.90221">
        <ele>1863.219796923</ele>
        <time>2016-06-23T01:40:28Z</time>
      </trkpt>
      <trkpt lat="45.37022" lon="5.90232">
        <ele>1861.308170642</ele>
        <time>2016-06-23T01:40:43Z</time>
      </trkpt>
      <trkpt lat="45.3704" lon="5.90241">
        <ele>1859.633701765</ele>
        <time>2016-06-23T01:40:58Z</time>
      </trkpt>
      <trkpt lat="45.3705" lon="5.90254">
        <ele>1857.610956009</ele>
        <time>2016-06-23T01:41:18Z</time>
      </trkpt>
      <trkpt lat="45.37061" lon="5.90267">
        <ele>1855.707091708</ele>
        <time>2016-06-23T01:41:34Z</time>
      </trkpt>
      <trkpt lat="45.37076" lon="5.90279">
        <ele>1852.625098318</ele>
        <time>2016-06-23T01:41:48Z</time>
      </trkpt>
      <trkpt lat="45.37093" lon="5.9029">
        <ele>1851.057351948</ele>
        <time>2016-06-23T01:42:08Z</time>
      </trkpt>
      <trkpt lat="45.37105" lon="5.90304">
        <ele>1850.035323614</ele>
        <time>2016-06-23T01:42:23Z</time>
      </trkpt>
      <trkpt lat="45.37122" lon="5.90314">
        <ele>1849.092217639</ele>
        <time>2016-06-23T01:42:38Z</time>
      </trkpt>
      <trkpt lat="45.37137" lon="5.90323">
        <ele>1848.227420117</ele>
        <time>2016-06-23T01:42:52Z</time>
      </trkpt>
      <trkpt lat="45.37148" lon="5.90331">
        <ele>1848.16047931</ele>
        <time>2016-06-23T01:43:08Z</time>
      </trkpt>
      <trkpt lat="45.37162" lon="5.9034">
        <ele>1847.826298553</ele>
        <time>2016-06-23T01:43:23Z</time>
      </trkpt>
      <trkpt lat="45.37178" lon="5.90352">
        <ele>1847.103229316</ele>
        <time>2016-06-23T01:43:38Z</time>
      </trkpt>
      <trkpt lat="45.37194" lon="5.90361">
        <ele>1846.455891171</ele>
        <time>2016-06-23T01:43:53Z</time>
      </trkpt>
      <trkpt lat="45.37202" lon="5.90367">
        <ele>1846.170252467</ele>
        <time>2016-06-23T01:44:02Z</time>
      </trkpt>
      <trkpt lat="45.37211" lon="5.90371">
        <ele>1845.789513276</ele>
        <time>2016-06-23T01:44:12Z</time>
      </trkpt>
      <trkpt lat="45.37221" lon="5.90375">
        <ele>1845.466957343</ele>
        <time>2016-06-23T01:44:22Z</time>
      </trkpt>
      <trkpt lat="45.37235" lon="5.90384">
        <ele>1844.911934539</ele>
        <time>2016-06-23T01:44:38Z</time>
      </trkpt>
      <trkpt lat="45.37247" lon="5.90393">
        <ele>1844.720295608</ele>
        <time>2016-06-23T01:44:53Z</time>
      </trkpt>
      <trkpt lat="45.37263" lon="5.90399">
        <ele>1845.731163893</ele>
        <time>2016-06-23T01:45:08Z</time>
      </trkpt>
      <trkpt lat="45.37286" lon="5.90406">
        <ele>1846.845054854</ele>
        <time>2016-06-23T01:45:28Z</time>
      </trkpt>
      <trkpt lat="45.373" lon="5.90408">
        <ele>1848.195718587</ele>
        <time>2016-06-23T01:45:43Z</time>
      </trkpt>
      <trkpt lat="45.37315" lon="5.90407">
        <ele>1849.329854909</ele>
        <time>2016-06-23T01:45:58Z</time>
      </trkpt>
      <trkpt lat="45.37331" lon="5.90409">
        <ele>1850.548528086</ele>
        <time>2016-06-23T01:46:13Z</time>
      </trkpt>
      <trkpt lat="45.37347" lon="5.90411">
        <ele>1851.265700795</ele>
        <time>2016-06-23T01:46:28Z</time>
      </trkpt>
      <trkpt lat="45.37361" lon="5.90419">
        <ele>1852.380838359</ele>
        <time>2016-06-23T01:46:43Z</time>
      </trkpt>
      <trkpt lat="45.37373" lon="5.9043">
        <ele>1854.00560871</ele>
        <time>2016-06-23T01:46:58Z</time>
      </trkpt>
      <trkpt lat="45.37388" lon="5.90428">
        <ele>1856.097900255</ele>
        <time>2016-06-23T01:47:13Z</time>
      </trkpt>
      <trkpt lat="45.37405" lon="5.90429">
        <ele>1858.185030274</ele>
        <time>2016-06-23T01:47:28Z</time>
      </trkpt>
      <trkpt lat="45.37416" lon="5.90429">
        <ele>1860.117273392</ele>
        <time>2016-06-23T01:47:38Z</time>
      </trkpt>
      <trkpt lat="45.37429" lon="5.90429">
        <ele>1862.188685984</ele>
        <time>2016-06-23T01:47:48Z</time>
      </trkpt>
      <trkpt lat="45.3745" lon="5.90429">
        <ele>1863.374362363</ele>
        <time>2016-06-23T01:48:03Z</time>
      </trkpt>
      <trkpt lat="45.37464" lon="5.90425">
        <ele>1864.024212779</ele>
        <time>2016-06-23T01:48:18Z</time>
      </trkpt>
      <trkpt lat="45.37476" lon="5.90425">
        <ele>1864.031661697</ele>
        <time>2016-06-23T01:48:33Z</time>
      </trkpt>
      <trkpt lat="45.37493" lon="5.90424">
        <ele>1863.732149249</ele>
        <time>2016-06-23T01:48:48Z</time>
      </trkpt>
      <trkpt lat="45.37508" lon="5.90417">
        <ele>1863.293273057</ele>
        <time>2016-06-23T01:49:02Z</time>
      </trkpt>
      <trkpt lat="45.37524" lon="5.90413">
        <ele>1862.438419553</ele>
        <time>2016-06-23T01:49:18Z</time>
      </trkpt>
      <trkpt lat="45.37537" lon="5.90413">
        <ele>1861.633053044</ele>
        <time>2016-06-23T01:49:33Z</time>
      </trkpt>
      <trkpt lat="45.3755" lon="5.90408">
        <ele>1861.020110772</ele>
        <time>2016-06-23T01:49:53Z</time>
      </trkpt>
      <trkpt lat="45.3756" lon="5.90414">
        <ele>1860.443286149</ele>
        <time>2016-06-23T01:50:08Z</time>
      </trkpt>
      <trkpt lat="45.37573" lon="5.90416">
        <ele>1860.622332283</ele>
        <time>2016-06-23T01:50:28Z</time>
      </trkpt>
      <trkpt lat="45.37586" lon="5.90417">
        <ele>1859.772124858</ele>
        <time>2016-06-23T01:50:38Z</time>
      </trkpt>
      <trkpt lat="45.37596" lon="5.90406">
        <ele>1858.259116394</ele>
        <time>2016-06-23T01:50:53Z</time>
      </trkpt>
      <trkpt lat="45.37599" lon="5.90394">
        <ele>1857.001135975</ele>
        <time>2016-06-23T01:51:13Z</time>
      </trkpt>
      <trkpt lat="45.37606" lon="5.9038">
        <ele>1855.550856653</ele>
        <time>2016-06-23T01:51:28Z</time>
      </trkpt>
      <trkpt lat="45.37614" lon="5.90373">
        <ele>1853.926657014</ele>
        <time>2016-06-23T01:51:43Z</time>
      </trkpt>
      <trkpt lat="45.37623" lon="5.90365">
        <ele>1852.001902987</ele>
        <time>2016-06-23T01:51:53Z</time>
      </trkpt>
      <trkpt lat="45.37635" lon="5.90363">
        <ele>1849.227720515</ele>
        <time>2016-06-23T01:52:08Z</time>
      </trkpt>
      <trkpt lat="45.37649" lon="5.9036">
        <ele>1846.82720694</ele>
        <time>2016-06-23T01:52:23Z</time>
      </trkpt>
      <trkpt lat="45.37669" lon="5.9036">
        <ele>1843.626703583</ele>
        <time>2016-06-23T01:52:43Z</time>
      </trkpt>
      <trkpt lat="45.37685" lon="5.9036">
        <ele>1840.702582543</ele>
        <time>2016-06-23T01:53:38Z</time>
      </trkpt>
      <trkpt lat="45.37697" lon="5.90361">
        <ele>1838.042479738</ele>
        <time>2016-06-23T01:53:53Z</time>
      </trkpt>
      <trkpt lat="45.37714" lon="5.90363">
        <ele>1835.778183095</ele>
        <time>2016-06-23T01:54:08Z</time>
      </trkpt>
      <trkpt lat="45.37728" lon="5.90372">
        <ele>1833.598217235</ele>
        <time>2016-06-23T01:54:23Z</time>
      </trkpt>
      <trkpt lat="45.37743" lon="5.90374">
        <ele>1831.213603759</ele>
        <time>2016-06-23T01:54:38Z</time>
      </trkpt>
      <trkpt lat="45.37762" lon="5.90372">
        <ele>1829.654014561</ele>
        <time>2016-06-23T01:54:58Z</time>
      </trkpt>
      <trkpt lat="45.37771" lon="5.90372">
        <ele>1827.997567189</ele>
        <time>2016-06-23T01:55:03Z</time>
      </trkpt>
      <trkpt lat="45.37785" lon="5.90375">
        <ele>1825.246101953</ele>
        <time>2016-06-23T01:55:28Z</time>
      </trkpt>
      <trkpt lat="45.378" lon="5.90375">
        <ele>1822.062915916</ele>
        <time>2016-06-23T01:55:43Z</time>
      </trkpt>
      <trkpt lat="45.37811" lon="5.90377">
        <ele>1819.784182517</ele>
        <time>2016-06-23T01:55:58Z</time>
      </trkpt>
      <trkpt lat="45.37827" lon="5.90381">
        <ele>1817.051212233</ele>
        <time>2016-06-23T01:56:16Z</time>
      </trkpt>
      <trkpt lat="45.37836" lon="5.90384">
        <ele>1814.191445512</ele>
        <time>2016-06-23T01:56:33Z</time>
      </trkpt>
      <trkpt lat="45.37848" lon="5.90389">
        <ele>1811.220222327</ele>
        <time>2016-06-23T01:56:48Z</time>
      </trkpt>
      <trkpt lat="45.37859" lon="5.90399">
        <ele>1808.728329901</ele>
        <time>2016-06-23T01:57:03Z</time>
      </trkpt>
      <trkpt lat="45.37865" lon="5.90408">
        <ele>1806.541070759</ele>
        <time>2016-06-23T01:57:18Z</time>
      </trkpt>
      <trkpt lat="45.37876" lon="5.90418">
        <ele>1804.495540558</ele>
        <time>2016-06-23T01:57:48Z</time>
      </trkpt>
      <trkpt lat="45.37885" lon="5.90424">
        <ele>1801.863775133</ele>
        <time>2016-06-23T01:58:08Z</time>
      </trkpt>
      <trkpt lat="45.37893" lon="5.90425">
        <ele>1799.846194801</ele>
        <time>2016-06-23T01:58:53Z</time>
      </trkpt>
      <trkpt lat="45.37908" lon="5.90429">
        <ele>1797.247357944</ele>
        <time>2016-06-23T01:59:18Z</time>
      </trkpt>
      <trkpt lat="45.37916" lon="5.90437">
        <ele>1794.978651527</ele>
        <time>2016-06-23T01:59:33Z</time>
      </trkpt>
      <trkpt lat="45.37926" lon="5.9044">
        <ele>1793.162859911</ele>
        <time>2016-06-23T01:59:53Z</time>
      </trkpt>
      <trkpt lat="45.37938" lon="5.90444">
        <ele>1791.335867081</ele>
        <time>2016-06-23T02:00:08Z</time>
      </trkpt>
      <trkpt lat="45.37948" lon="5.90456">
        <ele>1789.355744836</ele>
        <time>2016-06-23T02:00:23Z</time>
      </trkpt>
      <trkpt lat="45.37951" lon="5.9047">
        <ele>1788.100047307</ele>
        <time>2016-06-23T02:00:38Z</time>
      </trkpt>
      <trkpt lat="45.37964" lon="5.90489">
        <ele>1786.794466848</ele>
        <time>2016-06-23T02:00:53Z</time>
      </trkpt>
      <trkpt lat="45.37973" lon="5.905">
        <ele>1785.298028245</ele>
        <time>2016-06-23T02:01:08Z</time>
      </trkpt>
      <trkpt lat="45.37986" lon="5.90516">
        <ele>1783.336413605</ele>
        <time>2016-06-23T02:01:23Z</time>
      </trkpt>
      <trkpt lat="45.38002" lon="5.90525">
        <ele>1781.953648848</ele>
        <time>2016-06-23T02:01:38Z</time>
      </trkpt>
      <trkpt lat="45.38015" lon="5.90532">
        <ele>1781.106561357</ele>
        <time>2016-06-23T02:01:52Z</time>
      </trkpt>
      <trkpt lat="45.38037" lon="5.90539">
        <ele>1780.032998162</ele>
        <time>2016-06-23T02:02:12Z</time>
      </trkpt>
      <trkpt lat="45.38046" lon="5.90541">
        <ele>1779.46845889</ele>
        <time>2016-06-23T02:02:23Z</time>
      </trkpt>
      <trkpt lat="45.3806" lon="5.90545">
        <ele>1779.37236206</ele>
        <time>2016-06-23T02:02:38Z</time>
      </trkpt>
      <trkpt lat="45.38069" lon="5.90551">
        <ele>1779.705740842</ele>
        <time>2016-06-23T02:02:47Z</time>
      </trkpt>
      <trkpt lat="45.38087" lon="5.90559">
        <ele>1780.143028445</ele>
        <time>2016-06-23T02:03:08Z</time>
      </trkpt>
      <trkpt lat="45.38099" lon="5.90557">
        <ele>1780.526376774</ele>
        <time>2016-06-23T02:03:28Z</time>
      </trkpt>
      <trkpt lat="45.38111" lon="5.9056">
        <ele>1780.565574451</ele>
        <time>2016-06-23T02:03:37Z</time>
      </trkpt>
      <trkpt lat="45.38126" lon="5.90562">
        <ele>1781.145602619</ele>
        <time>2016-06-23T02:03:53Z</time>
      </trkpt>
      <trkpt lat="45.38141" lon="5.90563">
        <ele>1780.490947354</ele>
        <time>2016-06-23T02:04:08Z</time>
      </trkpt>
      <trkpt lat="45.38155" lon="5.90567">
        <ele>1780.418700751</ele>
        <time>2016-06-23T02:04:23Z</time>
      </trkpt>
      <trkpt lat="45.3817" lon="5.90565">
        <ele>1780.449227975</ele>
        <time>2016-06-23T02:04:38Z</time>
      </trkpt>
      <trkpt lat="45.38187" lon="5.90569">
        <ele>1780.426128105</ele>
        <time>2016-06-23T02:04:52Z</time>
      </trkpt>
      <trkpt lat="45.38195" lon="5.90578">
        <ele>1779.916490796</ele>
        <time>2016-06-23T02:07:43Z</time>
      </trkpt>
      <trkpt lat="45.38208" lon="5.90581">
        <ele>1779.673541676</ele>
        <time>2016-06-23T02:07:58Z</time>
      </trkpt>
      <trkpt lat="45.38223" lon="5.90579">
        <ele>1779.67395743</ele>
        <time>2016-06-23T02:08:13Z</time>
      </trkpt>
      <trkpt lat="45.38235" lon="5.9058">
        <ele>1779.895537478</ele>
        <time>2016-06-23T02:08:28Z</time>
      </trkpt>
      <trkpt lat="45.38236" lon="5.90593">
        <ele>1780.173078278</ele>
        <time>2016-06-23T02:09:23Z</time>
      </trkpt>
      <trkpt lat="45.38235" lon="5.90607">
        <ele>1780.785793234</ele>
        <time>2016-06-23T02:09:38Z</time>
      </trkpt>
      <trkpt lat="45.38238" lon="5.90622">
        <ele>1782.135669153</ele>
        <time>2016-06-23T02:09:53Z</time>
      </trkpt>
      <trkpt lat="45.38246" lon="5.90633">
        <ele>1783.728551694</ele>
        <time>2016-06-23T02:10:12Z</time>
      </trkpt>
      <trkpt lat="45.38249" lon="5.90649">
        <ele>1785.682485528</ele>
        <time>2016-06-23T02:10:28Z</time>
      </trkpt>
      <trkpt lat="45.38254" lon="5.90667">
        <ele>1788.394204199</ele>
        <time>2016-06-23T02:10:48Z</time>
      </trkpt>
      <trkpt lat="45.38254" lon="5.9068">
        <ele>1791.220561303</ele>
        <time>2016-06-23T02:11:03Z</time>
      </trkpt>
      <trkpt lat="45.38259" lon="5.90694">
        <ele>1793.709630343</ele>
        <time>2016-06-23T02:11:18Z</time>
      </trkpt>
      <trkpt lat="45.3826" lon="5.90707">
        <ele>1796.308498868</ele>
        <time>2016-06-23T02:11:33Z</time>
      </trkpt>
      <trkpt lat="45.38268" lon="5.90723">
        <ele>1799.431323327</ele>
        <time>2016-06-23T02:11:48Z</time>
      </trkpt>
      <trkpt lat="45.38273" lon="5.90737">
        <ele>1802.307712124</ele>
        <time>2016-06-23T02:12:03Z</time>
      </trkpt>
      <trkpt lat="45.38261" lon="5.90744">
        <ele>1806.242364267</ele>
        <time>2016-06-23T02:13:18Z</time>
      </trkpt>
      <trkpt lat="45.38246" lon="5.90745">
        <ele>1811.432657813</ele>
        <time>2016-06-23T02:13:38Z</time>
      </trkpt>
      <trkpt lat="45.38238" lon="5.90752">
        <ele>1816.617125654</ele>
        <time>2016-06-23T02:13:53Z</time>
      </trkpt>
      <trkpt lat="45.3823" lon="5.90761">
        <ele>1822.068405806</ele>
        <time>2016-06-23T02:14:08Z</time>
      </trkpt>
      <trkpt lat="45.38217" lon="5.9076">
        <ele>1826.885803936</ele>
        <time>2016-06-23T02:14:28Z</time>
      </trkpt>
      <trkpt lat="45.38208" lon="5.90766">
        <ele>1831.101589124</ele>
        <time>2016-06-23T02:14:43Z</time>
      </trkpt>
      <trkpt lat="45.3819" lon="5.90762">
        <ele>1835.756496525</ele>
        <time>2016-06-23T02:15:28Z</time>
      </trkpt>
      <trkpt lat="45.38199" lon="5.90761">
        <ele>1839.7964039</ele>
        <time>2016-06-23T02:16:28Z</time>
      </trkpt>
      <trkpt lat="45.38212" lon="5.90759">
        <ele>1843.111405687</ele>
        <time>2016-06-23T02:16:43Z</time>
      </trkpt>
      <trkpt lat="45.38221" lon="5.90765">
        <ele>1846.322651121</ele>
        <time>2016-06-23T02:17:03Z</time>
      </trkpt>
      <trkpt lat="45.38233" lon="5.90766">
        <ele>1848.709340041</ele>
        <time>2016-06-23T02:17:18Z</time>
      </trkpt>
      <trkpt lat="45.38236" lon="5.90762">
        <ele>1849.894537416</ele>
        <time>2016-06-23T02:18:27Z</time>
      </trkpt>
      <trkpt lat="45.38237" lon="5.9075">
        <ele>1850.397399983</ele>
        <time>2016-06-23T02:19:42Z</time>
      </trkpt>
      <trkpt lat="45.3824" lon="5.90731">
        <ele>1850.41298288</ele>
        <time>2016-06-23T02:20:12Z</time>
      </trkpt>
      <trkpt lat="45.38239" lon="5.90716">
        <ele>1849.979584899</ele>
        <time>2016-06-23T02:20:32Z</time>
      </trkpt>
      <trkpt lat="45.38239" lon="5.90702">
        <ele>1847.837233444</ele>
        <time>2016-06-23T02:21:02Z</time>
      </trkpt>
      <trkpt lat="45.3824" lon="5.90689">
        <ele>1845.849887716</ele>
        <time>2016-06-23T02:21:12Z</time>
      </trkpt>
      <trkpt lat="45.3824" lon="5.9067">
        <ele>1843.006239956</ele>
        <time>2016-06-23T02:21:28Z</time>
      </trkpt>
      <trkpt lat="45.38237" lon="5.90652">
        <ele>1839.380613544</ele>
        <time>2016-06-23T02:21:43Z</time>
      </trkpt>
      <trkpt lat="45.38236" lon="5.90627">
        <ele>1834.900067302</ele>
        <time>2016-06-23T02:22:02Z</time>
      </trkpt>
      <trkpt lat="45.38236" lon="5.90608">
        <ele>1829.787701495</ele>
        <time>2016-06-23T02:22:17Z</time>
      </trkpt>
      <trkpt lat="45.38239" lon="5.90586">
        <ele>1824.540232933</ele>
        <time>2016-06-23T02:22:32Z</time>
      </trkpt>
      <trkpt lat="45.38252" lon="5.90581">
        <ele>1820.627007649</ele>
        <time>2016-06-23T02:23:17Z</time>
      </trkpt>
      <trkpt lat="45.38253" lon="5.90598">
        <ele>1816.235158535</ele>
        <time>2016-06-23T02:23:37Z</time>
      </trkpt>
      <trkpt lat="45.38263" lon="5.90605">
        <ele>1811.559647824</ele>
        <time>2016-06-23T02:23:52Z</time>
      </trkpt>
      <trkpt lat="45.38272" lon="5.90609">
        <ele>1807.214076503</ele>
        <time>2016-06-23T02:24:07Z</time>
      </trkpt>
      <trkpt lat="45.3828" lon="5.90614">
        <ele>1802.757064263</ele>
        <time>2016-06-23T02:24:37Z</time>
      </trkpt>
      <trkpt lat="45.38292" lon="5.90617">
        <ele>1798.212065949</ele>
        <time>2016-06-23T02:24:52Z</time>
      </trkpt>
      <trkpt lat="45.38301" lon="5.90623">
        <ele>1793.889019799</ele>
        <time>2016-06-23T02:25:12Z</time>
      </trkpt>
      <trkpt lat="45.3831" lon="5.90624">
        <ele>1789.785963796</ele>
        <time>2016-06-23T02:25:27Z</time>
      </trkpt>
      <trkpt lat="45.38321" lon="5.90629">
        <ele>1786.476600132</ele>
        <time>2016-06-23T02:25:42Z</time>
      </trkpt>
      <trkpt lat="45.38331" lon="5.90635">
        <ele>1783.337048389</ele>
        <time>2016-06-23T02:25:57Z</time>
      </trkpt>
      <trkpt lat="45.3834" lon="5.90639">
        <ele>1779.78844734</ele>
        <time>2016-06-23T02:27:17Z</time>
      </trkpt>
      <trkpt lat="45.38356" lon="5.90647">
        <ele>1777.168710673</ele>
        <time>2016-06-23T02:27:32Z</time>
      </trkpt>
      <trkpt lat="45.38369" lon="5.90655">
        <ele>1774.84107586</ele>
        <time>2016-06-23T02:27:47Z</time>
      </trkpt>
      <trkpt lat="45.38391" lon="5.90655">
        <ele>1773.655508371</ele>
        <time>2016-06-23T02:28:07Z</time>
      </trkpt>
      <trkpt lat="45.38408" lon="5.90662">
        <ele>1771.08143899</ele>
        <time>2016-06-23T02:28:22Z</time>
      </trkpt>
      <trkpt lat="45.38422" lon="5.90666">
        <ele>1768.236426642</ele>
        <time>2016-06-23T02:28:37Z</time>
      </trkpt>
      <trkpt lat="45.38436" lon="5.90669">
        <ele>1765.435817055</ele>
        <time>2016-06-23T02:28:52Z</time>
      </trkpt>
      <trkpt lat="45.38451" lon="5.90675">
        <ele>1763.547795965</ele>
        <time>2016-06-23T02:29:07Z</time>
      </trkpt>
      <trkpt lat="45.38467" lon="5.9068">
        <ele>1760.924013057</ele>
        <time>2016-06-23T02:29:22Z</time>
      </trkpt>
      <trkpt lat="45.38478" lon="5.90681">
        <ele>1757.912410046</ele>
        <time>2016-06-23T02:29:37Z</time>
      </trkpt>
      <trkpt lat="45.38502" lon="5.90679">
        <ele>1755.989050274</ele>
        <time>2016-06-23T02:29:57Z</time>
      </trkpt>
      <trkpt lat="45.38521" lon="5.90674">
        <ele>1754.788893362</ele>
        <time>2016-06-23T02:30:12Z</time>
      </trkpt>
      <trkpt lat="45.38534" lon="5.90686">
        <ele>1753.250854704</ele>
        <time>2016-06-23T02:30:27Z</time>
      </trkpt>
      <trkpt lat="45.38549" lon="5.9069">
        <ele>1751.257148728</ele>
        <time>2016-06-23T02:30:42Z</time>
      </trkpt>
      <trkpt lat="45.3856" lon="5.90689">
        <ele>1752.446568195</ele>
        <time>2016-06-23T02:30:57Z</time>
      </trkpt>
      <trkpt lat="45.38575" lon="5.90684">
        <ele>1750.958333251</ele>
        <time>2016-06-23T02:31:12Z</time>
      </trkpt>
      <trkpt lat="45.38591" lon="5.90679">
        <ele>1749.295613028</ele>
        <time>2016-06-23T02:31:32Z</time>
      </trkpt>
      <trkpt lat="45.38604" lon="5.90673">
        <ele>1748.192774473</ele>
        <time>2016-06-23T02:31:47Z</time>
      </trkpt>
      <trkpt lat="45.38617" lon="5.90674">
        <ele>1746.743274033</ele>
        <time>2016-06-23T02:32:02Z</time>
      </trkpt>
      <trkpt lat="45.38634" lon="5.90676">
        <ele>1744.684420124</ele>
        <time>2016-06-23T02:32:18Z</time>
      </trkpt>
      <trkpt lat="45.38646" lon="5.90679">
        <ele>1742.639045905</ele>
        <time>2016-06-23T02:32:33Z</time>
      </trkpt>
      <trkpt lat="45.38659" lon="5.90687">
        <ele>1741.039943514</ele>
        <time>2016-06-23T02:32:47Z</time>
      </trkpt>
      <trkpt lat="45.38685" lon="5.90689">
        <ele>1740.863176945</ele>
        <time>2016-06-23T02:33:07Z</time>
      </trkpt>
      <trkpt lat="45.38689" lon="5.90678">
        <ele>1740.847336024</ele>
        <time>2016-06-23T02:33:22Z</time>
      </trkpt>
      <trkpt lat="45.38697" lon="5.90669">
        <ele>1739.102563376</ele>
        <time>2016-06-23T02:33:47Z</time>
      </trkpt>
      <trkpt lat="45.38705" lon="5.90663">
        <ele>1737.341259098</ele>
        <time>2016-06-23T02:34:07Z</time>
      </trkpt>
      <trkpt lat="45.3872" lon="5.9066">
        <ele>1735.420666743</ele>
        <time>2016-06-23T02:34:22Z</time>
      </trkpt>
      <trkpt lat="45.38734" lon="5.90656">
        <ele>1732.920670516</ele>
        <time>2016-06-23T02:34:37Z</time>
      </trkpt>
      <trkpt lat="45.38744" lon="5.90652">
        <ele>1730.318240237</ele>
        <time>2016-06-23T02:34:52Z</time>
      </trkpt>
      <trkpt lat="45.38758" lon="5.90645">
        <ele>1727.623194021</ele>
        <time>2016-06-23T02:35:07Z</time>
      </trkpt>
      <trkpt lat="45.38763" lon="5.90634">
        <ele>1725.133042685</ele>
        <time>2016-06-23T02:35:27Z</time>
      </trkpt>
      <trkpt lat="45.38772" lon="5.90607">
        <ele>1721.105238824</ele>
        <time>2016-06-23T02:36:12Z</time>
      </trkpt>
      <trkpt lat="45.38771" lon="5.90593">
        <ele>1717.244034742</ele>
        <time>2016-06-23T02:36:27Z</time>
      </trkpt>
      <trkpt lat="45.3878" lon="5.90598">
        <ele>1712.966269482</ele>
        <time>2016-06-23T02:36:42Z</time>
      </trkpt>
      <trkpt lat="45.38796" lon="5.906">
        <ele>1709.317918241</ele>
        <time>2016-06-23T02:36:57Z</time>
      </trkpt>
      <trkpt lat="45.38809" lon="5.90606">
        <ele>1705.392804549</ele>
        <time>2016-06-23T02:37:43Z</time>
      </trkpt>
      <trkpt lat="45.38835" lon="5.90622">
        <ele>1700.928426403</ele>
        <time>2016-06-23T02:38:07Z</time>
      </trkpt>
      <trkpt lat="45.38852" lon="5.90613">
        <ele>1696.259399137</ele>
        <time>2016-06-23T02:38:27Z</time>
      </trkpt>
      <trkpt lat="45.38869" lon="5.90601">
        <ele>1692.704978722</ele>
        <time>2016-06-23T02:38:42Z</time>
      </trkpt>
      <trkpt lat="45.38884" lon="5.90586">
        <ele>1688.890243114</ele>
        <time>2016-06-23T02:38:57Z</time>
      </trkpt>
      <trkpt lat="45.38894" lon="5.90579">
        <ele>1685.847637371</ele>
        <time>2016-06-23T02:39:12Z</time>
      </trkpt>
      <trkpt lat="45.38905" lon="5.90573">
        <ele>1682.946231195</ele>
        <time>2016-06-23T02:39:22Z</time>
      </trkpt>
      <trkpt lat="45.3892" lon="5.90567">
        <ele>1680.177349572</ele>
        <time>2016-06-23T02:39:37Z</time>
      </trkpt>
      <trkpt lat="45.38934" lon="5.90562">
        <ele>1677.820669493</ele>
        <time>2016-06-23T02:39:52Z</time>
      </trkpt>
      <trkpt lat="45.3895" lon="5.90555">
        <ele>1675.701705173</ele>
        <time>2016-06-23T02:40:07Z</time>
      </trkpt>
      <trkpt lat="45.38966" lon="5.90545">
        <ele>1673.802114337</ele>
        <time>2016-06-23T02:40:22Z</time>
      </trkpt>
      <trkpt lat="45.38982" lon="5.90531">
        <ele>1671.52773399</ele>
        <time>2016-06-23T02:40:37Z</time>
      </trkpt>
      <trkpt lat="45.39004" lon="5.90514">
        <ele>1669.193669112</ele>
        <time>2016-06-23T02:40:57Z</time>
      </trkpt>
      <trkpt lat="45.39022" lon="5.90498">
        <ele>1667.091957968</ele>
        <time>2016-06-23T02:41:12Z</time>
      </trkpt>
      <trkpt lat="45.39035" lon="5.90482">
        <ele>1665.204235115</ele>
        <time>2016-06-23T02:41:27Z</time>
      </trkpt>
      <trkpt lat="45.39049" lon="5.90468">
        <ele>1663.368705984</ele>
        <time>2016-06-23T02:41:42Z</time>
      </trkpt>
      <trkpt lat="45.39062" lon="5.90459">
        <ele>1661.002923888</ele>
        <time>2016-06-23T02:41:57Z</time>
      </trkpt>
      <trkpt lat="45.39073" lon="5.90455">
        <ele>1659.298002307</ele>
        <time>2016-06-23T02:42:12Z</time>
      </trkpt>
      <trkpt lat="45.39081" lon="5.90445">
        <ele>1657.19399616</ele>
        <time>2016-06-23T02:42:27Z</time>
      </trkpt>
      <trkpt lat="45.39086" lon="5.90431">
        <ele>1654.718689872</ele>
        <time>2016-06-23T02:42:42Z</time>
      </trkpt>
      <trkpt lat="45.39096" lon="5.90406">
        <ele>1651.178285916</ele>
        <time>2016-06-23T02:43:07Z</time>
      </trkpt>
      <trkpt lat="45.39104" lon="5.90389">
        <ele>1648.959252845</ele>
        <time>2016-06-23T02:43:22Z</time>
      </trkpt>
      <trkpt lat="45.3911" lon="5.90373">
        <ele>1646.810356065</ele>
        <time>2016-06-23T02:43:37Z</time>
      </trkpt>
      <trkpt lat="45.39116" lon="5.90355">
        <ele>1644.004394418</ele>
        <time>2016-06-23T02:43:52Z</time>
      </trkpt>
      <trkpt lat="45.3912" lon="5.90339">
        <ele>1641.022302389</ele>
        <time>2016-06-23T02:44:07Z</time>
      </trkpt>
      <trkpt lat="45.39126" lon="5.90334">
        <ele>1638.454276393</ele>
        <time>2016-06-23T02:44:42Z</time>
      </trkpt>
      <trkpt lat="45.3913" lon="5.90321">
        <ele>1635.981316161</ele>
        <time>2016-06-23T02:44:57Z</time>
      </trkpt>
      <trkpt lat="45.39138" lon="5.90309">
        <ele>1632.875242283</ele>
        <time>2016-06-23T02:45:12Z</time>
      </trkpt>
      <trkpt lat="45.39135" lon="5.90297">
        <ele>1630.048353899</ele>
        <time>2016-06-23T02:45:37Z</time>
      </trkpt>
      <trkpt lat="45.39119" lon="5.90274">
        <ele>1627.336360413</ele>
        <time>2016-06-23T02:45:57Z</time>
      </trkpt>
      <trkpt lat="45.39106" lon="5.90259">
        <ele>1624.442594858</ele>
        <time>2016-06-23T02:46:12Z</time>
      </trkpt>
      <trkpt lat="45.391" lon="5.90252">
        <ele>1621.66912604</ele>
        <time>2016-06-23T02:46:32Z</time>
      </trkpt>
      <trkpt lat="45.39094" lon="5.90242">
        <ele>1618.430816124</ele>
        <time>2016-06-23T02:46:42Z</time>
      </trkpt>
      <trkpt lat="45.39089" lon="5.90227">
        <ele>1615.339691303</ele>
        <time>2016-06-23T02:46:57Z</time>
      </trkpt>
      <trkpt lat="45.39084" lon="5.90213">
        <ele>1611.665389589</ele>
        <time>2016-06-23T02:47:17Z</time>
      </trkpt>
      <trkpt lat="45.39079" lon="5.90201">
        <ele>1607.741595466</ele>
        <time>2016-06-23T02:47:32Z</time>
      </trkpt>
      <trkpt lat="45.39075" lon="5.90186">
        <ele>1603.734044644</ele>
        <time>2016-06-23T02:47:47Z</time>
      </trkpt>
      <trkpt lat="45.39067" lon="5.90166">
        <ele>1598.931832651</ele>
        <time>2016-06-23T02:48:07Z</time>
      </trkpt>
      <trkpt lat="45.39068" lon="5.90149">
        <ele>1594.407798198</ele>
        <time>2016-06-23T02:48:22Z</time>
      </trkpt>
      <trkpt lat="45.3907" lon="5.90133">
        <ele>1589.569913143</ele>
        <time>2016-06-23T02:48:42Z</time>
      </trkpt>
      <trkpt lat="45.3907" lon="5.9012">
        <ele>1584.735121856</ele>
        <time>2016-06-23T02:48:52Z</time>
      </trkpt>
      <trkpt lat="45.3907" lon="5.90106">
        <ele>1579.76466727</ele>
        <time>2016-06-23T02:49:07Z</time>
      </trkpt>
      <trkpt lat="45.39071" lon="5.90086">
        <ele>1574.530277691</ele>
        <time>2016-06-23T02:49:27Z</time>
      </trkpt>
      <trkpt lat="45.39076" lon="5.9007">
        <ele>1568.913744314</ele>
        <time>2016-06-23T02:49:42Z</time>
      </trkpt>
      <trkpt lat="45.39081" lon="5.90056">
        <ele>1563.815280512</ele>
        <time>2016-06-23T02:49:57Z</time>
      </trkpt>
      <trkpt lat="45.39089" lon="5.90044">
        <ele>1558.914505751</ele>
        <time>2016-06-23T02:50:12Z</time>
      </trkpt>
      <trkpt lat="45.39098" lon="5.90025">
        <ele>1553.481554216</ele>
        <time>2016-06-23T02:50:32Z</time>
      </trkpt>
      <trkpt lat="45.39093" lon="5.90017">
        <ele>1547.994416885</ele>
        <time>2016-06-23T02:50:57Z</time>
      </trkpt>
      <trkpt lat="45.39084" lon="5.90025">
        <ele>1543.040087174</ele>
        <time>2016-06-23T02:51:12Z</time>
      </trkpt>
      <trkpt lat="45.39068" lon="5.9002">
        <ele>1538.152011705</ele>
        <time>2016-06-23T02:51:32Z</time>
      </trkpt>
      <trkpt lat="45.39057" lon="5.90019">
        <ele>1533.185787754</ele>
        <time>2016-06-23T02:51:47Z</time>
      </trkpt>
      <trkpt lat="45.39048" lon="5.90018">
        <ele>1528.151789112</ele>
        <time>2016-06-23T02:53:37Z</time>
      </trkpt>
      <trkpt lat="45.39052" lon="5.90021">
        <ele>1524.64487978</ele>
        <time>2016-06-23T02:55:07Z</time>
      </trkpt>
      <trkpt lat="45.39053" lon="5.90014">
        <ele>1520.679655746</ele>
        <time>2016-06-23T02:58:42Z</time>
      </trkpt>
      <trkpt lat="45.39049" lon="5.90011">
        <ele>1521.767370249</ele>
        <time>2016-06-23T03:00:47Z</time>
      </trkpt>
      <trkpt lat="45.39063" lon="5.89999">
        <ele>1518.444890009</ele>
        <time>2016-06-23T03:01:17Z</time>
      </trkpt>
      <trkpt lat="45.39068" lon="5.89988">
        <ele>1515.358837654</ele>
        <time>2016-06-23T03:01:32Z</time>
      </trkpt>
      <trkpt lat="45.3907" lon="5.89973">
        <ele>1511.913962589</ele>
        <time>2016-06-23T03:01:52Z</time>
      </trkpt>
      <trkpt lat="45.39065" lon="5.89963">
        <ele>1510.009563409</ele>
        <time>2016-06-23T03:02:22Z</time>
      </trkpt>
      <trkpt lat="45.39053" lon="5.89962">
        <ele>1506.933586462</ele>
        <time>2016-06-23T03:02:53Z</time>
      </trkpt>
      <trkpt lat="45.39053" lon="5.8995">
        <ele>1503.77921771</ele>
        <time>2016-06-23T03:03:58Z</time>
      </trkpt>
      <trkpt lat="45.39048" lon="5.89935">
        <ele>1501.991852636</ele>
        <time>2016-06-23T03:04:23Z</time>
      </trkpt>
      <trkpt lat="45.39041" lon="5.89919">
        <ele>1498.727621995</ele>
        <time>2016-06-23T03:04:53Z</time>
      </trkpt>
      <trkpt lat="45.39046" lon="5.89909">
        <ele>1494.814356544</ele>
        <time>2016-06-23T03:05:08Z</time>
      </trkpt>
      <trkpt lat="45.39044" lon="5.89895">
        <ele>1490.732659476</ele>
        <time>2016-06-23T03:05:27Z</time>
      </trkpt>
      <trkpt lat="45.39048" lon="5.89884">
        <ele>1486.784179665</ele>
        <time>2016-06-23T03:05:42Z</time>
      </trkpt>
      <trkpt lat="45.39057" lon="5.8987">
        <ele>1482.815688447</ele>
        <time>2016-06-23T03:05:57Z</time>
      </trkpt>
      <trkpt lat="45.39059" lon="5.89854">
        <ele>1480.414593304</ele>
        <time>2016-06-23T03:06:12Z</time>
      </trkpt>
      <trkpt lat="45.39054" lon="5.89839">
        <ele>1476.579839273</ele>
        <time>2016-06-23T03:06:27Z</time>
      </trkpt>
      <trkpt lat="45.39063" lon="5.89832">
        <ele>1473.434622803</ele>
        <time>2016-06-23T03:07:02Z</time>
      </trkpt>
      <trkpt lat="45.39074" lon="5.89835">
        <ele>1471.503126109</ele>
        <time>2016-06-23T03:07:17Z</time>
      </trkpt>
      <trkpt lat="45.39087" lon="5.89831">
        <ele>1469.538295148</ele>
        <time>2016-06-23T03:07:27Z</time>
      </trkpt>
      <trkpt lat="45.39099" lon="5.89825">
        <ele>1468.114130261</ele>
        <time>2016-06-23T03:07:42Z</time>
      </trkpt>
      <trkpt lat="45.39102" lon="5.89807">
        <ele>1466.46398094</ele>
        <time>2016-06-23T03:07:57Z</time>
      </trkpt>
      <trkpt lat="45.39098" lon="5.89788">
        <ele>1464.454638866</ele>
        <time>2016-06-23T03:08:18Z</time>
      </trkpt>
      <trkpt lat="45.39088" lon="5.89775">
        <ele>1461.675523627</ele>
        <time>2016-06-23T03:08:33Z</time>
      </trkpt>
      <trkpt lat="45.39082" lon="5.89757">
        <ele>1459.477776252</ele>
        <time>2016-06-23T03:09:03Z</time>
      </trkpt>
      <trkpt lat="45.39066" lon="5.89727">
        <ele>1457.094170215</ele>
        <time>2016-06-23T03:09:53Z</time>
      </trkpt>
      <trkpt lat="45.39062" lon="5.89711">
        <ele>1454.246771697</ele>
        <time>2016-06-23T03:10:08Z</time>
      </trkpt>
      <trkpt lat="45.39054" lon="5.89693">
        <ele>1451.832335351</ele>
        <time>2016-06-23T03:10:17Z</time>
      </trkpt>
      <trkpt lat="45.39054" lon="5.8968">
        <ele>1448.951275523</ele>
        <time>2016-06-23T03:10:58Z</time>
      </trkpt>
      <trkpt lat="45.39049" lon="5.8966">
        <ele>1445.203814758</ele>
        <time>2016-06-23T03:11:27Z</time>
      </trkpt>
      <trkpt lat="45.39051" lon="5.89644">
        <ele>1441.807276833</ele>
        <time>2016-06-23T03:11:42Z</time>
      </trkpt>
      <trkpt lat="45.39056" lon="5.89615">
        <ele>1438.735764997</ele>
        <time>2016-06-23T03:11:57Z</time>
      </trkpt>
      <trkpt lat="45.3905" lon="5.89606">
        <ele>1435.964446198</ele>
        <time>2016-06-23T03:12:02Z</time>
      </trkpt>
      <trkpt lat="45.39044" lon="5.89593">
        <ele>1433.037205516</ele>
        <time>2016-06-23T03:12:22Z</time>
      </trkpt>
      <trkpt lat="45.39042" lon="5.89573">
        <ele>1428.523157988</ele>
        <time>2016-06-23T03:12:37Z</time>
      </trkpt>
      <trkpt lat="45.39038" lon="5.89557">
        <ele>1427.730160998</ele>
        <time>2016-06-23T03:12:52Z</time>
      </trkpt>
      <trkpt lat="45.39033" lon="5.89546">
        <ele>1423.316333066</ele>
        <time>2016-06-23T03:13:42Z</time>
      </trkpt>
      <trkpt lat="45.39037" lon="5.8957">
        <ele>1418.144783698</ele>
        <time>2016-06-23T03:15:22Z</time>
      </trkpt>
      <trkpt lat="45.39036" lon="5.89578">
        <ele>1413.861695195</ele>
        <time>2016-06-23T03:15:37Z</time>
      </trkpt>
      <trkpt lat="45.39042" lon="5.89591">
        <ele>1410.836980935</ele>
        <time>2016-06-23T03:15:52Z</time>
      </trkpt>
      <trkpt lat="45.39046" lon="5.89602">
        <ele>1409.121661132</ele>
        <time>2016-06-23T03:16:27Z</time>
      </trkpt>
      <trkpt lat="45.39046" lon="5.89616">
        <ele>1402.418465821</ele>
        <time>2016-06-23T03:17:02Z</time>
      </trkpt>
      <trkpt lat="45.39049" lon="5.89631">
        <ele>1399.89429199</ele>
        <time>2016-06-23T03:17:12Z</time>
      </trkpt>
      <trkpt lat="45.39056" lon="5.89657">
        <ele>1400.663714648</ele>
        <time>2016-06-23T03:17:52Z</time>
      </trkpt>
      <trkpt lat="45.39058" lon="5.89648">
        <ele>1403.897145732</ele>
        <time>2016-06-23T03:18:52Z</time>
      </trkpt>
      <trkpt lat="45.39064" lon="5.8963">
        <ele>1408.098527645</ele>
        <time>2016-06-23T03:18:57Z</time>
      </trkpt>
      <trkpt lat="45.39071" lon="5.89614">
        <ele>1412.455529858</ele>
        <time>2016-06-23T03:19:32Z</time>
      </trkpt>
      <trkpt lat="45.39079" lon="5.896">
        <ele>1416.215204793</ele>
        <time>2016-06-23T03:19:43Z</time>
      </trkpt>
      <trkpt lat="45.39096" lon="5.89594">
        <ele>1418.825895594</ele>
        <time>2016-06-23T03:19:58Z</time>
      </trkpt>
      <trkpt lat="45.39105" lon="5.896">
        <ele>1420.932815606</ele>
        <time>2016-06-23T03:20:18Z</time>
      </trkpt>
      <trkpt lat="45.39126" lon="5.89593">
        <ele>1422.703126206</ele>
        <time>2016-06-23T03:21:07Z</time>
      </trkpt>
      <trkpt lat="45.39132" lon="5.89582">
        <ele>1423.28416276</ele>
        <time>2016-06-23T03:21:22Z</time>
      </trkpt>
      <trkpt lat="45.39141" lon="5.89583">
        <ele>1423.474757481</ele>
        <time>2016-06-23T03:22:12Z</time>
      </trkpt>
      <trkpt lat="45.39154" lon="5.89582">
        <ele>1423.728243168</ele>
        <time>2016-06-23T03:23:02Z</time>
      </trkpt>
      <trkpt lat="45.39163" lon="5.89574">
        <ele>1423.167784861</ele>
        <time>2016-06-23T03:23:17Z</time>
      </trkpt>
      <trkpt lat="45.39171" lon="5.89577">
        <ele>1421.848216094</ele>
        <time>2016-06-23T03:23:37Z</time>
      </trkpt>
      <trkpt lat="45.39167" lon="5.89567">
        <ele>1421.848216094</ele>
        <time>2016-06-23T03:24:42Z</time>
      </trkpt>
      <trkpt lat="45.39187" lon="5.89563">
        <ele>1417.542393719</ele>
        <time>2016-06-23T03:25:37Z</time>
      </trkpt>
      <trkpt lat="45.39193" lon="5.8956">
        <ele>1414.803036464</ele>
        <time>2016-06-23T03:26:08Z</time>
      </trkpt>
      <trkpt lat="45.39196" lon="5.89549">
        <ele>1411.464786811</ele>
        <time>2016-06-23T03:26:23Z</time>
      </trkpt>
      <trkpt lat="45.39207" lon="5.8955">
        <ele>1407.143442843</ele>
        <time>2016-06-23T03:26:42Z</time>
      </trkpt>
      <trkpt lat="45.39217" lon="5.89559">
        <ele>1402.782969051</ele>
        <time>2016-06-23T03:26:58Z</time>
      </trkpt>
      <trkpt lat="45.39221" lon="5.89553">
        <ele>1400.699365508</ele>
        <time>2016-06-23T03:27:28Z</time>
      </trkpt>
      <trkpt lat="45.39226" lon="5.89563">
        <ele>1395.10612421</ele>
        <time>2016-06-23T03:27:43Z</time>
      </trkpt>
      <trkpt lat="45.39223" lon="5.89557">
        <ele>1388.577862877</ele>
        <time>2016-06-23T03:28:52Z</time>
      </trkpt>
      <trkpt lat="45.39219" lon="5.8956">
        <ele>1382.205750004</ele>
        <time>2016-06-23T03:29:07Z</time>
      </trkpt>
      <trkpt lat="45.39218" lon="5.89564">
        <ele>1374.982822279</ele>
        <time>2016-06-23T03:31:02Z</time>
      </trkpt>
      <trkpt lat="45.39232" lon="5.89566">
        <ele>1368.428340727</ele>
        <time>2016-06-23T03:32:53Z</time>
      </trkpt>
      <trkpt lat="45.39241" lon="5.89583">
        <ele>1363.083358167</ele>
        <time>2016-06-23T03:33:07Z</time>
      </trkpt>
      <trkpt lat="45.39248" lon="5.89577">
        <ele>1357.572247418</ele>
        <time>2016-06-23T03:33:58Z</time>
      </trkpt>
      <trkpt lat="45.39254" lon="5.89586">
        <ele>1351.917774879</ele>
        <time>2016-06-23T03:34:33Z</time>
      </trkpt>
      <trkpt lat="45.39266" lon="5.89584">
        <ele>1346.429509714</ele>
        <time>2016-06-23T03:44:59Z</time>
      </trkpt>
      <trkpt lat="45.39273" lon="5.89594">
        <ele>1339.808419795</ele>
        <time>2016-06-23T03:45:13Z</time>
      </trkpt>
      <trkpt lat="45.39263" lon="5.89584">
        <ele>1329.98921147</ele>
        <time>2016-06-23T03:45:33Z</time>
      </trkpt>
      <trkpt lat="45.39258" lon="5.89559">
        <ele>1318.958047875</ele>
        <time>2016-06-23T03:45:57Z</time>
      </trkpt>
      <trkpt lat="45.39254" lon="5.89536">
        <ele>1308.414207631</ele>
        <time>2016-06-23T03:46:18Z</time>
      </trkpt>
      <trkpt lat="45.39243" lon="5.89519">
        <ele>1297.912901975</ele>
        <time>2016-06-23T03:46:33Z</time>
      </trkpt>
      <trkpt lat="45.39232" lon="5.89511">
        <ele>1286.897422321</ele>
        <time>2016-06-23T03:46:47Z</time>
      </trkpt>
      <trkpt lat="45.39222" lon="5.89513">
        <ele>1277.591105982</ele>
        <time>2016-06-23T03:47:17Z</time>
      </trkpt>
      <trkpt lat="45.39221" lon="5.89524">
        <ele>1269.022398573</ele>
        <time>2016-06-23T03:47:37Z</time>
      </trkpt>
      <trkpt lat="45.39216" lon="5.89508">
        <ele>1267.167943669</ele>
        <time>2016-06-23T03:47:47Z</time>
      </trkpt>
      <trkpt lat="45.39211" lon="5.89491">
        <ele>1263.459033861</ele>
        <time>2016-06-23T03:48:02Z</time>
      </trkpt>
      <trkpt lat="45.3922" lon="5.89472">
        <ele>1259.678707065</ele>
        <time>2016-06-23T03:48:07Z</time>
      </trkpt>
      <trkpt lat="45.39196" lon="5.89476">
        <ele>1257.264002912</ele>
        <time>2016-06-23T03:48:22Z</time>
      </trkpt>
      <trkpt lat="45.39178" lon="5.89482">
        <ele>1255.103352041</ele>
        <time>2016-06-23T03:48:37Z</time>
      </trkpt>
      <trkpt lat="45.39165" lon="5.89478">
        <ele>1253.318621341</ele>
        <time>2016-06-23T03:48:52Z</time>
      </trkpt>
      <trkpt lat="45.3915" lon="5.89465">
        <ele>1251.733092712</ele>
        <time>2016-06-23T03:49:07Z</time>
      </trkpt>
      <trkpt lat="45.39146" lon="5.89459">
        <ele>1250.758602001</ele>
        <time>2016-06-23T03:49:22Z</time>
      </trkpt>
      <trkpt lat="45.39157" lon="5.89464">
        <ele>1248.757188429</ele>
        <time>2016-06-23T03:49:37Z</time>
      </trkpt>
      <trkpt lat="45.39157" lon="5.89453">
        <ele>1248.681311336</ele>
        <time>2016-06-23T03:49:52Z</time>
      </trkpt>
      <trkpt lat="45.3915" lon="5.89438">
        <ele>1248.505285132</ele>
        <time>2016-06-23T03:50:42Z</time>
      </trkpt>
      <trkpt lat="45.3914" lon="5.89432">
        <ele>1248.51403154</ele>
        <time>2016-06-23T03:51:00Z</time>
      </trkpt>
      <trkpt lat="45.39131" lon="5.89417">
        <ele>1249.979699389</ele>
        <time>2016-06-23T03:51:32Z</time>
      </trkpt>
      <trkpt lat="45.39117" lon="5.89408">
        <ele>1251.915175847</ele>
        <time>2016-06-23T03:51:47Z</time>
      </trkpt>
      <trkpt lat="45.3911" lon="5.89411">
        <ele>1251.819307962</ele>
        <time>2016-06-23T03:52:22Z</time>
      </trkpt>
      <trkpt lat="45.39107" lon="5.89395">
        <ele>1253.000741982</ele>
        <time>2016-06-23T03:52:42Z</time>
      </trkpt>
      <trkpt lat="45.39101" lon="5.89375">
        <ele>1254.630561996</ele>
        <time>2016-06-23T03:52:52Z</time>
      </trkpt>
      <trkpt lat="45.39102" lon="5.89389">
        <ele>1254.210260316</ele>
        <time>2016-06-23T03:53:08Z</time>
      </trkpt>
      <trkpt lat="45.39099" lon="5.89375">
        <ele>1254.04231515</ele>
        <time>2016-06-23T03:53:28Z</time>
      </trkpt>
      <trkpt lat="45.39086" lon="5.89365">
        <ele>1253.665521295</ele>
        <time>2016-06-23T03:53:44Z</time>
      </trkpt>
      <trkpt lat="45.39074" lon="5.89358">
        <ele>1253.229768111</ele>
        <time>2016-06-23T03:53:58Z</time>
      </trkpt>
      <trkpt lat="45.39059" lon="5.89353">
        <ele>1252.15374186</ele>
        <time>2016-06-23T03:54:13Z</time>
      </trkpt>
      <trkpt lat="45.39048" lon="5.89347">
        <ele>1250.18905807</ele>
        <time>2016-06-23T03:54:27Z</time>
      </trkpt>
      <trkpt lat="45.39037" lon="5.89348">
        <ele>1247.108282688</ele>
        <time>2016-06-23T03:54:37Z</time>
      </trkpt>
      <trkpt lat="45.3903" lon="5.89339">
        <ele>1243.856918021</ele>
        <time>2016-06-23T03:54:52Z</time>
      </trkpt>
      <trkpt lat="45.39038" lon="5.8934">
        <ele>1240.735245314</ele>
        <time>2016-06-23T03:55:22Z</time>
      </trkpt>
      <trkpt lat="45.39054" lon="5.89357">
        <ele>1237.15664539</ele>
        <time>2016-06-23T03:55:32Z</time>
      </trkpt>
      <trkpt lat="45.39067" lon="5.89367">
        <ele>1234.596606518</ele>
        <time>2016-06-23T03:55:48Z</time>
      </trkpt>
      <trkpt lat="45.39086" lon="5.89367">
        <ele>1233.122537665</ele>
        <time>2016-06-23T03:56:08Z</time>
      </trkpt>
      <trkpt lat="45.39096" lon="5.89377">
        <ele>1231.208786474</ele>
        <time>2016-06-23T03:56:23Z</time>
      </trkpt>
      <trkpt lat="45.39129" lon="5.894">
        <ele>1228.019605654</ele>
        <time>2016-06-23T03:57:23Z</time>
      </trkpt>
      <trkpt lat="45.39143" lon="5.89408">
        <ele>1223.649032358</ele>
        <time>2016-06-23T03:57:28Z</time>
      </trkpt>
      <trkpt lat="45.39145" lon="5.89423">
        <ele>1217.467086031</ele>
        <time>2016-06-23T03:57:42Z</time>
      </trkpt>
      <trkpt lat="45.39139" lon="5.89412">
        <ele>1211.201034547</ele>
        <time>2016-06-23T03:58:03Z</time>
      </trkpt>
      <trkpt lat="45.39132" lon="5.89399">
        <ele>1204.722245418</ele>
        <time>2016-06-23T03:58:13Z</time>
      </trkpt>
      <trkpt lat="45.39135" lon="5.8939">
        <ele>1198.920961039</ele>
        <time>2016-06-23T03:58:28Z</time>
      </trkpt>
      <trkpt lat="45.39134" lon="5.89385">
        <ele>1192.602588904</ele>
        <time>2016-06-23T03:58:47Z</time>
      </trkpt>
      <trkpt lat="45.3913" lon="5.89371">
        <ele>1186.967510303</ele>
        <time>2016-06-23T03:58:57Z</time>
      </trkpt>
      <trkpt lat="45.39123" lon="5.89354">
        <ele>1181.108419023</ele>
        <time>2016-06-23T03:59:23Z</time>
      </trkpt>
      <trkpt lat="45.39123" lon="5.89339">
        <ele>1174.761673774</ele>
        <time>2016-06-23T03:59:38Z</time>
      </trkpt>
      <trkpt lat="45.39116" lon="5.89321">
        <ele>1168.54895528</ele>
        <time>2016-06-23T03:59:53Z</time>
      </trkpt>
      <trkpt lat="45.3911" lon="5.89312">
        <ele>1163.045801242</ele>
        <time>2016-06-23T04:00:17Z</time>
      </trkpt>
      <trkpt lat="45.39104" lon="5.89303">
        <ele>1158.062809372</ele>
        <time>2016-06-23T04:00:32Z</time>
      </trkpt>
      <trkpt lat="45.39092" lon="5.89278">
        <ele>1153.134681495</ele>
        <time>2016-06-23T04:00:48Z</time>
      </trkpt>
      <trkpt lat="45.39082" lon="5.89255">
        <ele>1148.694677496</ele>
        <time>2016-06-23T04:01:03Z</time>
      </trkpt>
      <trkpt lat="45.39077" lon="5.89242">
        <ele>1145.142722852</ele>
        <time>2016-06-23T04:01:12Z</time>
      </trkpt>
      <trkpt lat="45.39069" lon="5.89234">
        <ele>1142.702627328</ele>
        <time>2016-06-23T04:01:18Z</time>
      </trkpt>
      <trkpt lat="45.39056" lon="5.89208">
        <ele>1142.010849778</ele>
        <time>2016-06-23T04:01:38Z</time>
      </trkpt>
      <trkpt lat="45.39059" lon="5.89221">
        <ele>1140.049302121</ele>
        <time>2016-06-23T04:01:43Z</time>
      </trkpt>
      <trkpt lat="45.39055" lon="5.89204">
        <ele>1138.204299586</ele>
        <time>2016-06-23T04:02:07Z</time>
      </trkpt>
      <trkpt lat="45.39051" lon="5.89191">
        <ele>1136.895257975</ele>
        <time>2016-06-23T04:02:12Z</time>
      </trkpt>
      <trkpt lat="45.39043" lon="5.89179">
        <ele>1136.221012032</ele>
        <time>2016-06-23T04:02:22Z</time>
      </trkpt>
      <trkpt lat="45.39039" lon="5.89177">
        <ele>1135.118441449</ele>
        <time>2016-06-23T04:02:42Z</time>
      </trkpt>
      <trkpt lat="45.39041" lon="5.89163">
        <ele>1134.765388933</ele>
        <time>2016-06-23T04:03:17Z</time>
      </trkpt>
      <trkpt lat="45.39032" lon="5.89157">
        <ele>1131.783640712</ele>
        <time>2016-06-23T04:04:12Z</time>
      </trkpt>
      <trkpt lat="45.39024" lon="5.89159">
        <ele>1130.400221861</ele>
        <time>2016-06-23T04:05:52Z</time>
      </trkpt>
      <trkpt lat="45.39016" lon="5.89163">
        <ele>1130.355447091</ele>
        <time>2016-06-23T04:06:57Z</time>
      </trkpt>
      <trkpt lat="45.3909" lon="5.89182">
        <ele>1134.976415646</ele>
        <time>2016-06-23T04:13:57Z</time>
      </trkpt>
      <trkpt lat="45.3907" lon="5.89155">
        <ele>1137.828897344</ele>
        <time>2016-06-23T04:15:42Z</time>
      </trkpt>
      <trkpt lat="45.39079" lon="5.89163">
        <ele>1140.395992414</ele>
        <time>2016-06-23T04:17:32Z</time>
      </trkpt>
      <trkpt lat="45.39069" lon="5.89167">
        <ele>1143.362615579</ele>
        <time>2016-06-23T04:17:47Z</time>
      </trkpt>
      <trkpt lat="45.39072" lon="5.89161">
        <ele>1146.970524447</ele>
        <time>2016-06-23T04:21:42Z</time>
      </trkpt>
      <trkpt lat="45.39076" lon="5.89153">
        <ele>1148.918126711</ele>
        <time>2016-06-23T04:22:17Z</time>
      </trkpt>
      <trkpt lat="45.39069" lon="5.89144">
        <ele>1154.143281902</ele>
        <time>2016-06-23T04:23:02Z</time>
      </trkpt>
      <trkpt lat="45.39075" lon="5.89139">
        <ele>1155.246207651</ele>
        <time>2016-06-23T04:23:32Z</time>
      </trkpt>
      <trkpt lat="45.3907" lon="5.89116">
        <ele>1156.917570939</ele>
        <time>2016-06-23T04:23:47Z</time>
      </trkpt>
      <trkpt lat="45.39077" lon="5.89103">
        <ele>1159.680141139</ele>
        <time>2016-06-23T04:24:02Z</time>
      </trkpt>
      <trkpt lat="45.3907" lon="5.89095">
        <ele>1162.286262475</ele>
        <time>2016-06-23T04:24:17Z</time>
      </trkpt>
      <trkpt lat="45.39078" lon="5.89134">
        <ele>1158.536851472</ele>
        <time>2016-06-23T04:24:32Z</time>
      </trkpt>
      <trkpt lat="45.39075" lon="5.89135">
        <ele>1154.95584929</ele>
        <time>2016-06-23T04:25:42Z</time>
      </trkpt>
      <trkpt lat="45.3909" lon="5.89153">
        <ele>1150.958711566</ele>
        <time>2016-06-23T04:25:52Z</time>
      </trkpt>
      <trkpt lat="45.39104" lon="5.89164">
        <ele>1144.27597591</ele>
        <time>2016-06-23T04:26:22Z</time>
      </trkpt>
      <trkpt lat="45.39104" lon="5.89151">
        <ele>1136.559576026</ele>
        <time>2016-06-23T04:26:37Z</time>
      </trkpt>
      <trkpt lat="45.39109" lon="5.89161">
        <ele>1128.622643255</ele>
        <time>2016-06-23T04:26:52Z</time>
      </trkpt>
      <trkpt lat="45.3912" lon="5.89162">
        <ele>1119.490003707</ele>
        <time>2016-06-23T04:27:27Z</time>
      </trkpt>
      <trkpt lat="45.3913" lon="5.89158">
        <ele>1111.720221077</ele>
        <time>2016-06-23T04:27:47Z</time>
      </trkpt>
      <trkpt lat="45.39145" lon="5.89151">
        <ele>1104.653770936</ele>
        <time>2016-06-23T04:28:17Z</time>
      </trkpt>
      <trkpt lat="45.39151" lon="5.89161">
        <ele>1096.81290204</ele>
        <time>2016-06-23T04:29:42Z</time>
      </trkpt>
      <trkpt lat="45.39166" lon="5.89161">
        <ele>1088.415727788</ele>
        <time>2016-06-23T04:30:57Z</time>
      </trkpt>
      <trkpt lat="45.39177" lon="5.89144">
        <ele>1080.242213999</ele>
        <time>2016-06-23T04:31:17Z</time>
      </trkpt>
      <trkpt lat="45.39186" lon="5.89147">
        <ele>1071.717229184</ele>
        <time>2016-06-23T04:31:27Z</time>
      </trkpt>
      <trkpt lat="45.39178" lon="5.89129">
        <ele>1062.308660034</ele>
        <time>2016-06-23T04:31:47Z</time>
      </trkpt>
      <trkpt lat="45.39175" lon="5.89114">
        <ele>1055.849042841</ele>
        <time>2016-06-23T04:32:12Z</time>
      </trkpt>
      <trkpt lat="45.39185" lon="5.89124">
        <ele>1050.116376153</ele>
        <time>2016-06-23T04:32:52Z</time>
      </trkpt>
      <trkpt lat="45.39192" lon="5.89116">
        <ele>1043.337762343</ele>
        <time>2016-06-23T04:33:17Z</time>
      </trkpt>
      <trkpt lat="45.39195" lon="5.89103">
        <ele>1037.043598281</ele>
        <time>2016-06-23T04:33:22Z</time>
      </trkpt>
      <trkpt lat="45.39216" lon="5.89085">
        <ele>1032.506061111</ele>
        <time>2016-06-23T04:34:02Z</time>
      </trkpt>
      <trkpt lat="45.39222" lon="5.89073">
        <ele>1028.881062118</ele>
        <time>2016-06-23T04:34:12Z</time>
      </trkpt>
      <trkpt lat="45.39233" lon="5.89074">
        <ele>1025.527746891</ele>
        <time>2016-06-23T04:34:27Z</time>
      </trkpt>
      <trkpt lat="45.39249" lon="5.89064">
        <ele>1022.715932504</ele>
        <time>2016-06-23T04:34:37Z</time>
      </trkpt>
      <trkpt lat="45.3926" lon="5.89053">
        <ele>1019.829137547</ele>
        <time>2016-06-23T04:35:02Z</time>
      </trkpt>
      <trkpt lat="45.39271" lon="5.89047">
        <ele>1017.304884918</ele>
        <time>2016-06-23T04:35:07Z</time>
      </trkpt>
      <trkpt lat="45.39279" lon="5.89047">
        <ele>1010.138530607</ele>
        <time>2016-06-23T04:36:02Z</time>
      </trkpt>
      <trkpt lat="45.39293" lon="5.89043">
        <ele>1006.036890137</ele>
        <time>2016-06-23T04:36:17Z</time>
      </trkpt>
      <trkpt lat="45.39301" lon="5.89046">
        <ele>1001.380961702</ele>
        <time>2016-06-23T04:36:37Z</time>
      </trkpt>
      <trkpt lat="45.39309" lon="5.89037">
        <ele>995.782684364</ele>
        <time>2016-06-23T04:36:52Z</time>
      </trkpt>
      <trkpt lat="45.39328" lon="5.89033">
        <ele>991.911293643</ele>
        <time>2016-06-23T04:37:02Z</time>
      </trkpt>
      <trkpt lat="45.39346" lon="5.89023">
        <ele>988.343916258</ele>
        <time>2016-06-23T04:37:17Z</time>
      </trkpt>
      <trkpt lat="45.39361" lon="5.89014">
        <ele>986.211066798</ele>
        <time>2016-06-23T04:37:37Z</time>
      </trkpt>
      <trkpt lat="45.3937" lon="5.89012">
        <ele>984.106140649</ele>
        <time>2016-06-23T04:37:52Z</time>
      </trkpt>
      <trkpt lat="45.3939" lon="5.89011">
        <ele>981.734422462</ele>
        <time>2016-06-23T04:38:07Z</time>
      </trkpt>
      <trkpt lat="45.39398" lon="5.89017">
        <ele>979.688144754</ele>
        <time>2016-06-23T04:38:52Z</time>
      </trkpt>
      <trkpt lat="45.39407" lon="5.89023">
        <ele>977.073914527</ele>
        <time>2016-06-23T04:39:07Z</time>
      </trkpt>
      <trkpt lat="45.39416" lon="5.89017">
        <ele>973.930149833</ele>
        <time>2016-06-23T04:39:27Z</time>
      </trkpt>
      <trkpt lat="45.3943" lon="5.89001">
        <ele>970.726203829</ele>
        <time>2016-06-23T04:39:37Z</time>
      </trkpt>
      <trkpt lat="45.39435" lon="5.88985">
        <ele>966.60006902</ele>
        <time>2016-06-23T04:40:07Z</time>
      </trkpt>
      <trkpt lat="45.39448" lon="5.88964">
        <ele>962.196715361</ele>
        <time>2016-06-23T04:40:22Z</time>
      </trkpt>
      <trkpt lat="45.39457" lon="5.88952">
        <ele>958.40269427</ele>
        <time>2016-06-23T04:40:29Z</time>
      </trkpt>
      <trkpt lat="45.39457" lon="5.88938">
        <ele>954.308350768</ele>
        <time>2016-06-23T04:40:37Z</time>
      </trkpt>
      <trkpt lat="45.39453" lon="5.88916">
        <ele>949.3598794</ele>
        <time>2016-06-23T04:40:52Z</time>
      </trkpt>
      <trkpt lat="45.39453" lon="5.88895">
        <ele>945.064071152</ele>
        <time>2016-06-23T04:41:08Z</time>
      </trkpt>
      <trkpt lat="45.39489" lon="5.88875">
        <ele>945.120945472</ele>
        <time>2016-06-23T04:41:37Z</time>
      </trkpt>
      <trkpt lat="45.39492" lon="5.88862">
        <ele>942.714593095</ele>
        <time>2016-06-23T04:41:52Z</time>
      </trkpt>
      <trkpt lat="45.39497" lon="5.88846">
        <ele>940.039254351</ele>
        <time>2016-06-23T04:42:02Z</time>
      </trkpt>
      <trkpt lat="45.39511" lon="5.88839">
        <ele>939.128742957</ele>
        <time>2016-06-23T04:42:17Z</time>
      </trkpt>
      <trkpt lat="45.39519" lon="5.88842">
        <ele>938.115654699</ele>
        <time>2016-06-23T04:42:32Z</time>
      </trkpt>
      <trkpt lat="45.39534" lon="5.88853">
        <ele>936.711206192</ele>
        <time>2016-06-23T04:42:47Z</time>
      </trkpt>
      <trkpt lat="45.39552" lon="5.88865">
        <ele>935.65776552</ele>
        <time>2016-06-23T04:43:03Z</time>
      </trkpt>
      <trkpt lat="45.39565" lon="5.88861">
        <ele>933.768815944</ele>
        <time>2016-06-23T04:43:18Z</time>
      </trkpt>
      <trkpt lat="45.39573" lon="5.88854">
        <ele>931.532661057</ele>
        <time>2016-06-23T04:43:38Z</time>
      </trkpt>
      <trkpt lat="45.39591" lon="5.88838">
        <ele>928.682254441</ele>
        <time>2016-06-23T04:43:52Z</time>
      </trkpt>
      <trkpt lat="45.39602" lon="5.88829">
        <ele>925.548442088</ele>
        <time>2016-06-23T04:44:07Z</time>
      </trkpt>
      <trkpt lat="45.39624" lon="5.88811">
        <ele>922.726892687</ele>
        <time>2016-06-23T04:44:23Z</time>
      </trkpt>
      <trkpt lat="45.3964" lon="5.88804">
        <ele>920.480528468</ele>
        <time>2016-06-23T04:44:39Z</time>
      </trkpt>
      <trkpt lat="45.39656" lon="5.88791">
        <ele>919.051454658</ele>
        <time>2016-06-23T04:44:57Z</time>
      </trkpt>
      <trkpt lat="45.3968" lon="5.88784">
        <ele>917.653034816</ele>
        <time>2016-06-23T04:45:12Z</time>
      </trkpt>
      <trkpt lat="45.39699" lon="5.88782">
        <ele>916.709342788</ele>
        <time>2016-06-23T04:45:28Z</time>
      </trkpt>
      <trkpt lat="45.39712" lon="5.88784">
        <ele>916.323933425</ele>
        <time>2016-06-23T04:45:42Z</time>
      </trkpt>
      <trkpt lat="45.39723" lon="5.88789">
        <ele>915.726663978</ele>
        <time>2016-06-23T04:45:58Z</time>
      </trkpt>
      <trkpt lat="45.39757" lon="5.88798">
        <ele>915.213493134</ele>
        <time>2016-06-23T04:46:22Z</time>
      </trkpt>
      <trkpt lat="45.39767" lon="5.88808">
        <ele>914.049790217</ele>
        <time>2016-06-23T04:46:37Z</time>
      </trkpt>
      <trkpt lat="45.3978" lon="5.88813">
        <ele>912.277444737</ele>
        <time>2016-06-23T04:46:52Z</time>
      </trkpt>
      <trkpt lat="45.39789" lon="5.8882">
        <ele>910.801822627</ele>
        <time>2016-06-23T04:47:07Z</time>
      </trkpt>
      <trkpt lat="45.39802" lon="5.88826">
        <ele>909.452353322</ele>
        <time>2016-06-23T04:47:22Z</time>
      </trkpt>
      <trkpt lat="45.39821" lon="5.88826">
        <ele>908.070824507</ele>
        <time>2016-06-23T04:47:37Z</time>
      </trkpt>
      <trkpt lat="45.39842" lon="5.88829">
        <ele>906.799140455</ele>
        <time>2016-06-23T04:47:52Z</time>
      </trkpt>
      <trkpt lat="45.39859" lon="5.88834">
        <ele>905.624544422</ele>
        <time>2016-06-23T04:48:07Z</time>
      </trkpt>
      <trkpt lat="45.39851" lon="5.88849">
        <ele>904.102793045</ele>
        <time>2016-06-23T04:48:27Z</time>
      </trkpt>
      <trkpt lat="45.3985" lon="5.88866">
        <ele>902.543987622</ele>
        <time>2016-06-23T04:48:42Z</time>
      </trkpt>
      <trkpt lat="45.3984" lon="5.88882">
        <ele>899.650507558</ele>
        <time>2016-06-23T04:48:57Z</time>
      </trkpt>
      <trkpt lat="45.39837" lon="5.88909">
        <ele>896.962081345</ele>
        <time>2016-06-23T04:49:12Z</time>
      </trkpt>
      <trkpt lat="45.39834" lon="5.8893">
        <ele>893.887358441</ele>
        <time>2016-06-23T04:49:28Z</time>
      </trkpt>
      <trkpt lat="45.39831" lon="5.88947">
        <ele>890.888437877</ele>
        <time>2016-06-23T04:49:43Z</time>
      </trkpt>
      <trkpt lat="45.39829" lon="5.88961">
        <ele>887.961060411</ele>
        <time>2016-06-23T04:49:48Z</time>
      </trkpt>
      <trkpt lat="45.39829" lon="5.88976">
        <ele>885.389421688</ele>
        <time>2016-06-23T04:49:58Z</time>
      </trkpt>
      <trkpt lat="45.39838" lon="5.89008">
        <ele>882.715394772</ele>
        <time>2016-06-23T04:50:17Z</time>
      </trkpt>
      <trkpt lat="45.39845" lon="5.89021">
        <ele>878.217887202</ele>
        <time>2016-06-23T04:50:33Z</time>
      </trkpt>
      <trkpt lat="45.39853" lon="5.89028">
        <ele>873.910210759</ele>
        <time>2016-06-23T04:50:37Z</time>
      </trkpt>
      <trkpt lat="45.39861" lon="5.89038">
        <ele>870.072088102</ele>
        <time>2016-06-23T04:50:49Z</time>
      </trkpt>
      <trkpt lat="45.39873" lon="5.89041">
        <ele>866.240865528</ele>
        <time>2016-06-23T04:51:02Z</time>
      </trkpt>
      <trkpt lat="45.39882" lon="5.89043">
        <ele>862.852551112</ele>
        <time>2016-06-23T04:51:22Z</time>
      </trkpt>
      <trkpt lat="45.39904" lon="5.89049">
        <ele>859.87756256</ele>
        <time>2016-06-23T04:51:37Z</time>
      </trkpt>
      <trkpt lat="45.39919" lon="5.89059">
        <ele>859.016673093</ele>
        <time>2016-06-23T04:51:52Z</time>
      </trkpt>
      <trkpt lat="45.3994" lon="5.89068">
        <ele>858.237014831</ele>
        <time>2016-06-23T04:52:12Z</time>
      </trkpt>
      <trkpt lat="45.39956" lon="5.89069">
        <ele>857.672393112</ele>
        <time>2016-06-23T04:52:27Z</time>
      </trkpt>
      <trkpt lat="45.39974" lon="5.89084">
        <ele>857.878536868</ele>
        <time>2016-06-23T04:52:45Z</time>
      </trkpt>
      <trkpt lat="45.39987" lon="5.89106">
        <ele>858.215337486</ele>
        <time>2016-06-23T04:52:58Z</time>
      </trkpt>
      <trkpt lat="45.40002" lon="5.8911">
        <ele>859.098174451</ele>
        <time>2016-06-23T04:53:14Z</time>
      </trkpt>
      <trkpt lat="45.40014" lon="5.89097">
        <ele>859.757564968</ele>
        <time>2016-06-23T04:53:28Z</time>
      </trkpt>
      <trkpt lat="45.4003" lon="5.8908">
        <ele>859.76949088</ele>
        <time>2016-06-23T04:53:43Z</time>
      </trkpt>
      <trkpt lat="45.40045" lon="5.89077">
        <ele>859.463559154</ele>
        <time>2016-06-23T04:53:58Z</time>
      </trkpt>
      <trkpt lat="45.40058" lon="5.8908">
        <ele>858.569727061</ele>
        <time>2016-06-23T04:54:13Z</time>
      </trkpt>
      <trkpt lat="45.40077" lon="5.89048">
        <ele>857.992451115</ele>
        <time>2016-06-23T04:54:33Z</time>
      </trkpt>
      <trkpt lat="45.40083" lon="5.89042">
        <ele>857.416097362</ele>
        <time>2016-06-23T04:54:47Z</time>
      </trkpt>
    </trkseg>
  </trk>
</gpx>